Ship Status Report: callsign 000000

sailwx.info

Track history (hours):
 
Tides and Currents Weather Stations Pressure Air Temp Water Temp Dewpoint Dewpoint Depression Visibility Wind Speed Wind Dir Waves Ship Positions

Callsign 000000 (name unknown)

Last reported at 2015-Mar-26 21:33 UTC. Time now 2015-Mar-26 22:28 UTC.
Position N 23°04' E 113°29'.

Type: Fishing. MMSI: 200007452.

Date/timePositionNaut miles runAvg speedWind from/ knotsBaromVisibWave heightAir tempDewpointWater temp
2015-Mar-26 21:33N 23°04' E 113°29'643165285.8
2015-Mar-26 21:33N 31°05' E 121°28'6924859.5
2015-Mar-26 21:33N 29°59' E 121°50'34588619.5
2015-Mar-26 21:33N 24°49' E 119°01'152.2
2015-Mar-26 21:32N 24°49' E 119°01'32114829.8
2015-Mar-26 21:30N 23°04' E 113°29'656131201.7
2015-Mar-26 21:30N 31°47' E 120°56'658148161.0
2015-Mar-26 21:30N 22°59' E 113°33'671.6
2015-Mar-26 21:25N 23°04' E 113°29'0 3.7
2015-Mar-26 21:24N 23°04' E 113°29'19232.6
2015-Mar-26 21:19N 22°48' E 113°19'3341561.0
2015-Mar-26 21:06N 24°50' E 118°59'320581.9
2015-Mar-26 20:33N 23°04' E 113°29'039.6
2015-Mar-26 20:33N 23°04' E 113°29'051.9
2015-Mar-26 20:33N 23°04' E 113°29'6439973.9
2015-Mar-26 20:29N 31°05' E 121°28'65149833.3
2015-Mar-26 20:28N 23°03' E 113°17'66421353.2
2015-Mar-26 20:26N 31°49' E 120°55'66014748.4
2015-Mar-26 20:24N 22°59' E 113°33'6179.1
2015-Mar-26 20:22N 23°04' E 113°29'5715914.0
2015-Mar-26 20:22N 22°19' E 114°07'48862.0
2015-Mar-26 20:18N 22°45' E 113°24'6282939.4
2015-Mar-26 20:05N 29°58' E 121°51'6111145.6
2015-Mar-26 19:33N 23°04' E 113°29'64345368.7
2015-Mar-26 19:33N 31°05' E 121°28'643154266.8
2015-Mar-26 19:32N 23°04' E 113°29'65960876.3
2015-Mar-26 19:32N 31°53' E 120°53'6605748.7
2015-Mar-26 19:25N 23°04' E 113°29'205467.0
2015-Mar-26 19:25N 22°44' E 113°29'202226.5
2015-Mar-26 19:24N 23°04' E 113°29'58945.8
2015-Mar-26 19:20N 22°19' E 114°07'5873.7
2015-Mar-26 18:33N 23°04' E 113°29'583467.6
2015-Mar-26 18:32N 22°19' E 114°07'51980.8
2015-Mar-26 18:29N 22°59' E 113°33'6458260.4
2015-Mar-26 18:24N 31°05' E 121°28'64382636.1
2015-Mar-26 18:24N 23°04' E 113°29'0 8.3
2015-Mar-26 18:21N 23°04' E 113°29'66310193.0
2015-Mar-26 18:17N 31°59' E 120°49'6635141.2
2015-Mar-26 18:10N 23°04' E 113°29'0 0.5
2015-Mar-26 17:34N 23°04' E 113°29'643462791.3
2015-Mar-26 17:33N 31°05' E 121°28'64379789.5
2015-Mar-26 17:33N 23°04' E 113°29'0 7.3
2015-Mar-26 17:30N 23°04' E 113°29'6292.4
2015-Mar-26 17:29N 22°59' E 113°33'511544.8
2015-Mar-26 17:27N 22°19' E 114°07'68019585.5
2015-Mar-26 17:25N 32°00' E 120°43'66012187.1
2015-Mar-26 17:22N 23°04' E 113°29'3192859.3
2015-Mar-26 17:15N 24°49' E 118°59'319461.7
2015-Mar-26 16:34N 23°04' E 113°29'643771318.9
2015-Mar-26 16:33N 31°05' E 121°28'643385631.8
2015-Mar-26 16:33N 23°04' E 113°29'588667.4
2015-Mar-26 16:33N 22°19' E 114°07'57418.3
2015-Mar-26 16:25N 23°04' E 113°29'646.5
2015-Mar-26 16:17N 22°59' E 113°33'645.0
2015-Mar-26 16:09N 23°04' E 113°29'0 0.5
2015-Mar-26 15:33N 23°04' E 113°29'010.3
2015-Mar-26 15:33N 23°04' E 113°29'0140.8
2015-Mar-26 15:33N 23°04' E 113°29'5741379.9
2015-Mar-26 15:33N 22°19' E 114°07'65750351.1
2015-Mar-26 15:32N 31°05' E 121°28'64512684.0
2015-Mar-26 15:29N 22°59' E 113°33'621.9
2015-Mar-26 15:13N 23°04' E 113°29'0 0.5
2015-Mar-26 14:33N 23°04' E 113°29'072.0
2015-Mar-26 14:33N 23°04' E 113°29'64396407.9
2015-Mar-26 14:33N 31°05' E 121°28'65756343.6
2015-Mar-26 14:32N 22°19' E 114°07'51803.7
2015-Mar-26 14:28N 22°59' E 113°33'696.6
2015-Mar-26 14:25N 23°04' E 113°29'0 5.6
2015-Mar-26 14:24N 23°04' E 113°29'12171.6
2015-Mar-26 14:20N 22°53' E 113°32'6684093.8
2015-Mar-26 14:10N 31°08' E 121°55'6601081.3
2015-Mar-26 13:33N 23°04' E 113°29'643462788.0
2015-Mar-26 13:33N 31°05' E 121°28'643110184.7
2015-Mar-26 13:33N 23°04' E 113°29'66042441.3
2015-Mar-26 13:32N 31°12' E 121°49'67021168.0
2015-Mar-26 13:30N 22°55' E 113°24'9302.2
2015-Mar-26 13:28N 22°59' E 113°33'697.5
2015-Mar-26 13:25N 23°04' E 113°29'0 6.9
2015-Mar-26 13:21N 23°04' E 113°29'659818.9
2015-Mar-26 12:33N 31°39' E 121°13'368658.1
2015-Mar-26 12:33N 31°18' E 121°47'664796244.7
2015-Mar-26 12:33N 23°04' E 113°29'64322685.7
2015-Mar-26 12:31N 31°05' E 121°28'6454463.8
2015-Mar-26 12:22N 22°59' E 113°33'6252.5
2015-Mar-26 12:21N 23°04' E 113°29'0 7.3
2015-Mar-26 12:18N 23°04' E 113°29'0 2.7
2015-Mar-26 12:10N 23°04' E 113°29'6431055.1
2015-Mar-26 11:33N 31°05' E 121°28'2591197.5
2015-Mar-26 11:33N 31°26' E 121°45'668150262.0
2015-Mar-26 11:33N 23°04' E 113°29'065.7
2015-Mar-26 11:33N 23°04' E 113°29'0 0.3
2015-Mar-26 11:21N 23°04' E 113°29'634.5
2015-Mar-26 11:10N 22°59' E 113°33'610.1
2015-Mar-26 10:33N 23°04' E 113°29'0109.5
2015-Mar-26 10:33N 23°04' E 113°29'643578477.7
2015-Mar-26 10:33N 31°05' E 121°28'6433464.2
2015-Mar-26 10:22N 23°04' E 113°29'057.1
2015-Mar-26 10:21N 23°04' E 113°29'632.5
2015-Mar-26 10:10N 22°59' E 113°33'610.5
2015-Mar-26 09:33N 23°04' E 113°29'412680.2
2015-Mar-26 09:33N 23°04' E 113°25'4565.5
2015-Mar-26 09:33N 23°04' E 113°29'668.7
2015-Mar-26 09:28N 22°59' E 113°33'31155901.7
2015-Mar-26 09:27N 19°44' E 109°13'97135687.5
2015-Mar-26 09:26N 31°35' E 121°27'492142181.0
2015-Mar-26 09:19S 20°09' E 057°29'4246664646.8
2015-Mar-26 09:18N 22°18' E 114°07'58615.3
2015-Mar-26 09:13N 23°04' E 113°29'311475.1
2015-Mar-26 08:33N 19°44' E 109°13'31150954.6
2015-Mar-26 08:33N 23°04' E 113°29'64316767.0
2015-Mar-26 08:31N 31°05' E 121°28'643105175.8
2015-Mar-26 08:30N 23°04' E 113°29'5817386.4
2015-Mar-26 08:30N 22°18' E 114°07'66202.7
2015-Mar-26 08:11N 23°04' E 113°16'12723.4
2015-Mar-26 08:10N 23°04' E 113°29'67212.6
2015-Mar-26 08:10N 22°59' E 113°33'311513.8
2015-Mar-26 07:33N 19°44' E 109°13'3116124.5
2015-Mar-26 07:30N 23°04' E 113°29'6142.0
2015-Mar-26 07:28N 22°59' E 113°33'10599.5
2015-Mar-26 07:27N 23°02' E 113°22'776.1
2015-Mar-26 07:21N 23°04' E 113°29'617105749.0
2015-Mar-26 07:21N 29°56' E 122°03'6174796.6
2015-Mar-26 07:13N 23°04' E 113°29'0 0.6
2015-Mar-26 06:33N 23°04' E 113°29'052.1
2015-Mar-26 06:33N 23°04' E 113°29'6411.4
2015-Mar-26 06:32N 22°59' E 113°33'6199015.4
2015-Mar-26 06:28N 29°51' E 122°08'821372.7
2015-Mar-26 06:24N 31°05' E 121°28'95119129.5
2015-Mar-26 06:21N 19°44' E 109°13'3155379.2
2015-Mar-26 06:18N 22°18' E 114°07'657888.5
2015-Mar-26 05:33N 31°05' E 121°28'643385630.9
2015-Mar-26 05:33N 23°04' E 113°29'044.5
2015-Mar-26 05:33N 23°04' E 113°29'6391.2
2015-Mar-26 05:32N 22°59' E 113°33'3114036.2
2015-Mar-26 05:27N 19°44' E 109°13'91970369.8
2015-Mar-26 05:27N 29°45' E 121°58'47546213.9
2015-Mar-26 05:26N 37°39' E 122°05'12711449.1
2015-Mar-26 04:33N 19°44' E 109°13'31150948.2
2015-Mar-26 04:33N 23°04' E 113°29'6438865.6
2015-Mar-26 04:29N 31°05' E 121°28'64514328.2
2015-Mar-26 04:26N 22°59' E 113°33'6294.0
2015-Mar-26 04:25N 23°04' E 113°29'0 1.3
2015-Mar-26 04:09N 23°04' E 113°29'60444341.1
2015-Mar-26 04:09N 29°43' E 121°55'14840956.7
2015-Mar-26 04:08N 31°60' E 120°48'9661524.8
2015-Mar-26 03:30N 19°44' E 109°13'3111120809.6
2015-Mar-26 03:30N 23°04' E 113°29'64350300.5
2015-Mar-26 03:30N 31°05' E 121°28'6436805.6
2015-Mar-26 03:24N 23°04' E 113°29'691.9
2015-Mar-26 03:20N 22°59' E 113°33'6655282.0
2015-Mar-26 03:12N 31°60' E 120°48'6621006.6
2015-Mar-26 02:33N 23°04' E 113°29'0 7.0
2015-Mar-26 02:30N 23°04' E 113°29'976103365.8
2015-Mar-26 02:30N 37°33' E 122°05'97981922.6
2015-Mar-26 02:29N 23°01' E 113°31'60416993.3
2015-Mar-26 02:27N 29°43' E 121°54'851291.3
2015-Mar-26 02:23N 31°05' E 121°28'641923.3
2015-Mar-26 02:21N 31°60' E 120°48'96610346.9
2015-Mar-26 02:15N 19°44' E 109°13'3117473.2
2015-Mar-26 02:13N 23°04' E 113°29'0 0.1
2015-Mar-26 01:33N 23°04' E 113°29'341.8
2015-Mar-26 01:28N 23°01' E 113°31'644210834.6
2015-Mar-26 01:28N 31°05' E 121°28'64312440.4
2015-Mar-26 01:25N 23°04' E 113°29'0 1.5
2015-Mar-26 01:10N 23°04' E 113°29'0 0.4
2015-Mar-26 00:24N 23°04' E 113°29'0 7.3
2015-Mar-26 00:21N 23°04' E 113°29'6437392.3
2015-Mar-26 00:16N 31°05' E 121°28'611602.3
2015-Mar-26 00:14N 31°58' E 120°51'66334570.8
2015-Mar-26 00:13N 23°04' E 113°29'0 0.6
2015-Mar-25 23:33N 23°04' E 113°29'043.4
2015-Mar-25 23:33N 23°04' E 113°29'0 0.6
2015-Mar-25 23:25N 23°04' E 113°29'31259189.5
2015-Mar-25 23:24N 19°44' E 109°12'304358.1
2015-Mar-25 22:33N 23°03' E 113°18'105112.6
2015-Mar-25 22:33N 23°04' E 113°29'049.9
2015-Mar-25 22:33N 23°04' E 113°29'26121848.1
2015-Mar-25 22:32N 24°12' E 118°04'3893522.7
2015-Mar-25 22:26N 29°43' E 121°54'24842572.1
2015-Mar-25 22:25N 26°08' E 119°34'3796467.6
2015-Mar-25 22:22N 23°04' E 113°29'6634831.8
2015-Mar-25 22:14N 31°59' E 120°50'651.2
2015-Mar-25 22:06N 32°02' E 120°44'6641214.7
2015-Mar-25 21:34N 23°04' E 113°25'3497.0
2015-Mar-25 21:33N 23°04' E 113°29'37912183.5
2015-Mar-25 21:31N 26°08' E 119°34'37918197.6
2015-Mar-25 21:30N 23°04' E 113°29'26980820.5
2015-Mar-25 21:30N 24°16' E 118°12'2693199.2
2015-Mar-25 21:25N 23°04' E 113°29'276323.2
2015-Mar-25 20:33N 24°20' E 118°19'27633143.0
2015-Mar-25 20:33N 23°04' E 113°29'52248.4
2015-Mar-25 20:33N 22°60' E 113°31'6673338.4
2015-Mar-25 20:21N 31°37' E 121°25'66414234.5
2015-Mar-25 20:18N 23°04' E 113°29'3794772.0
2015-Mar-25 20:13N 26°08' E 119°34'2611961.1
2015-Mar-25 20:05N 29°51' E 122°07'5481016.7
2015-Mar-25 19:33N 23°04' E 115°17'991008.8
2015-Mar-25 19:27N 23°04' E 113°29'0 9.5
2015-Mar-25 19:25N 23°04' E 113°29'0 0.4
2015-Mar-25 18:27N 23°04' E 113°29'0 6.3
2015-Mar-25 18:24N 23°04' E 113°29'0 0.4
2015-Mar-25 18:13N 23°04' E 113°29'66840071.4
2015-Mar-25 18:12N 31°26' E 121°44'5 8.3
2015-Mar-25 17:33N 31°22' E 121°48'669481849.2
2015-Mar-25 17:33N 22°59' E 113°31'599.7
2015-Mar-25 17:30N 23°04' E 113°29'0 3.7
2015-Mar-25 17:25N 23°04' E 113°29'0 0.7
2015-Mar-25 17:21N 23°04' E 113°29'0 0.1
2015-Mar-25 16:33N 23°04' E 113°29'11249.8
2015-Mar-25 16:30N 22°53' E 113°31'11199.5
2015-Mar-25 16:27N 23°04' E 113°29'0 9.0
2015-Mar-25 16:25N 23°04' E 113°29'0 0.1
2015-Mar-25 15:33N 23°04' E 113°29'0 6.1
2015-Mar-25 15:30N 23°04' E 113°29'3116694.7
2015-Mar-25 15:27N 24°43' E 118°51'3107551.2
2015-Mar-25 15:25N 23°04' E 113°29'316368.2
2015-Mar-25 14:33N 24°47' E 118°56'3165773.1
2015-Mar-25 14:30N 23°04' E 113°29'0 3.1
2015-Mar-25 14:24N 23°04' E 113°29'0 0.4
2015-Mar-25 14:13N 23°04' E 113°29'0 0.1
2015-Mar-25 13:33N 23°04' E 113°29'32255148.5
2015-Mar-25 13:33N 24°52' E 119°01'3222453.4
2015-Mar-25 13:25N 23°04' E 113°29'0 1.2
2015-Mar-25 13:06N 23°04' E 113°29'0 0.0
2015-Mar-25 12:30N 23°04' E 113°29'0 2.8
2015-Mar-25 12:22N 23°04' E 113°29'0 6.8
2015-Mar-25 12:21N 23°04' E 113°29'65917445.8
2015-Mar-25 12:19N 32°00' E 120°41'659862.8
2015-Mar-25 11:33N 23°04' E 113°29'572914.4
2015-Mar-25 11:32N 22°19' E 114°08'581944.3
2015-Mar-25 11:30N 23°04' E 113°29'0 4.4
2015-Mar-25 11:25N 23°04' E 113°29'0 0.1
2015-Mar-25 10:33N 23°04' E 113°29'0 6.6
2015-Mar-25 10:30N 23°04' E 113°29'59980.7
2015-Mar-25 10:27N 22°19' E 114°09'582044.0
2015-Mar-25 10:25N 23°04' E 113°29'5865.1
2015-Mar-25 09:31N 22°19' E 114°09'59890.3
2015-Mar-25 09:27N 23°04' E 113°29'0 5.7
2015-Mar-25 09:24N 23°04' E 113°29'0 0.6
2015-Mar-25 09:13N 23°04' E 113°29'6654485.1
2015-Mar-25 09:04N 31°20' E 121°48'6651292.6
2015-Mar-25 08:33N 23°04' E 113°29'663298346.2
2015-Mar-25 08:33N 31°18' E 121°46'3333.3
2015-Mar-25 07:33N 31°38' E 121°15'393709.6
2015-Mar-25 07:33N 31°12' E 121°49'66113992.6
2015-Mar-25 07:30N 23°04' E 113°29'59349.0
2015-Mar-25 07:20N 22°19' E 114°09'67523152.0
2015-Mar-25 07:18N 31°35' E 121°19'6596399.1
2015-Mar-25 07:12N 23°04' E 113°29'6591029.0
2015-Mar-25 06:33N 31°32' E 121°22'40613.0
2015-Mar-25 06:30N 31°07' E 121°58'66215275.6
2015-Mar-25 06:27N 23°04' E 113°29'111087.4
2015-Mar-25 06:26N 22°57' E 113°37'10131.4
2015-Mar-25 06:22N 23°04' E 113°29'0 3.8
2015-Mar-25 06:21N 23°04' E 113°29'12882.6
2015-Mar-25 06:20N 23°04' E 113°16'678580.0
2015-Mar-25 06:20N 22°19' E 114°09'674853.4
2015-Mar-25 05:32N 31°27' E 121°29'67455176.3
2015-Mar-25 05:32N 22°19' E 114°09'58559.6
2015-Mar-25 05:25N 23°04' E 113°29'6601188474.3
2015-Mar-25 05:25N 32°00' E 120°43'6605413.6
2015-Mar-25 05:18N 23°04' E 113°29'0 0.4
2015-Mar-25 04:30N 23°04' E 113°29'0 0.6
2015-Mar-25 04:25N 23°04' E 113°29'66010147.0
2015-Mar-25 04:21N 31°39' E 121°13'6596687.5
2015-Mar-25 04:15N 23°04' E 113°29'3738038.8
2015-Mar-25 04:12N 25°44' E 119°39'5 7.5
2015-Mar-25 03:33N 25°48' E 119°41'3768017.0
2015-Mar-25 03:30N 23°04' E 113°29'0 7.9
2015-Mar-25 03:27N 23°04' E 113°29'14242.0
2015-Mar-25 03:24N 22°52' E 113°34'13398.7
2015-Mar-25 03:22N 23°04' E 113°29'8 9.1
2015-Mar-25 02:30N 23°03' E 113°21'81110.8
2015-Mar-25 02:30N 23°04' E 113°29'0123.6
2015-Mar-25 02:30N 23°04' E 113°29'0 1.3
2015-Mar-25 02:11N 23°04' E 113°29'1321.2
2015-Mar-25 01:33N 22°51' E 113°34'14289.7
2015-Mar-25 01:30N 23°04' E 113°29'0123.6
2015-Mar-25 01:30N 23°04' E 113°29'581672.7
2015-Mar-25 01:28N 22°18' E 114°07'48810.9
2015-Mar-25 01:24N 22°57' E 113°37'1052.4
2015-Mar-25 01:13N 23°04' E 113°29'5888.2
2015-Mar-25 00:34N 22°18' E 114°07'97441736.6
2015-Mar-25 00:32N 36°48' E 122°31'94826261.9
2015-Mar-25 00:30N 23°04' E 113°29'0111.2
2015-Mar-25 00:30N 23°04' E 113°29'6139558.0
2015-Mar-25 00:26N 29°48' E 122°04'14413336.1
2015-Mar-25 00:25N 31°58' E 120°51'66366274.3
2015-Mar-25 00:25N 23°04' E 113°29'9541113.5
2015-Mar-24 23:33N 36°55' E 122°29'43112621.1
2015-Mar-24 23:31N 29°45' E 121°60'60829187.7
2015-Mar-24 23:30N 23°04' E 113°29'5826068.4
2015-Mar-24 23:30N 22°18' E 114°07'58103722.8
2015-Mar-24 23:30N 23°04' E 113°29'0 0.6
2015-Mar-24 23:22N 23°04' E 113°29'0 0.4
2015-Mar-24 22:30N 23°04' E 113°29'581241.4
2015-Mar-24 22:27N 22°18' E 114°07'589878.4
2015-Mar-24 22:27N 23°04' E 113°29'6632978.6
2015-Mar-24 22:13N 31°58' E 120°51'663815.7
2015-Mar-24 21:25N 23°04' E 113°29'585607.6
2015-Mar-24 21:24N 22°18' E 114°07'58380.9
2015-Mar-24 21:15N 23°04' E 113°29'3797183.5
2015-Mar-24 21:12N 26°08' E 119°34'3793801.1
2015-Mar-24 21:06N 23°04' E 113°29'58105.6
2015-Mar-24 20:33N 22°18' E 114°07'68227915.7
2015-Mar-24 20:32N 31°58' E 120°51'67135517.2
2015-Mar-24 20:30N 22°51' E 113°34'14234.1
2015-Mar-24 20:27N 23°04' E 113°29'0 9.3
2015-Mar-24 20:25N 23°04' E 113°29'10200.1
2015-Mar-24 20:22N 22°57' E 113°37'3772295.5
2015-Mar-24 20:12N 26°08' E 119°34'376579.3
2015-Mar-24 19:33N 22°18' E 114°07'6829633.6
2015-Mar-24 19:29N 31°58' E 120°51'66541269.7
2015-Mar-24 19:28N 22°57' E 113°37'11905.4
2015-Mar-24 19:27N 23°04' E 113°29'0127.0
2015-Mar-24 19:27N 23°04' E 113°29'0 1.2
2015-Mar-24 19:25N 23°04' E 113°29'3793296.2
2015-Mar-24 19:18N 26°08' E 119°34'376499.5
2015-Mar-24 18:33N 22°18' E 114°07'581288.7
2015-Mar-24 18:30N 23°04' E 113°29'0114.3
2015-Mar-24 18:30N 23°04' E 113°29'103137104.8
2015-Mar-24 18:28N 38°46' E 121°36'103118100.6
2015-Mar-24 18:25N 23°04' E 113°29'5866.3
2015-Mar-24 17:33N 22°18' E 114°07'581258.5
2015-Mar-24 17:30N 23°04' E 113°29'0 6.9
2015-Mar-24 17:27N 23°04' E 113°29'11584.8
2015-Mar-24 17:26N 22°57' E 113°37'10483.7
2015-Mar-24 17:25N 23°04' E 113°29'663752.0
2015-Mar-24 16:32N 31°58' E 120°51'66321301.1
2015-Mar-24 16:30N 23°04' E 113°29'0128.7
2015-Mar-24 16:30N 23°04' E 113°29'581007.8
2015-Mar-24 16:26N 22°18' E 114°07'58207.3
2015-Mar-24 16:10N 23°04' E 113°29'0 0.1
2015-Mar-24 15:27N 23°04' E 113°29'586481.6
2015-Mar-24 15:26N 22°18' E 114°07'48446.8
2015-Mar-24 15:20N 22°57' E 113°37'6654184.9
2015-Mar-24 15:10N 31°58' E 120°51'66356808.8
2015-Mar-24 15:10N 23°04' E 113°29'5892.0
2015-Mar-24 14:32N 22°18' E 114°07'581492.3
2015-Mar-24 14:30N 23°04' E 113°29'0 6.4
2015-Mar-24 14:27N 23°04' E 113°29'66326508.2
2015-Mar-24 14:25N 31°58' E 120°51'66310604.2
2015-Mar-24 14:22N 23°04' E 113°29'6102251.3
2015-Mar-24 14:05N 29°46' E 122°01'6181111.3
2015-Mar-24 13:32N 22°19' E 114°07'67725132.3
2015-Mar-24 13:30N 32°01' E 120°36'65773864.9
2015-Mar-24 13:30N 23°04' E 113°29'61455279.6
2015-Mar-24 13:29N 29°49' E 122°05'61414739.9
2015-Mar-24 13:27N 23°04' E 113°29'0 0.6
2015-Mar-24 13:22N 23°04' E 113°29'1040.6
2015-Mar-24 13:07N 22°57' E 113°37'1016.4
2015-Mar-24 12:30N 23°04' E 113°29'62043740.5
2015-Mar-24 12:29N 29°54' E 122°08'62018747.5
2015-Mar-24 12:27N 23°04' E 113°29'0 4.5
2015-Mar-24 12:22N 23°04' E 113°29'66032563.6
2015-Mar-24 12:21N 31°08' E 121°54'6615065.9
2015-Mar-24 12:13N 22°57' E 113°37'6634513.1
2015-Mar-24 12:04N 32°01' E 120°44'140273.8
2015-Mar-24 11:33N 29°57' E 121°59'7931455.7
2015-Mar-24 11:33N 31°15' E 121°47'66112994.5
2015-Mar-24 11:30N 23°04' E 113°29'0 4.3
2015-Mar-24 11:25N 23°04' E 113°29'106042.3
2015-Mar-24 11:25N 22°57' E 113°37'6656094.7
2015-Mar-24 11:18N 32°00' E 120°49'663108505.5
2015-Mar-24 11:18N 23°04' E 113°29'66227727.0
2015-Mar-24 11:16N 31°59' E 120°49'66929001.9
2015-Mar-24 11:15N 23°03' E 113°19'1825.7
2015-Mar-24 10:33N 22°57' E 113°37'667299981.0
2015-Mar-24 10:33N 31°20' E 121°48'671268246.1
2015-Mar-24 10:33N 23°02' E 113°23'61612311.7
2015-Mar-24 10:30N 29°59' E 121°49'610219637.4
2015-Mar-24 10:30N 23°04' E 113°29'0 0.9
2015-Mar-24 10:25N 23°04' E 113°29'012.7
2015-Mar-24 10:23N 23°04' E 113°29'0 0.5
2015-Mar-24 09:33N 23°04' E 113°28'6757.9
2015-Mar-24 09:33N 22°60' E 113°32'5100.7
2015-Mar-24 09:30N 23°04' E 113°29'66718065.6
2015-Mar-24 09:28N 31°28' E 121°41'66920403.5
2015-Mar-24 09:26N 22°57' E 113°37'665265836.6
2015-Mar-24 09:25N 31°59' E 120°49'66210599.3
2015-Mar-24 09:22N 23°04' E 113°29'0 2.7
2015-Mar-24 09:14N 23°04' E 113°29'6093446.6
2015-Mar-24 09:03N 29°59' E 121°47'6121221.8
2015-Mar-24 08:33N 23°04' E 113°25'4905.3
2015-Mar-24 08:33N 23°04' E 113°30'10423.7
2015-Mar-24 08:32N 22°57' E 113°37'10128.2
2015-Mar-24 08:27N 23°04' E 113°29'9204.4
2015-Mar-24 08:24N 22°56' E 113°33'9205.9
2015-Mar-24 08:22N 23°04' E 113°29'6635327.9
2015-Mar-24 08:14N 32°00' E 120°49'66311933.2
2015-Mar-24 08:11N 23°04' E 113°29'1 1.2
2015-Mar-24 07:33N 23°04' E 113°30'60935913.7
2015-Mar-24 07:32N 29°59' E 121°47'6196454.4
2015-Mar-24 07:27N 22°18' E 114°07'585357.5
2015-Mar-24 07:26N 23°04' E 113°29'12697.8
2015-Mar-24 07:25N 23°03' E 113°16'98712830.7
2015-Mar-24 07:20N 37°38' E 122°06'98210740.0
2015-Mar-24 07:15N 23°04' E 113°29'6405006.0
2015-Mar-24 07:07N 31°17' E 121°08'491054.6
2015-Mar-24 07:04N 31°60' E 120°40'6581272.3
2015-Mar-24 06:33N 23°04' E 113°30'98148354.4
2015-Mar-24 06:32N 37°35' E 122°11'98111102.1
2015-Mar-24 06:27N 23°04' E 113°29'023.4
2015-Mar-24 06:26N 23°04' E 113°29'019.6
2015-Mar-24 06:25N 23°04' E 113°29'58774.6
2015-Mar-24 06:20N 22°18' E 114°07'2533930.0
2015-Mar-24 06:16N 24°19' E 118°10'2635359.1
2015-Mar-24 06:13N 22°57' E 113°37'6445329.3
2015-Mar-24 06:06N 31°05' E 121°28'6421171.5
2015-Mar-24 05:33N 23°04' E 113°30'5612666.9
2015-Mar-24 05:33N 22°19' E 114°06'25321199.6
2015-Mar-24 05:32N 24°22' E 118°07'82016483.6
2015-Mar-24 05:29N 37°33' E 122°20'98219113.2
2015-Mar-24 05:26N 23°04' E 113°29'0 1.3
2015-Mar-24 05:10N 23°04' E 113°29'0 0.8
2015-Mar-24 04:33N 23°04' E 113°30'2619400.9
2015-Mar-24 04:32N 24°25' E 118°01'2626589.0
2015-Mar-24 04:29N 23°04' E 113°29'0 3.5
2015-Mar-24 04:24N 23°04' E 113°29'110.2
2015-Mar-24 04:21N 23°04' E 113°29'61113246.3
2015-Mar-24 04:18N 29°58' E 121°51'1341671.4
2015-Mar-24 04:13N 32°01' E 120°49'5277.4
2015-Mar-24 03:33N 31°23' E 121°30'526921.2
2015-Mar-24 03:32N 32°01' E 120°49'664341410.2
2015-Mar-24 03:32N 23°04' E 113°30'115.0
2015-Mar-24 03:29N 23°04' E 113°29'25614387.5
2015-Mar-24 03:28N 24°24' E 117°54'2562009.0
2015-Mar-24 03:21N 23°04' E 113°29'61628451.9
2015-Mar-24 03:19N 29°56' E 122°02'1398907.9
2015-Mar-24 03:18N 31°59' E 120°49'5 6.9
2015-Mar-24 02:33N 32°00' E 120°43'066.5
2015-Mar-24 02:33N 32°00' E 120°43'660215952.7
2015-Mar-24 02:33N 23°04' E 113°30'102215.2
2015-Mar-24 02:33N 22°57' E 113°37'61889034.6
2015-Mar-24 02:32N 29°52' E 122°08'62511648.8
2015-Mar-24 02:29N 23°03' E 113°21'66029696.8
2015-Mar-24 02:28N 31°21' E 121°27'6545477.9
2015-Mar-24 02:21N 23°04' E 113°29'0 1.2
2015-Mar-24 02:05N 23°04' E 113°29'6541213.5
2015-Mar-24 01:33N 31°21' E 121°27'6541177215.0
2015-Mar-24 01:33N 23°04' E 113°30'61052272.7
2015-Mar-24 01:32N 29°46' E 122°02'61032304.9
2015-Mar-24 01:31N 22°57' E 113°37'659139610.6
2015-Mar-24 01:31N 32°02' E 120°35'65723885.2
2015-Mar-24 01:29N 23°04' E 113°29'0 2.2
2015-Mar-24 01:21N 23°04' E 113°29'9703579.7
2015-Mar-24 01:04N 37°08' E 122°43'9701874.3
2015-Mar-24 00:33N 23°04' E 113°29'89018.3
2015-Mar-24 00:33N 23°02' E 113°21'8850.5
2015-Mar-24 00:33N 23°04' E 113°29'965231645.4
2015-Mar-24 00:32N 37°03' E 122°41'44114317.4
2015-Mar-24 00:31N 29°43' E 121°55'60425563.7
2015-Mar-24 00:29N 23°04' E 113°29'65419628.2
2015-Mar-24 00:27N 31°21' E 121°27'654724.1
2015-Mar-23 23:33N 23°04' E 113°29'955245589.8
2015-Mar-23 23:33N 36°54' E 122°35'956104311.1
2015-Mar-23 23:32N 23°04' E 113°26'357.5
2015-Mar-23 23:29N 23°04' E 113°29'10152.2
2015-Mar-23 23:25N 22°57' E 113°37'103519820.1
2015-Mar-23 23:22N 38°47' E 121°36'4456735.5
2015-Mar-23 23:18N 31°21' E 121°27'654878.5
2015-Mar-23 22:33N 23°04' E 113°29'948121843.0
2015-Mar-23 22:33N 36°51' E 122°23'94881287.5
2015-Mar-23 22:32N 23°03' E 113°31'2692.1
2015-Mar-23 22:32N 23°04' E 113°29'591451.0
2015-Mar-23 22:30N 22°19' E 114°10'5911208.6
2015-Mar-23 22:29N 23°04' E 113°29'6543945.1
2015-Mar-23 22:19N 31°21' E 121°27'654854.3
2015-Mar-23 21:33N 23°04' E 113°29'0 3.1
2015-Mar-23 21:32N 23°04' E 113°29'65450113.8
2015-Mar-23 21:31N 31°21' E 121°27'6548011.0
2015-Mar-23 21:26N 23°04' E 113°29'59445.6
2015-Mar-23 21:18N 22°19' E 114°10'5977.3
2015-Mar-23 20:33N 23°04' E 113°29'591198.5
2015-Mar-23 20:30N 22°19' E 114°10'59362.5
2015-Mar-23 20:20N 23°04' E 113°29'65456083.7
2015-Mar-23 20:19N 31°21' E 121°27'65419149.4
2015-Mar-23 20:17N 23°04' E 113°29'379502.2
2015-Mar-23 19:32N 26°08' E 119°34'374448931.8
2015-Mar-23 19:32N 22°19' E 114°10'67773863.1
2015-Mar-23 19:31N 32°00' E 120°39'3036613.7
2015-Mar-23 19:29N 36°51' E 122°23'3043894.4
2015-Mar-23 19:24N 31°59' E 120°40'3401.4
2015-Mar-23 19:23N 32°01' E 120°37'676794.9
2015-Mar-23 18:32N 22°19' E 114°10'6821874.5
2015-Mar-23 18:11N 31°26' E 121°45'3263237.6
2015-Mar-23 18:04N 36°51' E 122°23'331632.0
2015-Mar-23 17:33N 31°21' E 121°48'3311201.5
2015-Mar-23 17:16N 36°51' E 122°23'335467.7
2015-Mar-23 16:33N 31°17' E 121°45'67520939.7
2015-Mar-23 16:32N 22°19' E 114°10'59171.9
2015-Mar-23 16:11N 23°04' E 113°29'654196291.0
2015-Mar-23 16:11N 31°21' E 121°27'658103061.5
2015-Mar-23 16:10N 22°56' E 113°33'9248.0
2015-Mar-23 16:08N 23°04' E 113°29'099.1
2015-Mar-23 16:08N 23°04' E 113°29'0 0.1
2015-Mar-23 15:33N 23°04' E 113°29'66154062.8
2015-Mar-23 15:33N 31°10' E 121°52'661103423.7
2015-Mar-23 15:32N 23°04' E 113°29'658197485.5
2015-Mar-23 15:32N 31°24' E 121°31'66065973.7
2015-Mar-23 15:31N 22°57' E 113°37'49447.2
2015-Mar-23 15:25N 22°19' E 114°10'44763.0
2015-Mar-23 15:21N 22°49' E 113°36'1671.0
2015-Mar-23 15:08N 23°04' E 113°29'0 0.1
2015-Mar-23 14:33N 23°04' E 113°29'658236979.3
2015-Mar-23 14:33N 31°24' E 121°31'65860763.4
2015-Mar-23 14:32N 23°04' E 113°29'086.7
2015-Mar-23 14:32N 23°04' E 113°29'66244975.4
2015-Mar-23 14:31N 31°05' E 122°00'33372.1
2015-Mar-23 14:26N 31°21' E 121°27'6692176.6
2015-Mar-23 14:07N 22°19' E 114°10'6731174.4
2015-Mar-23 13:33N 31°24' E 121°31'65839496.8
2015-Mar-23 13:32N 23°04' E 113°29'064.8
2015-Mar-23 13:32N 23°04' E 113°29'591086.4
2015-Mar-23 13:29N 22°19' E 114°10'59641.5
2015-Mar-23 13:23N 23°04' E 113°29'65413614.2
2015-Mar-23 13:20N 31°21' E 121°27'6565257.5
2015-Mar-23 13:13N 22°57' E 113°37'1015.4
2015-Mar-23 12:33N 23°04' E 113°29'65847396.2
2015-Mar-23 12:32N 31°24' E 121°31'658124725.6
2015-Mar-23 12:32N 23°04' E 113°29'0 2.3
2015-Mar-23 12:23N 23°04' E 113°29'1059.8
2015-Mar-23 12:13N 22°57' E 113°37'1015.4
2015-Mar-23 11:33N 23°04' E 113°29'65852662.4
2015-Mar-23 11:33N 31°24' E 121°31'658103034.2
2015-Mar-23 11:32N 23°04' E 113°29'097.1
2015-Mar-23 11:32N 23°04' E 113°29'1085.2
2015-Mar-23 11:25N 22°57' E 113°37'1011.8
2015-Mar-23 10:33N 23°04' E 113°29'020.9
2015-Mar-23 10:32N 23°04' E 113°29'522969.7
2015-Mar-23 10:31N 22°15' E 113°48'67223486.7
2015-Mar-23 10:29N 31°58' E 120°05'33709.8
2015-Mar-23 10:27N 32°01' E 120°44'6616053.4
2015-Mar-23 10:20N 23°04' E 113°29'65412204.8
2015-Mar-23 10:17N 31°21' E 121°27'654894.6
2015-Mar-23 09:33N 23°04' E 113°29'65434638.5
2015-Mar-23 09:32N 31°21' E 121°27'491926.4
2015-Mar-23 09:30N 31°59' E 120°51'321389.4
2015-Mar-23 09:29N 31°57' E 120°14'29301.1
2015-Mar-23 09:23N 31°60' E 120°48'66212678.7
2015-Mar-23 09:20N 23°04' E 113°29'0 2.1
2015-Mar-23 09:11N 23°04' E 113°29'7191.7
2015-Mar-23 09:09N 22°58' E 113°33'6651120.0
2015-Mar-23 08:33N 31°60' E 120°48'66270106.4
2015-Mar-23 08:33N 23°04' E 113°29'659124863.5
2015-Mar-23 08:32N 31°52' E 120°54'659237220.3
2015-Mar-23 08:32N 23°04' E 113°29'6481166205.1
2015-Mar-23 08:32N 31°60' E 120°21'64730669.7
2015-Mar-23 08:31N 23°03' E 113°32'218.4
2015-Mar-23 08:23N 23°04' E 113°29'654471104.4
2015-Mar-23 08:23N 31°21' E 121°27'65710749.0
2015-Mar-23 08:19N 22°56' E 113°36'25121005.9
2015-Mar-23 08:18N 24°25' E 117°52'2631245.4
2015-Mar-23 08:06N 23°03' E 113°19'17997.8
2015-Mar-23 08:05N 22°57' E 113°37'66147620.9
2015-Mar-23 08:04N 32°00' E 120°41'6601292.0
2015-Mar-23 07:33N 23°05' E 113°27'101021.8
2015-Mar-23 07:33N 22°55' E 113°28'101448.6
2015-Mar-23 07:32N 23°04' E 113°29'0288.3
2015-Mar-23 07:32N 23°04' E 113°29'048.9
2015-Mar-23 07:32N 23°04' E 113°29'82336.2
2015-Mar-23 07:32N 23°03' E 113°21'162207.9
2015-Mar-23 07:31N 22°57' E 113°37'6567175.3
2015-Mar-23 07:26N 31°21' E 121°27'51216.4
2015-Mar-23 07:12N 31°60' E 120°48'5179.0
2015-Mar-23 06:33N 31°21' E 121°27'6602374203.4
2015-Mar-23 06:33N 23°02' E 113°23'62585.6
2015-Mar-23 06:33N 23°04' E 113°29'0 1.4
2015-Mar-23 06:20N 23°04' E 113°29'0 2.0
2015-Mar-23 06:11N 23°04' E 113°29'66211345.7
2015-Mar-23 06:07N 31°56' E 120°53'6621163.3
2015-Mar-23 05:33N 23°04' E 113°29'92050.0
2015-Mar-23 05:33N 23°03' E 113°19'9629.4
2015-Mar-23 05:32N 23°04' E 113°29'6586529.0
2015-Mar-23 05:26N 31°24' E 121°31'51355.2
2015-Mar-23 05:17N 31°60' E 120°48'21581.0
2015-Mar-23 05:17N 31°58' E 120°50'6624197.0
2015-Mar-23 05:08N 23°04' E 113°29'10226.4
2015-Mar-23 05:05N 22°57' E 113°37'664477865.7
2015-Mar-23 05:05N 31°55' E 120°54'6621241.1
2015-Mar-23 04:33N 23°04' E 113°29'65969823.0
2015-Mar-23 04:33N 31°32' E 121°22'1171.1
2015-Mar-23 04:24N 31°24' E 121°30'65871825.0
2015-Mar-23 04:23N 23°04' E 113°29'0 1.3
2015-Mar-23 04:08N 23°04' E 113°29'9501638.9
2015-Mar-23 03:33N 36°51' E 122°29'95092449.2
2015-Mar-23 03:33N 23°04' E 113°29'0 3.1
2015-Mar-23 03:32N 23°04' E 113°29'2549417.3
2015-Mar-23 03:30N 24°25' E 117°52'254114259.2
2015-Mar-23 03:30N 23°04' E 113°29'6648887.3
2015-Mar-23 03:26N 32°01' E 120°49'328.3
2015-Mar-23 03:19N 31°58' E 120°50'682896.8
2015-Mar-23 02:33N 22°19' E 114°07'5711432.1
2015-Mar-23 02:33N 23°04' E 113°29'66215998.7
2015-Mar-23 02:31N 31°58' E 120°50'662125455.2
2015-Mar-23 02:30N 23°04' E 113°29'9578552.5
2015-Mar-23 02:23N 36°54' E 122°40'9617059.2
2015-Mar-23 02:15N 22°57' E 113°37'11147.7
2015-Mar-23 02:11N 23°04' E 113°29'0 0.6
2015-Mar-23 01:33N 23°04' E 113°29'6860996.0
2015-Mar-23 01:33N 22°12' E 114°17'681504.9
2015-Mar-23 01:30N 23°04' E 113°29'581356.5
2015-Mar-23 01:28N 22°18' E 114°07'67063510.5
2015-Mar-23 01:27N 31°22' E 121°28'6559699.3
2015-Mar-23 01:23N 23°04' E 113°29'6623765.5
2015-Mar-23 01:12N 31°58' E 120°50'4974.9
2015-Mar-23 00:33N 31°22' E 121°28'6552357054.7
2015-Mar-23 00:33N 23°04' E 113°29'686961.4
2015-Mar-23 00:33N 22°18' E 114°23'681590.8
2015-Mar-23 00:30N 23°04' E 113°29'581305.6
2015-Mar-23 00:28N 22°18' E 114°07'581295.0
2015-Mar-23 00:25N 23°04' E 113°29'6624701.4
2015-Mar-23 00:16N 31°58' E 120°50'3093445.8
2015-Mar-23 00:11N 36°53' E 122°43'337532.5
2015-Mar-22 23:33N 31°22' E 121°28'655124055.5
2015-Mar-22 23:33N 23°04' E 113°29'0 9.0
2015-Mar-22 23:30N 23°04' E 113°29'0 4.5
2015-Mar-22 23:28N 23°04' E 113°29'106243.2
2015-Mar-22 23:28N 22°57' E 113°37'483170.1
2015-Mar-22 23:27N 22°18' E 114°07'68220452.2
2015-Mar-22 23:25N 31°58' E 120°50'6646277.6
2015-Mar-22 23:19N 23°00' E 113°31'5167.4
2015-Mar-22 22:33N 22°20' E 114°05'5566573.7
2015-Mar-22 22:33N 23°04' E 113°29'65550150.4
2015-Mar-22 22:33N 31°22' E 121°28'32953891.6
2015-Mar-22 22:32N 26°08' E 119°34'37916422.4
2015-Mar-22 22:31N 23°04' E 113°30'178.7
2015-Mar-22 22:30N 23°04' E 113°29'58253.2
2015-Mar-22 22:16N 22°18' E 114°07'5880.2
2015-Mar-22 21:33N 23°04' E 113°29'5823067.0
2015-Mar-22 21:33N 22°18' E 114°07'37622543.5
2015-Mar-22 21:32N 26°08' E 119°34'32916021.3
2015-Mar-22 21:31N 31°22' E 121°28'655261808.3
2015-Mar-22 21:31N 23°04' E 113°30'113.2
2015-Mar-22 21:27N 23°04' E 113°29'9566351.5
2015-Mar-22 21:18N 36°51' E 122°43'3213222.9
2015-Mar-22 21:12N 31°57' E 120°09'35769.3
2015-Mar-22 21:09N 31°58' E 120°50'6621098.0
2015-Mar-22 20:33N 23°04' E 113°29'5814832.4
2015-Mar-22 20:33N 22°18' E 114°07'37625520.9
2015-Mar-22 20:32N 26°08' E 119°34'37713702.6
2015-Mar-22 20:31N 22°57' E 113°37'65617243.8
2015-Mar-22 20:28N 31°22' E 121°28'65584152.7
2015-Mar-22 20:28N 23°04' E 113°30'127.5
2015-Mar-22 20:26N 23°04' E 113°29'6589916.1
2015-Mar-22 20:22N 31°24' E 121°30'48801.8
2015-Mar-22 20:18N 31°58' E 120°50'311234.6
2015-Mar-22 20:18N 32°01' E 120°48'663881.6
2015-Mar-22 19:33N 23°04' E 113°29'588314.5
2015-Mar-22 19:33N 22°18' E 114°07'67075419.3
2015-Mar-22 19:32N 31°22' E 121°28'32998797.8
2015-Mar-22 19:32N 26°08' E 119°34'37916226.9
2015-Mar-22 19:31N 23°04' E 113°30'110.8
2015-Mar-22 19:26N 23°04' E 113°29'58349.7
2015-Mar-22 19:16N 22°19' E 114°07'98013409.0
2015-Mar-22 19:12N 36°50' E 122°41'9551489.6
2015-Mar-22 18:33N 23°04' E 113°29'3823.6
2015-Mar-22 18:33N 23°04' E 113°26'38226427.4
2015-Mar-22 18:32N 26°08' E 119°34'32914637.0
2015-Mar-22 18:31N 31°22' E 121°28'67037709.9
2015-Mar-22 18:30N 22°18' E 114°07'571734.8
2015-Mar-22 18:28N 23°04' E 113°30'95568734.4
2015-Mar-22 18:27N 36°51' E 122°41'9551061.2
2015-Mar-22 17:33N 23°04' E 113°29'588660.9
2015-Mar-22 17:33N 22°18' E 114°07'37658809.7
2015-Mar-22 17:32N 26°08' E 119°34'37916226.9
2015-Mar-22 17:31N 23°04' E 113°30'95566123.6
2015-Mar-22 17:30N 36°52' E 122°40'33517251.3
2015-Mar-22 17:29N 31°22' E 121°28'6595994.3
2015-Mar-22 17:22N 23°02' E 113°24'6627741.5
2015-Mar-22 17:17N 31°32' E 121°20'658898.6
2015-Mar-22 16:33N 23°04' E 113°29'65513546.4
2015-Mar-22 16:30N 31°22' E 121°28'33654973.4
2015-Mar-22 16:30N 36°52' E 122°40'96012296.3
2015-Mar-22 16:25N 23°02' E 113°24'652.5
2015-Mar-22 16:19N 23°04' E 113°30'662871.7
2015-Mar-22 15:33N 31°58' E 120°50'662297974.4
2015-Mar-22 15:33N 23°04' E 113°29'65535180.3
2015-Mar-22 15:32N 31°22' E 121°28'65563685.2
2015-Mar-22 15:31N 23°04' E 113°30'650.4
2015-Mar-22 15:25N 23°02' E 113°24'96058563.3
2015-Mar-22 15:24N 36°52' E 122°40'9597723.4
2015-Mar-22 15:16N 22°57' E 113°37'1014.3
2015-Mar-22 14:33N 23°04' E 113°29'95676505.0
2015-Mar-22 14:32N 36°51' E 122°43'3366260.8
2015-Mar-22 14:29N 31°22' E 121°28'65528736.0
2015-Mar-22 14:28N 23°04' E 113°30'6110.7
2015-Mar-22 14:25N 23°02' E 113°24'13130.5
2015-Mar-22 14:19N 22°57' E 113°37'1248.4
2015-Mar-22 14:03N 22°45' E 113°33'1938.0
2015-Mar-22 13:33N 23°04' E 113°29'65571426.4
2015-Mar-22 13:32N 31°22' E 121°28'67143126.1
2015-Mar-22 13:31N 22°44' E 113°29'19314.1
2015-Mar-22 13:28N 23°02' E 113°24'9599947.1
2015-Mar-22 13:22N 36°50' E 122°41'9559212.8
2015-Mar-22 13:16N 23°04' E 113°30'1 0.7
2015-Mar-22 12:33N 23°04' E 113°29'111.6
2015-Mar-22 12:31N 23°04' E 113°30'65515709.0
2015-Mar-22 12:28N 31°22' E 121°28'331198551.7
2015-Mar-22 12:28N 36°48' E 122°32'953201791.0
2015-Mar-22 12:28N 23°02' E 113°24'14299.4
2015-Mar-22 12:25N 22°48' E 113°21'1820.8
2015-Mar-22 11:33N 23°04' E 113°29'655102481.3
2015-Mar-22 11:33N 31°22' E 121°28'33127715.8
2015-Mar-22 11:32N 36°49' E 122°25'94759794.5
2015-Mar-22 11:31N 23°04' E 113°30'66055279.9
2015-Mar-22 11:31N 31°14' E 121°47'38392.2
2015-Mar-22 11:25N 31°39' E 121°13'664398424.2
2015-Mar-22 11:25N 23°02' E 113°24'66216092.3
2015-Mar-22 11:22N 32°02' E 120°35'7591.9
2015-Mar-22 10:33N 31°20' E 121°48'665108816.1
2015-Mar-22 10:33N 23°04' E 113°29'65538640.0
2015-Mar-22 10:32N 31°22' E 121°28'65525900.2
2015-Mar-22 10:30N 23°04' E 113°29'556.8
2015-Mar-22 10:25N 23°02' E 113°24'581691.8
2015-Mar-22 10:23N 22°19' E 114°07'5769.3
2015-Mar-22 09:33N 23°04' E 113°29'65134990.4
2015-Mar-22 09:32N 32°02' E 120°23'684994.6
2015-Mar-22 09:32N 31°22' E 121°28'65529834.6
2015-Mar-22 09:30N 23°04' E 113°29'582202.4
2015-Mar-22 09:29N 22°19' E 114°07'593922.6
2015-Mar-22 09:28N 23°02' E 113°24'591041.5
2015-Mar-22 09:24N 22°18' E 114°07'66149584.4
2015-Mar-22 09:24N 32°01' E 119°58'44552.6
2015-Mar-22 09:19N 31°58' E 120°50'2228.6
2015-Mar-22 08:34N 32°03' E 120°25'653587775.8
2015-Mar-22 08:33N 23°04' E 113°29'581958.0
2015-Mar-22 08:32N 22°18' E 114°07'67227171.7
2015-Mar-22 08:30N 31°22' E 121°29'66116290.5
2015-Mar-22 08:28N 23°02' E 113°24'5692.2
2015-Mar-22 08:27N 23°04' E 113°29'6302864.5
2015-Mar-22 08:14N 30°58' E 121°16'13224.3
2015-Mar-22 08:11N 31°07' E 121°28'2 4.0
2015-Mar-22 07:33N 31°09' E 121°27'5952771.5
2015-Mar-22 07:33N 31°58' E 120°50'6626442.2
2015-Mar-22 07:27N 23°04' E 113°29'581926.7
2015-Mar-22 07:25N 22°18' E 114°07'59366.6
2015-Mar-22 07:16N 23°02' E 113°24'661169959.9
2015-Mar-22 07:16N 31°47' E 120°57'4462.9
2015-Mar-22 06:33N 31°13' E 121°30'665125929.5
2015-Mar-22 06:33N 22°18' E 114°07'587699.8
2015-Mar-22 06:32N 23°04' E 113°29'1803920.2
2015-Mar-22 06:30N 23°07' E 116°44'573206432.7
2015-Mar-22 06:30N 32°01' E 120°42'66422345.8
2015-Mar-22 06:28N 23°02' E 113°24'5574.6
2015-Mar-22 06:27N 23°04' E 113°29'0 0.1
2015-Mar-22 05:33N 23°04' E 113°29'64049046.6
2015-Mar-22 05:33N 31°56' E 120°11'644463743.6
2015-Mar-22 05:33N 22°59' E 113°31'538596.5
2015-Mar-22 05:32N 22°18' E 114°07'621186409.0
2015-Mar-22 05:32N 29°58' E 121°53'48892485.8
2015-Mar-22 05:32N 23°12' E 116°50'1891631.0
2015-Mar-22 05:25N 23°02' E 113°24'667109079.1
2015-Mar-22 05:24N 31°58' E 120°50'56837.3
2015-Mar-22 05:20N 31°15' E 121°33'653834.9
2015-Mar-22 04:33N 23°04' E 113°29'616110918.4
2015-Mar-22 04:33N 29°56' E 122°01'15123674.0
2015-Mar-22 04:33N 31°56' E 120°14'54850592.9
2015-Mar-22 04:32N 23°17' E 116°54'1907499.3
2015-Mar-22 04:31N 22°54' E 113°29'67113272.2
2015-Mar-22 04:28N 31°59' E 120°50'41070.2
2015-Mar-22 04:27N 32°01' E 120°47'66716440.4
2015-Mar-22 04:25N 23°02' E 113°24'422.1
2015-Mar-22 04:13N 23°03' E 113°19'5 7.0
2015-Mar-22 03:33N 23°02' E 113°24'52511.5
2015-Mar-22 03:33N 23°04' E 113°29'61724682.9
2015-Mar-22 03:32N 29°51' E 122°07'1441581.6
2015-Mar-22 03:26N 31°58' E 120°50'10705.9
2015-Mar-22 03:26N 31°60' E 120°38'6613112.0
2015-Mar-22 03:13N 23°02' E 113°24'5 7.8
2015-Mar-22 02:33N 23°04' E 113°29'4183.4
2015-Mar-22 02:32N 23°01' E 113°31'6086178.8
2015-Mar-22 02:26N 29°44' E 121°58'1592077.1
2015-Mar-22 02:22N 31°56' E 120°14'6464379.4
2015-Mar-22 02:13N 23°02' E 113°24'063.4
2015-Mar-22 02:12N 23°02' E 113°24'6522.9
2015-Mar-22 02:12N 23°04' E 113°29'254304527.8
2015-Mar-22 02:12N 24°25' E 117°52'2432003.7
2015-Mar-22 02:04N 22°19' E 114°06'6631288.2
2015-Mar-22 01:33N 31°56' E 120°14'3127513.1
2015-Mar-22 01:33N 31°58' E 120°50'662170271.9
2015-Mar-22 01:33N 23°04' E 113°29'027.8
2015-Mar-22 01:33N 23°04' E 113°29'66359631.0
2015-Mar-22 01:32N 32°01' E 120°47'1494134.9
2015-Mar-22 01:30N 29°43' E 121°55'604434816.4
2015-Mar-22 01:30N 23°05' E 113°28'123847.2
2015-Mar-22 01:30N 22°55' E 113°36'471098.7
2015-Mar-22 01:27N 22°18' E 114°08'591603.9
2015-Mar-22 01:25N 23°02' E 113°24'9516891.7
2015-Mar-22 01:17N 36°51' E 122°23'9471302.2
2015-Mar-22 00:33N 23°04' E 113°29'581183.8
2015-Mar-22 00:30N 22°18' E 114°08'61250045.4
2015-Mar-22 00:29N 29°43' E 121°54'60828812.9
2015-Mar-22 00:28N 23°02' E 113°24'64668380.6
2015-Mar-22 00:27N 31°56' E 120°14'6425759.3
2015-Mar-22 00:21N 23°04' E 113°29'0 2.8
2015-Mar-22 00:13N 23°04' E 113°29'6629809.6
2015-Mar-22 00:09N 31°58' E 120°50'6621104.6
2015-Mar-21 23:33N 23°04' E 113°29'60438800.2
2015-Mar-21 23:33N 29°43' E 121°55'60432928.5
2015-Mar-21 23:31N 23°04' E 113°29'582138.1
2015-Mar-21 23:30N 22°18' E 114°08'58570.2
2015-Mar-21 23:24N 23°04' E 113°29'0 2.0
2015-Mar-21 23:13N 23°04' E 113°29'0 0.1
2015-Mar-21 22:33N 23°04' E 113°29'3798370.1
2015-Mar-21 22:30N 26°08' E 119°34'3766350.8
2015-Mar-21 22:27N 22°18' E 114°08'583250.8
2015-Mar-21 22:25N 23°04' E 113°29'011.2
2015-Mar-21 22:24N 23°04' E 113°29'0 2.4
2015-Mar-21 22:19N 23°04' E 113°29'947126316.8
2015-Mar-21 22:18N 36°51' E 122°23'3023289.9
2015-Mar-21 22:13N 31°58' E 120°51'6621015.4
2015-Mar-21 21:33N 23°04' E 113°29'66325387.1
2015-Mar-21 21:32N 32°01' E 120°48'68270156.3
2015-Mar-21 21:31N 22°19' E 114°07'68190830.5
2015-Mar-21 21:31N 31°60' E 120°48'662132421.4
2015-Mar-21 21:31N 23°04' E 113°29'22612526.4
2015-Mar-21 21:29N 23°40' E 117°32'1842043.3
2015-Mar-21 21:24N 26°08' E 119°34'3796656.0
2015-Mar-21 21:21N 23°04' E 113°29'0 2.0
2015-Mar-21 21:10N 23°04' E 113°29'6637621.4
2015-Mar-21 21:05N 32°01' E 120°47'6631250.9
2015-Mar-21 20:33N 23°04' E 113°29'23217435.8
2015-Mar-21 20:33N 23°45' E 117°39'2336696.7
2015-Mar-21 20:31N 23°04' E 113°29'37945481.4
2015-Mar-21 20:30N 26°08' E 119°34'35818139.9
2015-Mar-21 20:29N 31°60' E 120°48'931258.5
2015-Mar-21 20:24N 30°29' E 121°10'60648464.1
2015-Mar-21 20:24N 23°04' E 113°29'016.5
2015-Mar-21 20:22N 23°04' E 113°29'6637670.4
2015-Mar-21 20:17N 32°01' E 120°47'1049.1
2015-Mar-21 20:05N 31°53' E 120°54'6591249.4
2015-Mar-21 19:33N 23°04' E 113°29'238285173.4
2015-Mar-21 19:33N 23°52' E 117°43'51597495.3
2015-Mar-21 19:33N 31°60' E 120°48'66299301.4
2015-Mar-21 19:33N 23°04' E 113°29'3798691.0
2015-Mar-21 19:30N 26°08' E 119°34'3508925.5
2015-Mar-21 19:28N 31°56' E 120°14'64216984.2
2015-Mar-21 19:25N 23°04' E 113°29'0 0.6
2015-Mar-21 19:07N 23°04' E 113°29'65820774.4
2015-Mar-21 19:05N 31°47' E 120°59'3974.5
2015-Mar-21 18:33N 31°56' E 120°14'2917424.1
2015-Mar-21 18:33N 31°60' E 120°48'662148972.5
2015-Mar-21 18:33N 23°04' E 113°29'033.2
2015-Mar-21 18:33N 23°04' E 113°29'6634868.5
2015-Mar-21 18:24N 31°58' E 120°51'671201202.4
2015-Mar-21 18:24N 23°03' E 113°16'390108085.5
2015-Mar-21 18:24N 26°08' E 119°34'35932305.1
2015-Mar-21 18:23N 32°01' E 120°47'66321686.8
2015-Mar-21 18:22N 23°04' E 113°29'0 0.8
2015-Mar-21 18:10N 23°04' E 113°29'0 0.1
2015-Mar-21 17:33N 23°04' E 113°29'66368164.9
2015-Mar-21 17:33N 31°58' E 120°51'51931.1
2015-Mar-21 17:33N 32°00' E 120°45'5001800906.1
2015-Mar-21 17:33N 24°03' E 117°57'253455223.2
2015-Mar-21 17:33N 23°04' E 113°29'8905.7
2015-Mar-21 17:32N 23°03' E 113°21'8323.6
2015-Mar-21 17:31N 23°04' E 113°29'572554.8
2015-Mar-21 17:29N 22°19' E 114°07'67790290.3
2015-Mar-21 17:29N 31°40' E 121°13'66011533.4
2015-Mar-21 17:25N 23°04' E 113°29'6426599.8
2015-Mar-21 17:20N 31°56' E 120°14'3502784.3
2015-Mar-21 17:12N 26°08' E 119°34'35935894.9
2015-Mar-21 17:11N 32°01' E 120°47'4 6.8
2015-Mar-21 16:33N 31°58' E 120°51'66570373.7
2015-Mar-21 16:33N 23°04' E 113°25'32020.4
2015-Mar-21 16:33N 23°04' E 113°29'260187299.1
2015-Mar-21 16:33N 24°08' E 118°04'48213233.7
2015-Mar-21 16:31N 31°56' E 120°14'35043403.6
2015-Mar-21 16:30N 26°08' E 119°34'33928378.4
2015-Mar-21 16:29N 31°34' E 121°19'6597989.3
2015-Mar-21 16:24N 23°04' E 113°29'57257.1
2015-Mar-21 16:11N 22°19' E 114°07'572406.6
2015-Mar-21 16:10N 23°04' E 113°29'3784549.1
2015-Mar-21 16:05N 22°33' E 120°17'376723.3
2015-Mar-21 15:33N 23°02' E 113°31'37170388.9
2015-Mar-21 15:33N 22°33' E 120°13'1509454.9
2015-Mar-21 15:32N 24°13' E 118°11'47518810.2
2015-Mar-21 15:31N 31°56' E 120°14'6426111.0
2015-Mar-21 15:24N 23°04' E 113°29'37990950.5
2015-Mar-21 15:24N 26°08' E 119°34'37910106.8
2015-Mar-21 15:22N 23°04' E 113°29'660169607.7
2015-Mar-21 15:22N 31°29' E 121°27'66042396.6
2015-Mar-21 15:21N 23°04' E 113°29'658118498.7
2015-Mar-21 15:20N 31°24' E 121°30'48198.5
2015-Mar-21 15:06N 31°58' E 120°51'6631224.1
2015-Mar-21 14:33N 23°04' E 113°29'659593208.0
2015-Mar-21 14:33N 31°26' E 121°30'3299544.8
2015-Mar-21 14:31N 36°51' E 122°28'31530670.7
2015-Mar-21 14:31N 31°56' E 120°14'642288733.2
2015-Mar-21 14:31N 23°04' E 113°29'2749493.1
2015-Mar-21 14:29N 24°17' E 118°18'27322346.5
2015-Mar-21 14:28N 22°56' E 113°33'9685.5
2015-Mar-21 14:27N 23°04' E 113°29'64513815.8
2015-Mar-21 14:25N 31°57' E 120°18'64546413.1
2015-Mar-21 14:24N 23°04' E 113°29'60424691.4
2015-Mar-21 14:22N 29°43' E 121°55'431531.6
2015-Mar-21 13:34N 36°53' E 122°38'95644114.0
2015-Mar-21 13:32N 23°04' E 113°29'0 4.0
2015-Mar-21 13:31N 23°04' E 113°29'0 2.5
2015-Mar-21 13:27N 23°04' E 113°29'64213999.9
2015-Mar-21 13:25N 31°56' E 120°14'6429827.8
2015-Mar-21 13:21N 23°04' E 113°29'0 0.4
2015-Mar-21 12:34N 23°04' E 113°29'0 1.3
2015-Mar-21 12:31N 23°04' E 113°29'642177673.8
2015-Mar-21 12:30N 31°56' E 120°14'6423968.2
2015-Mar-21 12:21N 23°04' E 113°29'0 3.8
2015-Mar-21 12:15N 23°04' E 113°29'1399.4
2015-Mar-21 12:07N 22°51' E 113°33'1323.6
2015-Mar-21 11:34N 23°04' E 113°29'64212286.0
2015-Mar-21 11:30N 31°56' E 120°14'64212485.5
2015-Mar-21 11:27N 23°04' E 113°29'0 1.5
2015-Mar-21 11:22N 23°04' E 113°29'013.1
2015-Mar-21 11:21N 23°04' E 113°29'31924935.7
2015-Mar-21 11:20N 24°43' E 119°00'3281543.8
2015-Mar-21 11:07N 22°44' E 113°26'977159882.6
2015-Mar-21 11:07N 36°53' E 122°44'309101178.5
2015-Mar-21 11:07N 31°58' E 120°51'6631191.7
2015-Mar-21 10:33N 23°04' E 113°29'64214084.0
2015-Mar-21 10:30N 31°56' E 120°14'1584815.0
2015-Mar-21 10:29N 29°43' E 121°55'61724959.6
2015-Mar-21 10:27N 22°44' E 113°30'20354.4
2015-Mar-21 10:24N 23°04' E 113°29'95817072.4
2015-Mar-21 10:20N 36°52' E 122°45'95834489.5
2015-Mar-21 10:19N 23°04' E 113°29'0 0.1
2015-Mar-21 09:34N 23°04' E 113°29'64213274.5
2015-Mar-21 09:31N 31°56' E 120°14'64111545.5
2015-Mar-21 09:27N 23°04' E 113°30'110.9
2015-Mar-21 09:24N 23°04' E 113°29'3235117.6
2015-Mar-21 09:20N 24°46' E 119°04'31010530.3
2015-Mar-21 09:18N 22°19' E 114°06'67715532.3
2015-Mar-21 09:15N 32°00' E 120°37'128660.3
2015-Mar-21 09:15N 31°58' E 120°51'3088947.7
2015-Mar-21 09:13N 36°52' E 122°46'9581432.0
2015-Mar-21 08:33N 23°04' E 113°29'6612378841.7
2015-Mar-21 08:33N 32°01' E 120°44'66172078.9
2015-Mar-21 08:33N 23°04' E 113°29'64219245.7
2015-Mar-21 08:31N 31°56' E 120°14'32164198.4
2015-Mar-21 08:30N 36°52' E 122°44'75930711.2
2015-Mar-21 08:29N 24°40' E 118°48'54223.1
2015-Mar-21 08:14N 24°25' E 117°52'4327481.0
2015-Mar-21 08:11N 30°57' E 121°17'264457.5
2015-Mar-21 08:11N 31°22' E 121°28'665299363.3
2015-Mar-21 08:10N 22°43' E 113°40'22569.3
2015-Mar-21 08:08N 22°25' E 113°54'309525.6
2015-Mar-21 07:33N 24°45' E 118°54'31380588.0
2015-Mar-21 07:33N 23°04' E 113°29'076.1
2015-Mar-21 07:32N 23°04' E 113°29'66282192.3
2015-Mar-21 07:32N 31°58' E 120°51'2416.8
2015-Mar-21 07:32N 31°57' E 120°52'66234534.2
2015-Mar-21 07:31N 23°04' E 113°29'6431641.9
2015-Mar-21 07:07N 31°05' E 121°28'64210232.9
2015-Mar-21 07:03N 23°04' E 113°30'2 3.3
2015-Mar-21 06:33N 23°05' E 113°28'64589259.3
2015-Mar-21 06:33N 31°07' E 121°28'39879631.6
2015-Mar-21 06:33N 24°51' E 119°00'3211154775.7
2015-Mar-21 06:33N 23°04' E 113°29'0 2.2
2015-Mar-21 06:31N 23°04' E 113°29'9577027.6
2015-Mar-21 06:22N 36°51' E 122°43'345422.4
2015-Mar-21 05:33N 31°12' E 121°29'6482331987.3
2015-Mar-21 05:33N 23°04' E 113°29'61118.8
2015-Mar-21 05:33N 23°02' E 113°23'9618716.2
2015-Mar-21 05:26N 36°52' E 122°42'9567128.7
2015-Mar-21 05:18N 23°04' E 113°30'664878.6
2015-Mar-21 04:33N 32°01' E 120°49'66440519.3
2015-Mar-21 04:32N 23°04' E 113°29'660216015.6
2015-Mar-21 04:32N 31°38' E 121°15'32246405.5
2015-Mar-21 04:31N 36°53' E 122°42'7293755.5
2015-Mar-21 04:20N 25°05' E 119°14'3381990.1
2015-Mar-21 04:10N 23°04' E 113°29'111.5
2015-Mar-21 04:06N 23°04' E 113°30'1 0.9
2015-Mar-21 03:33N 23°04' E 113°29'659158207.1
2015-Mar-21 03:33N 31°33' E 121°21'2618911.3
2015-Mar-21 03:33N 31°18' E 121°47'66416595.5
2015-Mar-21 03:31N 23°04' E 113°29'1140.4
2015-Mar-21 03:30N 23°04' E 113°30'12389.0
2015-Mar-21 03:28N 23°04' E 113°16'96410675.1
2015-Mar-21 03:23N 36°54' E 122°42'3221189.5
2015-Mar-21 03:07N 31°56' E 120°14'65011872.3
2015-Mar-21 03:03N 23°03' E 113°15'6701340.9
2015-Mar-21 02:33N 31°15' E 121°47'164206.7
2015-Mar-21 02:33N 31°22' E 121°30'65667490.6
2015-Mar-21 02:33N 23°04' E 113°29'66255430.1
2015-Mar-21 02:32N 31°58' E 120°51'442973.9
2015-Mar-21 02:31N 31°28' E 121°28'688802.9
2015-Mar-21 02:31N 31°56' E 120°14'641144320.2
2015-Mar-21 02:30N 23°04' E 113°30'66288264.8
2015-Mar-21 02:30N 32°02' E 120°44'667171638.8
2015-Mar-21 02:30N 23°03' E 113°21'96275313.7
2015-Mar-21 02:29N 36°54' E 122°42'71810501.2
2015-Mar-21 02:25N 25°16' E 119°27'3526596.9
2015-Mar-21 02:22N 23°04' E 113°29'25412020.7
2015-Mar-21 02:20N 24°25' E 117°52'7065042.7
2015-Mar-21 02:12N 36°01' E 120°12'283434.3
2015-Mar-21 01:33N 31°25' E 121°31'659338795.6
2015-Mar-21 01:33N 23°04' E 113°29'65960810.6
2015-Mar-21 01:32N 31°24' E 121°32'379113839.7
2015-Mar-21 01:32N 25°19' E 119°35'39921412.6
2015-Mar-21 01:31N 31°56' E 120°14'6427649.2
2015-Mar-21 01:26N 23°04' E 113°29'662595419.9
2015-Mar-21 01:26N 31°08' E 121°56'67728338.4
2015-Mar-21 01:24N 22°26' E 113°53'67318785.4
2015-Mar-21 01:22N 31°21' E 121°31'656147634.4
2015-Mar-21 01:22N 23°04' E 113°29'958246401.1
2015-Mar-21 01:21N 36°52' E 122°46'3121875.8
2015-Mar-21 01:11N 31°54' E 120°55'6 9.3
2015-Mar-21 00:33N 31°58' E 120°51'4921992.7
2015-Mar-21 00:33N 31°22' E 121°30'65660597.9
2015-Mar-21 00:32N 23°04' E 113°29'64223569.2
2015-Mar-21 00:31N 31°56' E 120°14'642256642.0
2015-Mar-21 00:31N 23°04' E 113°29'65913033.8
2015-Mar-21 00:28N 31°50' E 120°56'65920104.3
2015-Mar-21 00:26N 23°04' E 113°29'6584906.5
2015-Mar-21 00:18N 31°29' E 121°24'326443.6
2015-Mar-20 23:34N 36°42' E 123°15'963157510.3
2015-Mar-20 23:33N 23°04' E 113°29'0 1.4
2015-Mar-20 23:31N 23°04' E 113°29'642144362.3
2015-Mar-20 23:30N 31°56' E 120°14'3712073.1
2015-Mar-20 23:20N 25°45' E 119°39'37868003.4
2015-Mar-20 23:19N 31°58' E 120°51'7361.6
2015-Mar-20 23:18N 32°02' E 120°44'0 0.0
2015-Mar-20 22:33N 32°02' E 120°44'662113516.3
2015-Mar-20 22:33N 23°04' E 113°29'604362132.5
2015-Mar-20 22:33N 29°43' E 121°55'14634924.6
2015-Mar-20 22:32N 31°58' E 120°51'66264419.7
2015-Mar-20 22:32N 23°04' E 113°29'64227828.9
2015-Mar-20 22:30N 31°56' E 120°14'32176983.2
2015-Mar-20 22:30N 36°44' E 123°04'30584575.2
2015-Mar-20 22:30N 32°01' E 120°45'3598020.8
2015-Mar-20 22:27N 26°08' E 119°34'3211974.2
2015-Mar-20 22:17N 30°55' E 122°16'873461.5
2015-Mar-20 22:16N 31°49' E 120°56'181548.6
2015-Mar-20 22:15N 31°39' E 121°13'2739.2
2015-Mar-20 21:33N 31°58' E 120°51'6621191743.1
2015-Mar-20 21:33N 23°04' E 113°29'379170540.7
2015-Mar-20 21:33N 26°08' E 119°34'360185091.6
2015-Mar-20 21:33N 32°02' E 120°44'5348.8
2015-Mar-20 21:32N 32°00' E 120°49'30991.0
2015-Mar-20 21:30N 31°56' E 120°14'36581.6
2015-Mar-20 21:27N 31°49' E 120°56'31410358.1
2015-Mar-20 21:25N 36°47' E 122°52'95711224.3
2015-Mar-20 21:20N 23°04' E 113°29'0 0.4
2015-Mar-20 21:11N 23°04' E 113°29'0 0.3
2015-Mar-20 20:33N 23°04' E 113°29'379151591.7
2015-Mar-20 20:33N 26°08' E 119°34'66115765.2
2015-Mar-20 20:31N 36°49' E 122°43'318104092.3
2015-Mar-20 20:31N 31°56' E 120°14'334888.9
2015-Mar-20 20:30N 31°55' E 120°53'10177.3
2015-Mar-20 20:27N 32°02' E 120°44'7329.0
2015-Mar-20 20:25N 31°58' E 120°51'10183.2
2015-Mar-20 20:22N 31°49' E 120°56'2974096.1
2015-Mar-20 20:18N 36°35' E 122°32'9381688226.2
2015-Mar-20 20:18N 23°04' E 113°29'0 0.7
2015-Mar-20 20:08N 23°04' E 113°29'379659.5
2015-Mar-20 19:33N 26°08' E 119°34'349114328.1
2015-Mar-20 19:33N 31°50' E 120°55'6581184079.6
2015-Mar-20 19:33N 23°04' E 113°29'6476.1
2015-Mar-20 19:32N 23°02' E 113°23'64723511.5
2015-Mar-20 19:31N 31°56' E 120°14'31397.5
2015-Mar-20 19:26N 31°58' E 120°51'780.4
2015-Mar-20 19:21N 32°02' E 120°44'17581.2
2015-Mar-20 19:19N 31°49' E 120°56'6584804.7
2015-Mar-20 19:11N 23°04' E 113°29'3575770.7
2015-Mar-20 19:07N 25°18' E 119°32'399709.3
2015-Mar-20 18:33N 31°56' E 120°14'642177682.3
2015-Mar-20 18:33N 23°04' E 113°29'604434611.5
2015-Mar-20 18:33N 29°43' E 121°55'60430182.1
2015-Mar-20 18:32N 23°04' E 113°29'131719.3
2015-Mar-20 18:31N 22°51' E 113°34'3825660.7
2015-Mar-20 18:27N 26°08' E 119°34'3601170.4
2015-Mar-20 18:09N 32°02' E 120°44'287488.0
2015-Mar-20 17:33N 36°36' E 122°32'302135943.5
2015-Mar-20 17:33N 31°56' E 120°14'64260783.6
2015-Mar-20 17:33N 23°04' E 113°29'37930343.0
2015-Mar-20 17:32N 26°08' E 119°34'3791073.7
2015-Mar-20 17:11N 23°04' E 113°29'6421030.7
2015-Mar-20 16:33N 31°56' E 120°14'64686178.0
2015-Mar-20 16:33N 22°56' E 113°34'1034318.5
2015-Mar-20 16:33N 23°04' E 113°29'372148765.9
2015-Mar-20 16:33N 26°00' E 119°29'37221256.6
2015-Mar-20 16:32N 23°04' E 113°29'3792166.2
2015-Mar-20 16:21N 26°08' E 119°34'3601746.1
2015-Mar-20 16:09N 32°02' E 120°44'401346.0
2015-Mar-20 16:07N 31°35' E 121°19'59104.6
2015-Mar-20 15:33N 31°56' E 120°14'642177672.5
2015-Mar-20 15:33N 23°04' E 113°29'3681991.3
2015-Mar-20 15:22N 25°58' E 119°26'37112485.3
2015-Mar-20 15:20N 32°02' E 120°44'7244.8
2015-Mar-20 15:19N 31°58' E 120°51'3572280.7
2015-Mar-20 15:09N 26°08' E 119°34'37914830.6
2015-Mar-20 15:08N 23°04' E 113°29'0 0.2
2015-Mar-20 14:33N 23°04' E 113°29'65910682.9
2015-Mar-20 14:30N 31°25' E 121°31'34510174.5
2015-Mar-20 14:28N 25°58' E 119°26'3603396.6
2015-Mar-20 14:21N 31°56' E 120°14'6423689.8
2015-Mar-20 14:11N 23°04' E 113°29'368593.8
2015-Mar-20 13:34N 25°58' E 119°26'36811736.3
2015-Mar-20 13:32N 23°04' E 113°29'32223173.5
2015-Mar-20 13:31N 24°52' E 119°01'4303813.7
2015-Mar-20 13:24N 31°50' E 120°54'34753.5
2015-Mar-20 13:21N 31°56' E 120°14'6423678.0
2015-Mar-20 13:11N 23°04' E 113°29'315503.1
2015-Mar-20 12:33N 24°46' E 118°55'435522401.9
2015-Mar-20 12:33N 31°56' E 120°14'10594061.3
2015-Mar-20 12:33N 31°05' E 122°02'663183642.4
2015-Mar-20 12:33N 23°04' E 113°29'43904.2
2015-Mar-20 12:30N 22°28' E 113°53'3698469.8
2015-Mar-20 12:27N 25°58' E 119°26'36860223.5
2015-Mar-20 12:27N 23°04' E 113°30'661198291.7
2015-Mar-20 12:27N 31°56' E 120°52'5 5.5
2015-Mar-20 11:32N 32°00' E 120°48'662264977.1
2015-Mar-20 11:31N 23°04' E 113°29'3188308.2
2015-Mar-20 11:29N 24°53' E 118°57'42916238.6
2015-Mar-20 11:28N 31°56' E 120°14'360185369.2
2015-Mar-20 11:27N 25°58' E 119°26'3686559.0
2015-Mar-20 11:24N 23°04' E 113°30'65671551.4
2015-Mar-20 11:24N 31°21' E 121°30'100631.9
2015-Mar-20 11:14N 29°43' E 121°54'782047.1
2015-Mar-20 11:12N 31°00' E 122°11'336526.2
2015-Mar-20 10:33N 25°58' E 119°26'368120542.9
2015-Mar-20 10:33N 23°04' E 113°29'64285533.7
2015-Mar-20 10:33N 31°56' E 120°14'731738.2
2015-Mar-20 10:30N 31°21' E 121°30'55199541.6
2015-Mar-20 10:30N 32°02' E 120°46'4408117.5
2015-Mar-20 10:27N 24°53' E 118°57'3186544.6
2015-Mar-20 10:24N 23°04' E 113°30'6593684.5
2015-Mar-20 10:13N 32°01' E 120°42'8137.7
2015-Mar-20 10:10N 31°58' E 120°51'1458183.7
2015-Mar-20 10:09N 29°43' E 121°54'332561.8
2015-Mar-20 09:33N 24°51' E 118°56'4091472699.5
2015-Mar-20 09:33N 31°11' E 121°50'663596564.2
2015-Mar-20 09:33N 23°04' E 113°25'37253553.7
2015-Mar-20 09:33N 25°58' E 119°26'36833109.0
2015-Mar-20 09:32N 31°58' E 120°51'50923.8
2015-Mar-20 09:29N 31°21' E 121°30'55927.5
2015-Mar-20 09:25N 32°01' E 120°46'44312088.0
2015-Mar-20 09:23N 24°48' E 118°56'3162344.0
2015-Mar-20 09:15N 23°04' E 113°30'316453.9
2015-Mar-20 08:33N 24°49' E 118°56'4181504684.7
2015-Mar-20 08:33N 31°18' E 121°47'14162.2
2015-Mar-20 08:28N 31°21' E 121°30'65642930.6
2015-Mar-20 08:27N 23°04' E 113°30'8198.5
2015-Mar-20 08:25N 22°57' E 113°33'6676219.7
2015-Mar-20 08:18N 31°59' E 120°51'181.0
2015-Mar-20 08:18N 31°58' E 120°51'67416745.9
2015-Mar-20 08:15N 22°42' E 113°41'182909.5
2015-Mar-20 08:15N 22°55' E 113°27'37584324.9
2015-Mar-20 08:15N 25°58' E 119°26'369534.3
2015-Mar-20 07:33N 23°04' E 113°29'670401909.3
2015-Mar-20 07:33N 31°26' E 121°48'35140789.0
2015-Mar-20 07:33N 25°58' E 119°26'7529890.6
2015-Mar-20 07:33N 24°48' E 118°55'416115272.2
2015-Mar-20 07:32N 31°21' E 121°30'69295854.9
2015-Mar-20 07:32N 22°14' E 113°35'33321038.6
2015-Mar-20 07:31N 24°49' E 118°57'3178146.2
2015-Mar-20 07:29N 22°48' E 113°37'10127.6
2015-Mar-20 07:24N 22°56' E 113°30'3171535.6
2015-Mar-20 07:12N 24°48' E 118°55'3152200.5
2015-Mar-20 07:03N 23°04' E 113°30'816.4
2015-Mar-20 06:33N 23°02' E 113°21'32313852.1
2015-Mar-20 06:32N 24°48' E 118°55'5130382.4
2015-Mar-20 06:32N 24°13' E 118°14'26918283.7
2015-Mar-20 06:31N 22°56' E 113°33'9153.2
2015-Mar-20 06:27N 23°04' E 113°29'36878016.3
2015-Mar-20 06:27N 25°58' E 119°26'74485.2
2015-Mar-20 06:18N 24°49' E 118°57'142.9
2015-Mar-20 06:16N 24°48' E 118°55'31543635.7
2015-Mar-20 06:15N 23°04' E 113°30'65687453.5
2015-Mar-20 06:15N 31°21' E 121°30'657953.8
2015-Mar-20 05:33N 23°02' E 113°31'2649038.1
2015-Mar-20 05:32N 24°10' E 118°09'583789.1
2015-Mar-20 05:31N 24°48' E 118°56'41699811.5
2015-Mar-20 05:31N 31°21' E 121°30'65611689.2
2015-Mar-20 05:27N 23°04' E 113°30'3159205.8
2015-Mar-20 05:25N 24°47' E 118°55'3153657.8
2015-Mar-20 05:20N 23°04' E 113°29'3164369.7
2015-Mar-20 05:16N 24°48' E 118°55'317441.7
2015-Mar-20 04:33N 23°06' E 113°27'31713426.9
2015-Mar-20 04:31N 24°48' E 118°55'0 6.1
2015-Mar-20 04:28N 24°48' E 118°55'3155454.5
2015-Mar-20 04:24N 23°04' E 113°30'3163517.6
2015-Mar-20 04:19N 24°48' E 118°55'4146418.9
2015-Mar-20 04:15N 31°20' E 121°25'6525630.7
2015-Mar-20 04:08N 23°04' E 113°29'662970.2
2015-Mar-20 03:27N 31°60' E 120°49'11290.5
2015-Mar-20 03:25N 31°50' E 120°55'3601313.4
2015-Mar-20 03:08N 25°58' E 119°26'715420.1
2015-Mar-20 03:07N 24°53' E 118°55'4129688.2
2015-Mar-20 03:05N 31°22' E 121°28'5094.9
2015-Mar-20 02:33N 31°60' E 120°49'443106387.6
2015-Mar-20 02:33N 24°48' E 118°55'4291.3
2015-Mar-20 02:32N 24°52' E 118°55'42866926.4
2015-Mar-20 02:31N 31°46' E 120°56'49619640.3
2015-Mar-20 02:30N 23°56' E 117°54'48710069.0
2015-Mar-20 02:27N 31°24' E 121°31'658215241.4
2015-Mar-20 02:27N 23°04' E 113°30'36831545.9
2015-Mar-20 02:26N 25°58' E 119°26'75602.9
2015-Mar-20 02:19N 24°48' E 118°55'41662458.8
2015-Mar-20 02:18N 31°21' E 121°30'6568781.2
2015-Mar-20 02:14N 23°04' E 113°29'64012198.8
2015-Mar-20 02:11N 31°56' E 120°11'6416862.5
2015-Mar-20 02:05N 23°06' E 113°26'318597.5
2015-Mar-20 01:33N 24°48' E 118°55'064.0
2015-Mar-20 01:33N 24°48' E 118°55'43167533.9
2015-Mar-20 01:32N 31°46' E 120°56'50462508.7
2015-Mar-20 01:32N 23°50' E 117°49'15527862.3
2015-Mar-20 01:32N 25°58' E 119°26'37011005.3
2015-Mar-20 01:30N 23°06' E 113°26'63813840.7
2015-Mar-20 01:27N 31°57' E 120°05'379592.3
2015-Mar-20 01:27N 31°60' E 120°49'66211092.9
2015-Mar-20 01:23N 23°04' E 113°29'60470095.7
2015-Mar-20 01:22N 29°43' E 121°55'1001323.8
2015-Mar-20 01:18N 31°21' E 121°30'65612903.4
2015-Mar-20 01:15N 23°04' E 113°30'25314710.0
2015-Mar-20 01:14N 24°25' E 117°52'470676.5
2015-Mar-20 00:32N 31°46' E 120°56'1552382.3
2015-Mar-20 00:32N 31°60' E 120°49'44219637.0
2015-Mar-20 00:31N 24°49' E 118°57'2752.9
2015-Mar-20 00:31N 24°48' E 118°55'41760022.9
2015-Mar-20 00:30N 31°21' E 121°30'50111405.6
2015-Mar-20 00:28N 23°44' E 117°42'943069.1
2015-Mar-20 00:26N 24°49' E 118°56'31845802.7
2015-Mar-20 00:25N 23°06' E 113°27'63774030.1
2015-Mar-20 00:25N 32°01' E 119°58'3644173.1
2015-Mar-20 00:20N 25°58' E 119°26'3688342.3
2015-Mar-20 00:17N 23°04' E 113°29'0 2.5
2015-Mar-20 00:11N 23°04' E 113°29'6561050.3
2015-Mar-19 23:33N 31°46' E 120°56'15744.3
2015-Mar-19 23:32N 31°60' E 120°49'52975.0
2015-Mar-19 23:29N 31°21' E 121°30'4286.2
2015-Mar-19 23:28N 31°19' E 121°34'4169537.4
2015-Mar-19 23:26N 24°48' E 118°55'7545242.5
2015-Mar-19 23:26N 25°58' E 119°26'7413377.6
2015-Mar-19 23:25N 24°48' E 118°56'3178636.3
2015-Mar-19 23:23N 23°04' E 113°29'3196347.5
2015-Mar-19 23:20N 24°48' E 118°59'74613435.7
2015-Mar-19 23:17N 36°53' E 122°26'95017185.2
2015-Mar-19 23:13N 23°06' E 113°27'2111.2
2015-Mar-19 23:12N 23°04' E 113°29'2252170.5
2015-Mar-19 23:06N 23°37' E 117°32'225412.9
2015-Mar-19 22:33N 23°04' E 113°29'656196897.2
2015-Mar-19 22:33N 31°22' E 121°30'42083916.7
2015-Mar-19 22:33N 24°45' E 118°57'44684448.4
2015-Mar-19 22:32N 31°60' E 120°49'555099.2
2015-Mar-19 22:32N 31°19' E 121°34'657157585.1
2015-Mar-19 22:31N 23°06' E 113°27'3807685.4
2015-Mar-19 22:28N 26°08' E 119°34'1283.1
2015-Mar-19 22:20N 25°58' E 119°26'357464.2
2015-Mar-19 21:33N 31°46' E 120°56'4230083.2
2015-Mar-19 21:33N 31°19' E 121°34'656181786.0
2015-Mar-19 21:33N 23°04' E 113°29'66251837.6
2015-Mar-19 21:32N 31°60' E 120°49'44022320.2
2015-Mar-19 21:31N 24°51' E 118°57'7225975.4
2015-Mar-19 21:31N 25°58' E 119°26'7412679.1
2015-Mar-19 21:31N 24°49' E 118°56'145.7
2015-Mar-19 21:30N 24°50' E 118°56'854260.6
2015-Mar-19 21:28N 26°08' E 119°34'37935912.8
2015-Mar-19 21:28N 23°04' E 113°29'250.4
2015-Mar-19 21:25N 23°05' E 113°27'65998921.2
2015-Mar-19 21:24N 31°36' E 121°16'2023.4
2015-Mar-19 20:33N 31°46' E 120°56'65598314.8
2015-Mar-19 20:33N 23°04' E 113°29'66258159.2
2015-Mar-19 20:32N 31°60' E 120°49'5725540.3
2015-Mar-19 20:32N 31°14' E 121°29'33515445.1
2015-Mar-19 20:31N 25°58' E 119°26'3683565.2
2015-Mar-19 20:25N 23°04' E 113°29'3799543.3
2015-Mar-19 20:22N 26°08' E 119°34'3806455.7
2015-Mar-19 20:19N 23°05' E 113°27'657865.1
2015-Mar-19 19:33N 31°19' E 121°34'1012538.9
2015-Mar-19 19:33N 31°10' E 121°28'646232663.4
2015-Mar-19 19:33N 23°04' E 113°29'65518432.6
2015-Mar-19 19:31N 31°46' E 120°56'391630.6
2015-Mar-19 19:30N 31°21' E 121°31'5262964.3
2015-Mar-19 19:29N 31°60' E 120°49'15843.1
2015-Mar-19 19:28N 32°01' E 120°31'3686367.6
2015-Mar-19 19:25N 25°58' E 119°26'370332576.6
2015-Mar-19 19:25N 23°05' E 113°27'212.1
2015-Mar-19 19:13N 23°04' E 113°29'3799610.5
2015-Mar-19 19:10N 26°08' E 119°34'357183818.7
2015-Mar-19 19:10N 32°00' E 120°42'6591063.2
2015-Mar-19 18:33N 23°04' E 113°29'36810124.0
2015-Mar-19 18:31N 25°58' E 119°26'3687054.5
2015-Mar-19 18:28N 23°04' E 113°29'65513640.1
2015-Mar-19 18:25N 31°46' E 120°56'6561180042.7
2015-Mar-19 18:25N 23°05' E 113°27'657168886.7
2015-Mar-19 18:25N 31°19' E 121°34'553017.0
2015-Mar-19 18:24N 31°60' E 120°49'3583009.7
2015-Mar-19 18:16N 26°08' E 119°34'339467.1
2015-Mar-19 17:33N 31°26' E 121°48'14922.7
2015-Mar-19 17:32N 31°19' E 121°34'65735824.4
2015-Mar-19 17:31N 23°05' E 113°27'3809310.2
2015-Mar-19 17:28N 26°08' E 119°34'37934993.9
2015-Mar-19 17:28N 23°04' E 113°29'0 3.1
2015-Mar-19 17:24N 23°04' E 113°29'3683889.7
2015-Mar-19 17:18N 25°58' E 119°26'32514110.5
2015-Mar-19 17:17N 31°05' E 121°28'65141103.1
2015-Mar-19 17:16N 23°04' E 113°16'672943.6
2015-Mar-19 16:33N 31°18' E 121°48'664170759.6
2015-Mar-19 16:33N 23°04' E 113°29'645232118.2
2015-Mar-19 16:33N 31°08' E 121°27'12377.4
2015-Mar-19 16:31N 31°19' E 121°34'657337793.8
2015-Mar-19 16:31N 23°05' E 113°27'66217276.2
2015-Mar-19 16:29N 32°01' E 120°46'314.6
2015-Mar-19 16:18N 31°60' E 120°49'6628310.0
2015-Mar-19 16:13N 23°04' E 113°29'36842785.9
2015-Mar-19 16:12N 25°58' E 119°26'12404.3
2015-Mar-19 16:10N 26°08' E 119°34'22710204.5
2015-Mar-19 16:09N 23°14' E 116°54'5566249.5
2015-Mar-19 16:04N 31°46' E 120°56'4486.5
2015-Mar-19 15:33N 31°13' E 121°30'1526732.0
2015-Mar-19 15:33N 31°14' E 121°48'135835.4
2015-Mar-19 15:33N 31°19' E 121°34'656590806.6
2015-Mar-19 15:33N 23°04' E 113°29'0 2.6
2015-Mar-19 15:28N 23°04' E 113°29'65524580.3
2015-Mar-19 15:26N 31°46' E 120°56'35711082.7
2015-Mar-19 15:24N 25°58' E 119°26'37078403.6
2015-Mar-19 15:24N 32°01' E 120°47'2419.8
2015-Mar-19 15:24N 31°60' E 120°49'6638398.8
2015-Mar-19 15:19N 23°05' E 113°27'6598350.0
2015-Mar-19 15:14N 31°45' E 121°03'46681.9
2015-Mar-19 15:10N 31°04' E 121°28'5396620.1
2015-Mar-19 15:05N 23°07' E 116°47'23617685.2
2015-Mar-19 15:04N 26°08' E 119°34'346649.1
2015-Mar-19 14:32N 31°46' E 120°56'65625940.1
2015-Mar-19 14:31N 23°05' E 113°27'65737532.6
2015-Mar-19 14:30N 31°19' E 121°34'743785.5
2015-Mar-19 14:29N 31°59' E 120°20'6478438.7
2015-Mar-19 14:24N 23°04' E 113°29'6425895.1
2015-Mar-19 14:18N 31°04' E 121°28'651355.1
2015-Mar-19 14:15N 31°60' E 120°49'3698977.6
2015-Mar-19 14:12N 25°58' E 119°26'3682621.2
2015-Mar-19 14:04N 23°04' E 113°29'368658.2
2015-Mar-19 13:30N 25°58' E 119°26'3214655.6
2015-Mar-19 13:26N 31°00' E 121°26'63932390.1
2015-Mar-19 13:25N 23°05' E 113°27'66343373.9
2015-Mar-19 13:24N 32°01' E 120°47'5549124.4
2015-Mar-19 13:24N 31°21' E 121°31'37305.0
2015-Mar-19 13:17N 31°01' E 122°08'66451950.0
2015-Mar-19 13:16N 23°04' E 113°29'65715347.5
2015-Mar-19 13:13N 31°19' E 121°34'65635806.5
2015-Mar-19 13:12N 23°04' E 113°29'368553.7
2015-Mar-19 12:32N 25°58' E 119°26'31728559.8
2015-Mar-19 12:31N 30°59' E 121°20'63414348.9
2015-Mar-19 12:29N 23°06' E 113°27'2134.6
2015-Mar-19 12:28N 23°04' E 113°29'657157567.3
2015-Mar-19 12:27N 31°19' E 121°34'534592.8
2015-Mar-19 11:33N 22°31' E 120°09'371102687.9
2015-Mar-19 11:33N 23°04' E 113°29'65652515.8
2015-Mar-19 11:32N 31°19' E 121°34'34115135.3
2015-Mar-19 11:31N 25°58' E 119°26'3662564.6
2015-Mar-19 11:23N 31°56' E 120°52'11336.2
2015-Mar-19 11:21N 31°46' E 120°56'65628105.7
2015-Mar-19 11:19N 23°03' E 113°31'62830150.2
2015-Mar-19 11:18N 30°57' E 121°13'6287154.4
2015-Mar-19 11:13N 23°04' E 113°29'378558.3
2015-Mar-19 10:32N 22°33' E 120°17'21011813.4
2015-Mar-19 10:31N 25°58' E 119°26'34181726.6
2015-Mar-19 10:31N 31°19' E 121°34'57462.9
2015-Mar-19 10:23N 32°00' E 120°47'162043.7
2015-Mar-19 10:23N 31°46' E 120°56'155286.1
2015-Mar-19 10:23N 31°60' E 120°49'66222286.4
2015-Mar-19 10:21N 23°04' E 113°29'0 2.2
2015-Mar-19 10:14N 23°04' E 113°29'6634907.9
2015-Mar-19 10:06N 32°01' E 120°47'58106.0
2015-Mar-19 09:33N 31°19' E 121°34'3419581.9
2015-Mar-19 09:31N 25°58' E 119°25'3673828.4
2015-Mar-19 09:25N 23°03' E 113°31'360622302.5
2015-Mar-19 09:16S 23°47' E 151°10'360820356.6
2015-Mar-19 09:05N 23°04' E 113°29'65642954.7
2015-Mar-19 09:04N 31°21' E 121°31'0 0.0
2015-Mar-19 08:32N 31°21' E 121°31'5231364.3
2015-Mar-19 08:32N 31°60' E 120°49'1126.6
2015-Mar-19 08:32N 32°00' E 120°49'61601.5
2015-Mar-19 08:31N 31°55' E 120°52'661216324.8
2015-Mar-19 08:31N 23°03' E 113°31'65740067.7
2015-Mar-19 08:30N 31°19' E 121°34'45711583.7
2015-Mar-19 08:28N 24°24' E 117°58'2594053.0
2015-Mar-19 08:24N 23°04' E 113°29'6266936.2
2015-Mar-19 08:19N 31°05' E 120°60'429563.4
2015-Mar-19 07:33N 24°25' E 118°04'4549135.3
2015-Mar-19 07:30N 31°19' E 121°34'375.1
2015-Mar-19 07:28N 31°21' E 121°31'6562763.8
2015-Mar-19 07:13N 23°03' E 113°31'2115.2
2015-Mar-19 07:12N 23°04' E 113°29'2 3.4
2015-Mar-19 06:31N 23°03' E 113°31'26617434.7
2015-Mar-19 06:30N 24°21' E 118°09'45618858.7
2015-Mar-19 06:29N 31°19' E 121°34'6568149.3
2015-Mar-19 06:24N 23°04' E 113°29'6572366455.9
2015-Mar-19 06:24N 31°49' E 120°55'174001.7
2015-Mar-19 06:24N 31°60' E 120°40'65840.3
2015-Mar-19 06:19N 30°59' E 121°08'29311.3
2015-Mar-19 06:14N 31°21' E 121°31'3 4.4
2015-Mar-19 05:32N 31°19' E 121°34'29702.8
2015-Mar-19 05:29N 30°57' E 121°12'640177139.8
2015-Mar-19 05:29N 22°54' E 113°22'61516533.5
2015-Mar-19 05:27N 29°43' E 121°55'60431493.8
2015-Mar-19 05:26N 23°04' E 113°29'12178.7
2015-Mar-19 05:22N 23°04' E 113°16'1275.6
2015-Mar-19 05:12N 23°04' E 113°29'229.2
2015-Mar-19 05:07N 23°03' E 113°31'66318786.7
2015-Mar-19 05:05N 31°60' E 120°49'55104.5
2015-Mar-19 04:33N 31°19' E 121°34'2647217.5
2015-Mar-19 04:33N 30°57' E 121°17'63123421.8
2015-Mar-19 04:32N 23°05' E 113°28'11124.7
2015-Mar-19 04:26N 22°53' E 113°30'11193.5
2015-Mar-19 04:23N 23°02' E 113°22'2685104.0
2015-Mar-19 04:20N 24°12' E 118°04'2612089.6
2015-Mar-19 04:12N 23°04' E 113°29'229.2
2015-Mar-19 04:07N 23°03' E 113°31'6351125.3
2015-Mar-19 03:33N 30°59' E 121°21'642210159.3
2015-Mar-19 03:33N 22°53' E 113°30'37212635.0
2015-Mar-19 03:32N 22°37' E 120°13'372111608.8
2015-Mar-19 03:31N 23°03' E 113°31'65710648.6
2015-Mar-19 03:28N 31°19' E 121°34'6562532.9
2015-Mar-19 03:12N 23°04' E 113°29'6571021.8
2015-Mar-19 02:34N 31°22' E 121°30'66472484.9
2015-Mar-19 02:33N 22°53' E 113°30'66414854.8
2015-Mar-19 02:30N 31°19' E 121°34'561156.6
2015-Mar-19 02:27N 31°60' E 120°48'4374271.2
2015-Mar-19 02:21N 24°53' E 119°03'32310031.9
2015-Mar-19 02:19N 23°03' E 113°31'6100.0
2015-Mar-19 02:16N 23°02' E 113°24'1114.1
2015-Mar-19 01:31N 22°53' E 113°30'1049.9
2015-Mar-19 01:19N 23°03' E 113°31'6526.0
2015-Mar-19 01:19N 23°02' E 113°24'6617414.9
2015-Mar-19 01:13N 31°19' E 121°34'6569340.9
2015-Mar-19 01:09N 23°04' E 113°29'58597.7
2015-Mar-19 01:03N 22°18' E 114°07'4995.2
2015-Mar-19 00:33N 22°53' E 113°30'10473.0
2015-Mar-19 00:31N 23°03' E 113°31'6583227.2
2015-Mar-19 00:19N 31°60' E 120°40'67819527.5
2015-Mar-19 00:17N 22°18' E 114°08'58700.3
2015-Mar-19 00:12N 23°04' E 113°29'0 0.0
2015-Mar-18 23:33N 23°04' E 113°29'5282.4
2015-Mar-18 23:32N 23°02' E 113°24'115487.2
2015-Mar-18 23:32N 22°53' E 113°30'491005.3
2015-Mar-18 23:29N 22°18' E 114°08'67214746.1
2015-Mar-18 23:26N 31°19' E 121°34'65741470.9
2015-Mar-18 23:25N 23°03' E 113°31'619.1
2015-Mar-18 23:07N 23°02' E 113°24'23510441.9
2015-Mar-18 23:05N 23°40' E 117°37'505943.6
2015-Mar-18 22:33N 31°19' E 121°34'6582367734.3
2015-Mar-18 22:33N 23°05' E 113°26'121123.7
2015-Mar-18 22:33N 22°53' E 113°30'111030.9
2015-Mar-18 22:32N 22°53' E 113°18'151469.2
2015-Mar-18 22:31N 23°03' E 113°31'561401.6
2015-Mar-18 22:29N 22°18' E 114°08'3761720.9
2015-Mar-18 22:16N 26°08' E 119°34'360162004.8
2015-Mar-18 22:16N 32°04' E 120°30'6577958.2
2015-Mar-18 22:11N 23°04' E 113°29'0 8.3
2015-Mar-18 22:09N 23°04' E 113°29'0 0.1
2015-Mar-18 21:33N 23°04' E 113°29'65687530.6
2015-Mar-18 21:32N 31°19' E 121°34'674738.5
2015-Mar-18 21:32N 32°03' E 120°34'658236721.8
2015-Mar-18 21:31N 23°03' E 113°31'3796489.1
2015-Mar-18 21:28N 26°08' E 119°34'3843947.1
2015-Mar-18 21:22N 22°53' E 113°30'49635.1
2015-Mar-18 21:17N 22°18' E 114°08'58951.5
2015-Mar-18 21:14N 23°04' E 113°29'15521.3
2015-Mar-18 21:12N 22°53' E 113°17'1623.8
2015-Mar-18 20:33N 23°04' E 113°29'65669509.1
2015-Mar-18 20:32N 31°19' E 121°34'3753207882.7
2015-Mar-18 20:31S 23°48' E 151°12'3815156069.4
2015-Mar-18 20:30N 31°60' E 120°38'678106072.4
2015-Mar-18 20:29N 22°18' E 114°08'131958.4
2015-Mar-18 20:29N 22°13' E 114°20'708635.3
2015-Mar-18 20:28N 23°04' E 113°29'37938991.5
2015-Mar-18 20:28N 26°08' E 119°34'37911468.1
2015-Mar-18 20:26N 23°04' E 113°29'217.0
2015-Mar-18 20:19N 23°03' E 113°31'661853.3
2015-Mar-18 19:33N 32°01' E 120°45'596405.8
2015-Mar-18 19:32N 31°19' E 121°34'65647264.4
2015-Mar-18 19:31N 23°04' E 113°29'21243.5
2015-Mar-18 19:31N 23°03' E 113°31'10220.1
2015-Mar-18 19:29N 22°53' E 113°30'49482.0
2015-Mar-18 19:23N 22°18' E 114°08'37628785.0
2015-Mar-18 19:22N 26°08' E 119°34'3792077.4
2015-Mar-18 19:11N 23°04' E 113°29'6561047.6
2015-Mar-18 18:33N 31°19' E 121°34'223991.9
2015-Mar-18 18:33N 30°59' E 121°23'6510608.7
2015-Mar-18 18:33N 31°58' E 120°51'66332244.8
2015-Mar-18 18:31N 23°03' E 113°31'3796551.4
2015-Mar-18 18:28N 26°08' E 119°34'3841288.7
2015-Mar-18 18:10N 22°53' E 113°30'11262.7
2015-Mar-18 18:07N 23°04' E 113°29'6391126.4
2015-Mar-18 17:33N 31°01' E 121°27'6471164118.4
2015-Mar-18 17:33N 22°53' E 113°30'664341661.9
2015-Mar-18 17:33N 31°19' E 121°34'4728017.8
2015-Mar-18 17:33N 31°52' E 120°54'3513933.9
2015-Mar-18 17:28N 26°08' E 119°34'3794611.0
2015-Mar-18 17:23N 23°04' E 113°29'0135.1
2015-Mar-18 17:23N 23°04' E 113°29'12304.9
2015-Mar-18 17:20N 23°04' E 113°16'12832.9
2015-Mar-18 17:19N 23°04' E 113°29'21869.0
2015-Mar-18 17:19N 23°03' E 113°31'6033378.4
2015-Mar-18 17:09N 29°43' E 121°55'84143.8
2015-Mar-18 16:33N 31°05' E 121°28'166202.7
2015-Mar-18 16:33N 31°19' E 121°34'66432319.4
2015-Mar-18 16:32N 22°53' E 113°30'111156.5
2015-Mar-18 16:31N 23°04' E 113°29'65558985.0
2015-Mar-18 16:31N 31°47' E 120°54'3467167.4
2015-Mar-18 16:28N 26°08' E 119°34'249127932.7
2015-Mar-18 16:28N 29°43' E 121°55'60419577.1
2015-Mar-18 16:26N 23°04' E 113°29'0 6.0
2015-Mar-18 16:23N 23°04' E 113°29'233.2
2015-Mar-18 16:19N 23°03' E 113°31'55209.4
2015-Mar-18 16:04N 22°11' E 113°51'6761342.1
2015-Mar-18 15:33N 31°09' E 121°28'1110040.0
2015-Mar-18 15:33N 31°19' E 121°34'689247914.4
2015-Mar-18 15:33N 22°11' E 113°47'451003.1
2015-Mar-18 15:30N 22°53' E 113°30'66418664.6
2015-Mar-18 15:28N 31°47' E 120°54'65516157.0
2015-Mar-18 15:26N 23°04' E 113°29'2270.8
2015-Mar-18 15:25N 23°03' E 113°31'2 8.3
2015-Mar-18 15:12N 23°04' E 113°29'11392.1
2015-Mar-18 15:10N 22°54' E 113°30'3843806.1
2015-Mar-18 15:04N 26°08' E 119°34'322636.6
2015-Mar-18 14:33N 31°14' E 121°30'6582368643.1
2015-Mar-18 14:33N 22°53' E 113°30'10284.6
2015-Mar-18 14:31N 23°03' E 113°31'5348123.1
2015-Mar-18 14:31N 22°10' E 113°38'551154.5
2015-Mar-18 14:28N 23°04' E 113°29'65636925.4
2015-Mar-18 14:27N 31°19' E 121°34'65626259.5
2015-Mar-18 14:26N 23°04' E 113°29'3792271.0
2015-Mar-18 14:16N 26°08' E 119°34'3461914.9
2015-Mar-18 14:05N 31°47' E 120°54'4382.3
2015-Mar-18 13:33N 31°19' E 121°34'65620730.1
2015-Mar-18 13:31N 23°04' E 113°29'22569.7
2015-Mar-18 13:31N 23°03' E 113°31'1081.7
2015-Mar-18 13:24N 22°55' E 113°25'10740.7
2015-Mar-18 13:24N 23°04' E 113°29'021.2
2015-Mar-18 13:23N 23°04' E 113°29'929.4
2015-Mar-18 13:05N 23°03' E 113°19'3 5.8
2015-Mar-18 12:33N 23°02' E 113°22'66214351.4
2015-Mar-18 12:30N 31°21' E 121°31'65626845.0
2015-Mar-18 12:28N 23°04' E 113°29'242.1
2015-Mar-18 12:25N 23°03' E 113°31'251.7
2015-Mar-18 12:23N 23°04' E 113°29'0 6.5
2015-Mar-18 12:21N 23°04' E 113°29'65718321.9
2015-Mar-18 12:18N 31°19' E 121°34'43265.6
2015-Mar-18 12:09N 31°47' E 120°54'6561103.3
2015-Mar-18 11:33N 23°05' E 113°27'659103076.1
2015-Mar-18 11:32N 31°24' E 121°31'66195119.0
2015-Mar-18 11:32N 22°59' E 113°31'65923041.1
2015-Mar-18 11:30N 31°19' E 121°34'43581.5
2015-Mar-18 11:26N 31°47' E 120°54'65516611.7
2015-Mar-18 11:24N 23°04' E 113°29'0 4.2
2015-Mar-18 11:19N 23°04' E 113°29'756.4
2015-Mar-18 11:12N 23°02' E 113°21'1624.4
2015-Mar-18 10:33N 22°52' E 113°34'66391801.8
2015-Mar-18 10:33N 31°19' E 121°34'660263914.1
2015-Mar-18 10:33N 23°03' E 113°25'6625180.2
2015-Mar-18 10:25N 31°24' E 121°31'1031752.1
2015-Mar-18 10:21N 29°43' E 121°54'60419751.2
2015-Mar-18 10:20N 23°04' E 113°29'6593625.3
2015-Mar-18 10:09N 31°29' E 121°26'6671139.5
2015-Mar-18 09:33N 22°47' E 113°38'246233.8
2015-Mar-18 09:33N 22°28' E 113°54'613157518.8
2015-Mar-18 09:33N 29°43' E 121°54'60365828.0
2015-Mar-18 09:32N 23°03' E 113°30'65750288.4
2015-Mar-18 09:32N 31°19' E 121°34'656168798.4
2015-Mar-18 09:31N 23°04' E 113°29'65881689.9
2015-Mar-18 09:31N 31°31' E 121°22'67512269.1
2015-Mar-18 09:28N 22°18' E 114°07'67517228.9
2015-Mar-18 09:25N 31°30' E 121°23'65816120.8
2015-Mar-18 09:23N 23°04' E 113°29'6558900.7
2015-Mar-18 09:18N 31°47' E 120°54'6554802.5
2015-Mar-18 09:10N 23°04' E 113°30'6615750.2
2015-Mar-18 09:03N 31°55' E 120°54'6791334.2
2015-Mar-18 08:33N 22°28' E 113°54'412524.6
2015-Mar-18 08:32N 23°06' E 113°36'651212925.5
2015-Mar-18 08:32N 31°19' E 121°34'65612181.2
2015-Mar-18 08:28N 23°04' E 113°29'662119201.3
2015-Mar-18 08:28N 31°58' E 120°51'121070.1
2015-Mar-18 08:27N 31°47' E 120°54'65532740.7
2015-Mar-18 08:26N 23°03' E 113°31'65911400.4
2015-Mar-18 08:23N 31°36' E 121°16'17388.2
2015-Mar-18 08:20N 31°21' E 121°27'6545634.3
2015-Mar-18 08:13N 23°04' E 113°30'603361953.7
2015-Mar-18 08:13N 29°43' E 121°54'122181.5
2015-Mar-18 07:33N 31°40' E 121°12'65932076.8
2015-Mar-18 07:31N 23°04' E 113°29'65557523.4
2015-Mar-18 07:31N 31°47' E 120°54'67218190.3
2015-Mar-18 07:29N 22°28' E 113°54'67121368.1
2015-Mar-18 07:27N 31°19' E 121°34'60845.0
2015-Mar-18 07:22N 32°00' E 120°42'54421.2
2015-Mar-18 07:15N 31°21' E 121°27'0 0.0
2015-Mar-18 06:34N 31°21' E 121°27'37311105.1
2015-Mar-18 06:32N 37°33' E 122°11'100280138.9
2015-Mar-18 06:31N 22°28' E 113°54'431108.5
2015-Mar-18 06:28N 23°04' E 113°29'583127.3
2015-Mar-18 06:27N 22°18' E 114°07'674220653.5
2015-Mar-18 06:27N 31°47' E 120°54'44916.7
2015-Mar-18 06:24N 31°19' E 121°34'6643209.5
2015-Mar-18 06:12N 22°53' E 113°31'66428805.8
2015-Mar-18 06:10N 32°00' E 120°35'763509.5
2015-Mar-18 06:09N 31°15' E 121°46'41032113.3
2015-Mar-18 06:08N 24°53' E 118°57'31849835.7
2015-Mar-18 06:08N 23°04' E 113°29'4273.8
2015-Mar-18 05:34N 22°28' E 113°54'1001189583.2
2015-Mar-18 05:33N 37°30' E 122°16'77635358.8
2015-Mar-18 05:32N 24°53' E 118°57'31836904.2
2015-Mar-18 05:31N 23°00' E 113°32'66511454.5
2015-Mar-18 05:28N 31°18' E 121°47'11147.5
2015-Mar-18 05:23N 31°19' E 121°34'0 0.0
2015-Mar-18 04:33N 31°19' E 121°34'41246381.7
2015-Mar-18 04:32N 24°50' E 118°59'3248208.9
2015-Mar-18 04:30N 23°03' E 113°25'3247623.5
2015-Mar-18 04:27N 24°50' E 118°60'3132587.9
2015-Mar-18 04:20N 22°28' E 113°54'42259.2
2015-Mar-18 04:10N 23°04' E 113°30'65565509.4
2015-Mar-18 04:10N 31°47' E 120°54'49704.5
2015-Mar-18 04:05N 31°28' E 121°47'42272427.9
2015-Mar-18 04:05N 24°53' E 118°57'394662.0
2015-Mar-18 03:29N 31°08' E 121°12'65028546.4
2015-Mar-18 03:28N 22°28' E 113°54'67124897.2
2015-Mar-18 03:26N 31°20' E 121°34'6286.3
2015-Mar-18 03:25N 31°21' E 121°27'38174.7
2015-Mar-18 03:12N 31°47' E 120°54'42723655.2
2015-Mar-18 03:11N 24°53' E 118°57'3153614.4
2015-Mar-18 03:06N 23°05' E 113°33'3167739.7
2015-Mar-18 03:03N 24°50' E 118°59'397794.2
2015-Mar-18 02:33N 31°10' E 121°09'231249.8
2015-Mar-18 02:32N 31°24' E 121°31'41718767.4
2015-Mar-18 02:31N 24°49' E 118°59'41453192.0
2015-Mar-18 02:30N 31°20' E 121°34'41234515.5
2015-Mar-18 02:30N 24°50' E 118°59'429140315.2
2015-Mar-18 02:29N 31°45' E 121°05'9498.3
2015-Mar-18 02:28N 31°47' E 120°54'42719467.3
2015-Mar-18 02:27N 24°52' E 118°57'3136181.7
2015-Mar-18 02:24N 22°28' E 113°54'411351.3
2015-Mar-18 02:22N 23°03' E 113°30'989.8
2015-Mar-18 02:16N 22°57' E 113°37'10197.8
2015-Mar-18 02:13N 23°04' E 113°30'710.5
2015-Mar-18 01:33N 23°02' E 113°22'660169769.5
2015-Mar-18 01:33N 31°47' E 120°54'672120923.2
2015-Mar-18 01:33N 22°28' E 113°54'448851.8
2015-Mar-18 01:33N 23°05' E 113°27'66021784.3
2015-Mar-18 01:31N 31°27' E 121°28'9695.7
2015-Mar-18 01:30N 31°20' E 121°34'221493.7
2015-Mar-18 01:29N 31°14' E 121°09'4017153.4
2015-Mar-18 01:26N 24°50' E 118°58'31512726.6
2015-Mar-18 01:24N 22°57' E 113°37'105253.3
2015-Mar-18 01:24N 23°04' E 113°29'3208531.7
2015-Mar-18 01:22N 24°50' E 118°59'1 8.2
2015-Mar-18 01:15N 24°50' E 118°60'403573.6
2015-Mar-18 00:33N 31°17' E 121°08'40326401.5
2015-Mar-18 00:32N 24°50' E 118°60'32614292.9
2015-Mar-18 00:30N 23°02' E 113°24'444258.5
2015-Mar-18 00:30N 22°27' E 113°53'41884.3
2015-Mar-18 00:27N 23°03' E 113°30'65817958.0
2015-Mar-18 00:25N 31°30' E 121°23'67423552.3
2015-Mar-18 00:23N 22°19' E 114°09'58316.7
2015-Mar-18 00:12N 23°04' E 113°29'6591015.9
2015-Mar-17 23:33N 31°34' E 121°18'66451936.9
2015-Mar-17 23:32N 22°55' E 113°33'64252547.8
2015-Mar-17 23:32N 31°16' E 121°05'64775158.7
2015-Mar-17 23:31N 22°55' E 113°25'6138168.7
2015-Mar-17 23:27N 29°43' E 121°54'6119904.4
2015-Mar-17 23:23N 22°19' E 114°09'58446.4
2015-Mar-17 23:15N 23°04' E 113°29'3213385.7
2015-Mar-17 23:09N 24°50' E 119°00'4286615.2
2015-Mar-17 23:06N 31°47' E 120°54'6631215.2
2015-Mar-17 22:33N 22°52' E 113°32'32255131.2
2015-Mar-17 22:32N 24°50' E 118°60'31941057.0
2015-Mar-17 22:32N 23°03' E 113°30'65535206.9
2015-Mar-17 22:31N 31°47' E 120°54'4520.3
2015-Mar-17 22:30N 31°47' E 120°59'42930279.3
2015-Mar-17 22:30N 24°51' E 118°59'33122505.0
2015-Mar-17 22:29N 29°43' E 121°54'61112783.5
2015-Mar-17 22:26N 22°19' E 114°09'676143236.3
2015-Mar-17 22:26N 31°41' E 121°10'4262959.2
2015-Mar-17 22:17N 24°51' E 119°00'3222284.2
2015-Mar-17 22:08N 22°51' E 113°34'321534.5
2015-Mar-17 21:32N 24°50' E 118°60'324116642.0
2015-Mar-17 21:32N 23°03' E 113°25'32368372.6
2015-Mar-17 21:32N 24°50' E 118°58'306220067.6
2015-Mar-17 21:32N 22°19' E 114°09'61119808.7
2015-Mar-17 21:30N 29°43' E 121°54'33217578.2
2015-Mar-17 21:29N 24°50' E 118°59'3212379.0
2015-Mar-17 21:21N 22°51' E 113°34'3822790.3
2015-Mar-17 21:13N 26°08' E 119°34'387593.5
2015-Mar-17 20:33N 23°03' E 113°19'661264445.0
2015-Mar-17 20:33N 31°47' E 120°54'42911694.8
2015-Mar-17 20:31N 24°50' E 118°59'151.0
2015-Mar-17 20:30N 24°51' E 118°58'31911725.4
2015-Mar-17 20:29N 22°53' E 113°34'60811337.2
2015-Mar-17 20:25N 29°43' E 121°54'61113656.9
2015-Mar-17 20:23N 22°19' E 114°09'582121.8
2015-Mar-17 20:21N 23°04' E 113°29'3799346.7
2015-Mar-17 20:19N 26°08' E 119°34'32337563.9
2015-Mar-17 20:18N 31°15' E 121°30'4074374.3
2015-Mar-17 20:12N 24°50' E 118°59'319479.8
2015-Mar-17 19:33N 23°01' E 113°31'64968682.5
2015-Mar-17 19:32N 31°11' E 121°28'40327388.8
2015-Mar-17 19:31N 24°50' E 118°59'33211283.8
2015-Mar-17 19:29N 29°43' E 121°54'6119859.9
2015-Mar-17 19:26N 22°19' E 114°09'30612964.5
2015-Mar-17 19:24N 24°51' E 118°58'31971841.8
2015-Mar-17 19:24N 23°04' E 113°29'6559394.0
2015-Mar-17 19:20N 31°47' E 120°54'34617542.9
2015-Mar-17 19:19N 26°08' E 119°34'8450250.6
2015-Mar-17 19:18N 24°50' E 118°59'3235870.9
2015-Mar-17 19:15N 22°54' E 113°30'6674289.8
2015-Mar-17 19:06N 31°45' E 121°04'6621195.1
2015-Mar-17 18:33N 23°04' E 113°25'613069.0
2015-Mar-17 18:31N 22°19' E 114°09'30647899.4
2015-Mar-17 18:31N 24°50' E 118°59'39729799.8
2015-Mar-17 18:30N 31°05' E 121°28'3971428418.1
2015-Mar-17 18:30N 24°51' E 118°58'3328848.1
2015-Mar-17 18:28N 29°43' E 121°55'6045136.9
2015-Mar-17 18:21N 23°04' E 113°29'3207774.1
2015-Mar-17 18:18N 24°50' E 118°59'329422.1
2015-Mar-17 17:32N 23°03' E 113°18'32932901.5
2015-Mar-17 17:31N 24°50' E 118°59'027.6
2015-Mar-17 17:30N 24°50' E 118°59'1162.1
2015-Mar-17 17:30N 24°51' E 118°58'3069260.5
2015-Mar-17 17:28N 22°19' E 114°09'67312620.7
2015-Mar-17 17:25N 31°47' E 120°54'0 0.0
2015-Mar-17 16:33N 31°47' E 120°54'34625420.7
2015-Mar-17 16:32N 26°08' E 119°34'34622269.4
2015-Mar-17 16:31N 31°47' E 120°56'6743292.6
2015-Mar-17 16:19N 22°19' E 114°09'30628271.9
2015-Mar-17 16:18N 24°50' E 118°59'1176.1
2015-Mar-17 16:18N 24°51' E 118°58'1 4.2
2015-Mar-17 16:07N 24°50' E 118°59'3097569.5
2015-Mar-17 16:05N 22°17' E 114°06'6761297.3
2015-Mar-17 15:33N 31°47' E 120°54'247.1
2015-Mar-17 15:31N 31°47' E 120°56'674134813.7
2015-Mar-17 15:31N 22°19' E 114°09'67710453.9
2015-Mar-17 15:27N 31°45' E 121°04'4298672.5
2015-Mar-17 15:24N 24°51' E 118°58'1 9.2
2015-Mar-17 15:19N 24°50' E 118°59'3204947.8
2015-Mar-17 15:15N 22°51' E 113°34'13128.9
2015-Mar-17 15:09N 23°04' E 113°29'3795269.3
2015-Mar-17 15:05N 26°08' E 119°34'84150.5
2015-Mar-17 14:31N 24°50' E 118°59'027.9
2015-Mar-17 14:30N 24°50' E 118°59'1203.2
2015-Mar-17 14:30N 24°51' E 118°58'3193090.4
2015-Mar-17 14:24N 23°04' E 113°29'13722.8
2015-Mar-17 14:23N 22°51' E 113°34'462514.5
2015-Mar-17 14:22N 22°19' E 114°09'6734580.4
2015-Mar-17 14:13N 31°47' E 120°54'234.4
2015-Mar-17 14:10N 31°47' E 120°56'67520950.8
2015-Mar-17 14:08N 22°26' E 113°53'355528.1
2015-Mar-17 13:28N 22°37' E 120°17'341102283.9
2015-Mar-17 13:28N 22°19' E 114°09'67326629.0
2015-Mar-17 13:26N 31°47' E 120°54'2243.0
2015-Mar-17 13:26N 31°49' E 120°55'43173940.7
2015-Mar-17 13:25N 24°50' E 118°59'0 9.5
2015-Mar-17 13:24N 24°50' E 118°59'3191562.1
2015-Mar-17 13:12N 23°04' E 113°29'0 0.0
2015-Mar-17 12:33N 23°04' E 113°29'66123805.0
2015-Mar-17 12:31N 31°56' E 120°52'10153.1
2015-Mar-17 12:28N 31°47' E 120°54'4275775.9
2015-Mar-17 12:23N 24°52' E 119°01'217.9
2015-Mar-17 12:15N 24°50' E 118°59'151842.5
2015-Mar-17 12:05N 22°37' E 120°17'151265.9
2015-Mar-17 11:30N 24°50' E 118°59'2 9.4
2015-Mar-17 11:16N 24°51' E 119°01'4283630.7
2015-Mar-17 11:09N 31°47' E 120°57'657118187.2
2015-Mar-17 11:09N 23°04' E 113°29'58643.2
2015-Mar-17 11:04N 22°19' E 114°09'58114.4
2015-Mar-17 10:33N 23°04' E 113°29'31913834.8
2015-Mar-17 10:32N 24°50' E 118°58'334.8
2015-Mar-17 10:27N 24°51' E 119°01'42710250.6
2015-Mar-17 10:24N 31°47' E 120°54'6732698.5
2015-Mar-17 10:09N 22°19' E 114°09'0 0.0
2015-Mar-17 09:33N 22°19' E 114°09'3077073.5
2015-Mar-17 09:31N 24°50' E 118°59'2108.3
2015-Mar-17 09:30N 24°52' E 119°01'3222240.4
2015-Mar-17 09:21N 23°04' E 113°29'0 0.1
2015-Mar-17 08:33N 23°04' E 113°29'32012798.5
2015-Mar-17 08:31N 24°51' E 118°59'156.1
2015-Mar-17 08:31N 24°51' E 119°00'3205934.6
2015-Mar-17 08:27N 22°59' E 113°33'8134.1
2015-Mar-17 08:24N 22°51' E 113°34'6705945.2
2015-Mar-17 08:17N 32°00' E 120°47'43971836.5
2015-Mar-17 08:17N 24°51' E 119°01'4272308.4
2015-Mar-17 08:06N 31°47' E 120°54'1527375.8
2015-Mar-17 08:06N 32°00' E 120°46'440803.9
2015-Mar-17 07:33N 24°50' E 119°01'38426553.4
2015-Mar-17 07:32N 30°56' E 121°13'64120430.5
2015-Mar-17 07:30N 22°19' E 114°09'3071767.1
2015-Mar-17 07:20N 24°51' E 118°59'116.6
2015-Mar-17 07:16N 24°51' E 119°00'2 2.3
2015-Mar-17 06:22N 24°50' E 118°59'339.4
2015-Mar-17 06:17N 24°52' E 119°01'43544766.1
2015-Mar-17 06:16N 31°57' E 120°47'4375674.7
2015-Mar-17 06:12N 24°51' E 119°00'320496.5
2015-Mar-17 05:33N 22°59' E 113°33'8153.9
2015-Mar-17 05:30N 22°51' E 113°34'466915.5
2015-Mar-17 05:30N 22°19' E 114°09'30811203.8
2015-Mar-17 05:28N 24°51' E 119°01'2 8.9
2015-Mar-17 05:16N 24°50' E 118°59'319442.3
2015-Mar-17 04:33N 22°59' E 113°33'61867385.3
2015-Mar-17 04:33N 29°50' E 122°07'13225017.3
2015-Mar-17 04:32N 31°47' E 120°54'4271826.5
2015-Mar-17 04:18N 24°51' E 119°01'313.9
2015-Mar-17 04:06N 24°50' E 118°58'346611.0
2015-Mar-17 03:32N 29°55' E 122°02'12675817.6
2015-Mar-17 03:32N 31°47' E 120°54'66312495.4
2015-Mar-17 03:29N 22°53' E 113°31'32327080.0
2015-Mar-17 03:28N 24°51' E 119°01'331596092.6
2015-Mar-17 03:28N 23°03' E 113°18'1035.0
2015-Mar-17 03:11N 23°04' E 113°29'3212922.4
2015-Mar-17 03:04N 24°50' E 119°00'1 2.2
2015-Mar-17 02:33N 24°51' E 118°59'3207785.2
2015-Mar-17 02:31N 22°60' E 113°31'71098.7
2015-Mar-17 02:30N 23°02' E 113°24'6167197.2
2015-Mar-17 02:25N 29°58' E 121°52'34417425.9
2015-Mar-17 02:24N 24°50' E 119°00'3204224.6
2015-Mar-17 02:19N 23°04' E 113°29'0 0.4
2015-Mar-17 01:34N 23°04' E 113°29'659.9
2015-Mar-17 01:27N 22°59' E 113°33'31940996.2
2015-Mar-17 01:27N 24°50' E 118°60'3281179638.2
2015-Mar-17 01:27N 23°03' E 113°21'3276297.0
2015-Mar-17 01:23N 24°50' E 118°59'4414787.1
2015-Mar-17 01:18N 32°01' E 120°47'15202.0
2015-Mar-17 01:13N 31°47' E 120°54'9617914.3
2015-Mar-17 01:06N 19°44' E 109°11'308565.9
2015-Mar-17 00:33N 22°42' E 113°40'31982006.7
2015-Mar-17 00:33N 24°50' E 119°00'32015381.4
2015-Mar-17 00:32N 23°04' E 113°29'046.0
2015-Mar-17 00:31N 23°04' E 113°29'3199197.9
2015-Mar-17 00:29N 24°50' E 118°59'6241830.4
2015-Mar-17 00:09N 19°44' E 109°11'96154900.1
2015-Mar-17 00:08N 31°47' E 120°54'428736.5
2015-Mar-16 23:33N 24°51' E 118°59'44337944.3
2015-Mar-16 23:32N 32°02' E 120°50'165778.7
2015-Mar-16 23:32N 31°47' E 120°54'65542108.3
2015-Mar-16 23:31N 23°04' E 113°29'65523827.4
2015-Mar-16 23:30N 32°00' E 120°34'43818144.8
2015-Mar-16 23:28N 24°50' E 118°60'6255241.9
2015-Mar-16 23:21N 19°44' E 109°11'312392.5
2015-Mar-16 22:33N 23°04' E 113°29'31270310.1
2015-Mar-16 22:33N 19°44' E 109°11'62330325.9
2015-Mar-16 22:32N 24°50' E 118°58'2102.5
2015-Mar-16 22:30N 24°51' E 119°01'42814394.8
2015-Mar-16 22:29N 31°47' E 120°54'161101.9
2015-Mar-16 22:28N 32°01' E 120°47'6637526.3
2015-Mar-16 22:22N 23°04' E 113°29'67018706.0
2015-Mar-16 22:20N 31°28' E 121°47'4962.2
2015-Mar-16 21:33N 31°47' E 120°54'  
Track history (hours):
 
Tides and Currents Weather Stations Pressure Air Temp Water Temp Dewpoint Dewpoint Depression Visibility Wind Speed Wind Dir Waves Ship Positions

Callsign 000000 (name unknown)

Last reported at 2015-Mar-26 21:33 UTC. Time now 2015-Mar-26 22:28 UTC.
Position N 23°04' E 113°29'.

Type: Fishing. MMSI: 200007452.

Date/timePositionNaut miles runAvg speedWind from/ knotsBaromVisibWave heightAir tempDewpointWater temp
2015-Mar-26 21:33N 23°04' E 113°29'643165285.8
2015-Mar-26 21:33N 31°05' E 121°28'6924859.5
2015-Mar-26 21:33N 29°59' E 121°50'34588619.5
2015-Mar-26 21:33N 24°49' E 119°01'152.2
2015-Mar-26 21:32N 24°49' E 119°01'32114829.8
2015-Mar-26 21:30N 23°04' E 113°29'656131201.7
2015-Mar-26 21:30N 31°47' E 120°56'658148161.0
2015-Mar-26 21:30N 22°59' E 113°33'671.6
2015-Mar-26 21:25N 23°04' E 113°29'0 3.7
2015-Mar-26 21:24N 23°04' E 113°29'19232.6
2015-Mar-26 21:19N 22°48' E 113°19'3341561.0
2015-Mar-26 21:06N 24°50' E 118°59'320581.9
2015-Mar-26 20:33N 23°04' E 113°29'039.6
2015-Mar-26 20:33N 23°04' E 113°29'051.9
2015-Mar-26 20:33N 23°04' E 113°29'6439973.9
2015-Mar-26 20:29N 31°05' E 121°28'65149833.3
2015-Mar-26 20:28N 23°03' E 113°17'66421353.2
2015-Mar-26 20:26N 31°49' E 120°55'66014748.4
2015-Mar-26 20:24N 22°59' E 113°33'6179.1
2015-Mar-26 20:22N 23°04' E 113°29'5715914.0
2015-Mar-26 20:22N 22°19' E 114°07'48862.0
2015-Mar-26 20:18N 22°45' E 113°24'6282939.4
2015-Mar-26 20:05N 29°58' E 121°51'6111145.6
2015-Mar-26 19:33N 23°04' E 113°29'64345368.7
2015-Mar-26 19:33N 31°05' E 121°28'643154266.8
2015-Mar-26 19:32N 23°04' E 113°29'65960876.3
2015-Mar-26 19:32N 31°53' E 120°53'6605748.7
2015-Mar-26 19:25N 23°04' E 113°29'205467.0
2015-Mar-26 19:25N 22°44' E 113°29'202226.5
2015-Mar-26 19:24N 23°04' E 113°29'58945.8
2015-Mar-26 19:20N 22°19' E 114°07'5873.7
2015-Mar-26 18:33N 23°04' E 113°29'583467.6
2015-Mar-26 18:32N 22°19' E 114°07'51980.8
2015-Mar-26 18:29N 22°59' E 113°33'6458260.4
2015-Mar-26 18:24N 31°05' E 121°28'64382636.1
2015-Mar-26 18:24N 23°04' E 113°29'0 8.3
2015-Mar-26 18:21N 23°04' E 113°29'66310193.0
2015-Mar-26 18:17N 31°59' E 120°49'6635141.2
2015-Mar-26 18:10N 23°04' E 113°29'0 0.5
2015-Mar-26 17:34N 23°04' E 113°29'643462791.3
2015-Mar-26 17:33N 31°05' E 121°28'64379789.5
2015-Mar-26 17:33N 23°04' E 113°29'0 7.3
2015-Mar-26 17:30N 23°04' E 113°29'6292.4
2015-Mar-26 17:29N 22°59' E 113°33'511544.8
2015-Mar-26 17:27N 22°19' E 114°07'68019585.5
2015-Mar-26 17:25N 32°00' E 120°43'66012187.1
2015-Mar-26 17:22N 23°04' E 113°29'3192859.3
2015-Mar-26 17:15N 24°49' E 118°59'319461.7
2015-Mar-26 16:34N 23°04' E 113°29'643771318.9
2015-Mar-26 16:33N 31°05' E 121°28'643385631.8
2015-Mar-26 16:33N 23°04' E 113°29'588667.4
2015-Mar-26 16:33N 22°19' E 114°07'57418.3
2015-Mar-26 16:25N 23°04' E 113°29'646.5
2015-Mar-26 16:17N 22°59' E 113°33'645.0
2015-Mar-26 16:09N 23°04' E 113°29'0 0.5
2015-Mar-26 15:33N 23°04' E 113°29'010.3
2015-Mar-26 15:33N 23°04' E 113°29'0140.8
2015-Mar-26 15:33N 23°04' E 113°29'5741379.9
2015-Mar-26 15:33N 22°19' E 114°07'65750351.1
2015-Mar-26 15:32N 31°05' E 121°28'64512684.0
2015-Mar-26 15:29N 22°59' E 113°33'621.9
2015-Mar-26 15:13N 23°04' E 113°29'0 0.5
2015-Mar-26 14:33N 23°04' E 113°29'072.0
2015-Mar-26 14:33N 23°04' E 113°29'64396407.9
2015-Mar-26 14:33N 31°05' E 121°28'65756343.6
2015-Mar-26 14:32N 22°19' E 114°07'51803.7
2015-Mar-26 14:28N 22°59' E 113°33'696.6
2015-Mar-26 14:25N 23°04' E 113°29'0 5.6
2015-Mar-26 14:24N 23°04' E 113°29'12171.6
2015-Mar-26 14:20N 22°53' E 113°32'6684093.8
2015-Mar-26 14:10N 31°08' E 121°55'6601081.3
2015-Mar-26 13:33N 23°04' E 113°29'643462788.0
2015-Mar-26 13:33N 31°05' E 121°28'643110184.7
2015-Mar-26 13:33N 23°04' E 113°29'66042441.3
2015-Mar-26 13:32N 31°12' E 121°49'67021168.0
2015-Mar-26 13:30N 22°55' E 113°24'9302.2
2015-Mar-26 13:28N 22°59' E 113°33'697.5
2015-Mar-26 13:25N 23°04' E 113°29'0 6.9
2015-Mar-26 13:21N 23°04' E 113°29'659818.9
2015-Mar-26 12:33N 31°39' E 121°13'368658.1
2015-Mar-26 12:33N 31°18' E 121°47'664796244.7
2015-Mar-26 12:33N 23°04' E 113°29'64322685.7
2015-Mar-26 12:31N 31°05' E 121°28'6454463.8
2015-Mar-26 12:22N 22°59' E 113°33'6252.5
2015-Mar-26 12:21N 23°04' E 113°29'0 7.3
2015-Mar-26 12:18N 23°04' E 113°29'0 2.7
2015-Mar-26 12:10N 23°04' E 113°29'6431055.1
2015-Mar-26 11:33N 31°05' E 121°28'2591197.5
2015-Mar-26 11:33N 31°26' E 121°45'668150262.0
2015-Mar-26 11:33N 23°04' E 113°29'065.7
2015-Mar-26 11:33N 23°04' E 113°29'0 0.3
2015-Mar-26 11:21N 23°04' E 113°29'634.5
2015-Mar-26 11:10N 22°59' E 113°33'610.1
2015-Mar-26 10:33N 23°04' E 113°29'0109.5
2015-Mar-26 10:33N 23°04' E 113°29'643578477.7
2015-Mar-26 10:33N 31°05' E 121°28'6433464.2
2015-Mar-26 10:22N 23°04' E 113°29'057.1
2015-Mar-26 10:21N 23°04' E 113°29'632.5
2015-Mar-26 10:10N 22°59' E 113°33'610.5
2015-Mar-26 09:33N 23°04' E 113°29'412680.2
2015-Mar-26 09:33N 23°04' E 113°25'4565.5
2015-Mar-26 09:33N 23°04' E 113°29'668.7
2015-Mar-26 09:28N 22°59' E 113°33'31155901.7
2015-Mar-26 09:27N 19°44' E 109°13'97135687.5
2015-Mar-26 09:26N 31°35' E 121°27'492142181.0
2015-Mar-26 09:19S 20°09' E 057°29'4246664646.8
2015-Mar-26 09:18N 22°18' E 114°07'58615.3
2015-Mar-26 09:13N 23°04' E 113°29'311475.1
2015-Mar-26 08:33N 19°44' E 109°13'31150954.6
2015-Mar-26 08:33N 23°04' E 113°29'64316767.0
2015-Mar-26 08:31N 31°05' E 121°28'643105175.8
2015-Mar-26 08:30N 23°04' E 113°29'5817386.4
2015-Mar-26 08:30N 22°18' E 114°07'66202.7
2015-Mar-26 08:11N 23°04' E 113°16'12723.4
2015-Mar-26 08:10N 23°04' E 113°29'67212.6
2015-Mar-26 08:10N 22°59' E 113°33'311513.8
2015-Mar-26 07:33N 19°44' E 109°13'3116124.5
2015-Mar-26 07:30N 23°04' E 113°29'6142.0
2015-Mar-26 07:28N 22°59' E 113°33'10599.5
2015-Mar-26 07:27N 23°02' E 113°22'776.1
2015-Mar-26 07:21N 23°04' E 113°29'617105749.0
2015-Mar-26 07:21N 29°56' E 122°03'6174796.6
2015-Mar-26 07:13N 23°04' E 113°29'0 0.6
2015-Mar-26 06:33N 23°04' E 113°29'052.1
2015-Mar-26 06:33N 23°04' E 113°29'6411.4
2015-Mar-26 06:32N 22°59' E 113°33'6199015.4
2015-Mar-26 06:28N 29°51' E 122°08'821372.7
2015-Mar-26 06:24N 31°05' E 121°28'95119129.5
2015-Mar-26 06:21N 19°44' E 109°13'3155379.2
2015-Mar-26 06:18N 22°18' E 114°07'657888.5
2015-Mar-26 05:33N 31°05' E 121°28'643385630.9
2015-Mar-26 05:33N 23°04' E 113°29'044.5
2015-Mar-26 05:33N 23°04' E 113°29'6391.2
2015-Mar-26 05:32N 22°59' E 113°33'3114036.2
2015-Mar-26 05:27N 19°44' E 109°13'91970369.8
2015-Mar-26 05:27N 29°45' E 121°58'47546213.9
2015-Mar-26 05:26N 37°39' E 122°05'12711449.1
2015-Mar-26 04:33N 19°44' E 109°13'31150948.2
2015-Mar-26 04:33N 23°04' E 113°29'6438865.6
2015-Mar-26 04:29N 31°05' E 121°28'64514328.2
2015-Mar-26 04:26N 22°59' E 113°33'6294.0
2015-Mar-26 04:25N 23°04' E 113°29'0 1.3
2015-Mar-26 04:09N 23°04' E 113°29'60444341.1
2015-Mar-26 04:09N 29°43' E 121°55'14840956.7
2015-Mar-26 04:08N 31°60' E 120°48'9661524.8
2015-Mar-26 03:30N 19°44' E 109°13'3111120809.6
2015-Mar-26 03:30N 23°04' E 113°29'64350300.5
2015-Mar-26 03:30N 31°05' E 121°28'6436805.6
2015-Mar-26 03:24N 23°04' E 113°29'691.9
2015-Mar-26 03:20N 22°59' E 113°33'6655282.0
2015-Mar-26 03:12N 31°60' E 120°48'6621006.6
2015-Mar-26 02:33N 23°04' E 113°29'0 7.0
2015-Mar-26 02:30N 23°04' E 113°29'976103365.8
2015-Mar-26 02:30N 37°33' E 122°05'97981922.6
2015-Mar-26 02:29N 23°01' E 113°31'60416993.3
2015-Mar-26 02:27N 29°43' E 121°54'851291.3
2015-Mar-26 02:23N 31°05' E 121°28'641923.3
2015-Mar-26 02:21N 31°60' E 120°48'96610346.9
2015-Mar-26 02:15N 19°44' E 109°13'3117473.2
2015-Mar-26 02:13N 23°04' E 113°29'0 0.1
2015-Mar-26 01:33N 23°04' E 113°29'341.8
2015-Mar-26 01:28N 23°01' E 113°31'644210834.6
2015-Mar-26 01:28N 31°05' E 121°28'64312440.4
2015-Mar-26 01:25N 23°04' E 113°29'0 1.5
2015-Mar-26 01:10N 23°04' E 113°29'0 0.4
2015-Mar-26 00:24N 23°04' E 113°29'0 7.3
2015-Mar-26 00:21N 23°04' E 113°29'6437392.3
2015-Mar-26 00:16N 31°05' E 121°28'611602.3
2015-Mar-26 00:14N 31°58' E 120°51'66334570.8
2015-Mar-26 00:13N 23°04' E 113°29'0 0.6
2015-Mar-25 23:33N 23°04' E 113°29'043.4
2015-Mar-25 23:33N 23°04' E 113°29'0 0.6
2015-Mar-25 23:25N 23°04' E 113°29'31259189.5
2015-Mar-25 23:24N 19°44' E 109°12'304358.1
2015-Mar-25 22:33N 23°03' E 113°18'105112.6
2015-Mar-25 22:33N 23°04' E 113°29'049.9
2015-Mar-25 22:33N 23°04' E 113°29'26121848.1
2015-Mar-25 22:32N 24°12' E 118°04'3893522.7
2015-Mar-25 22:26N 29°43' E 121°54'24842572.1
2015-Mar-25 22:25N 26°08' E 119°34'3796467.6
2015-Mar-25 22:22N 23°04' E 113°29'6634831.8
2015-Mar-25 22:14N 31°59' E 120°50'651.2
2015-Mar-25 22:06N 32°02' E 120°44'6641214.7
2015-Mar-25 21:34N 23°04' E 113°25'3497.0
2015-Mar-25 21:33N 23°04' E 113°29'37912183.5
2015-Mar-25 21:31N 26°08' E 119°34'37918197.6
2015-Mar-25 21:30N 23°04' E 113°29'26980820.5
2015-Mar-25 21:30N 24°16' E 118°12'2693199.2
2015-Mar-25 21:25N 23°04' E 113°29'276323.2
2015-Mar-25 20:33N 24°20' E 118°19'27633143.0
2015-Mar-25 20:33N 23°04' E 113°29'52248.4
2015-Mar-25 20:33N 22°60' E 113°31'6673338.4
2015-Mar-25 20:21N 31°37' E 121°25'66414234.5
2015-Mar-25 20:18N 23°04' E 113°29'3794772.0
2015-Mar-25 20:13N 26°08' E 119°34'2611961.1
2015-Mar-25 20:05N 29°51' E 122°07'5481016.7
2015-Mar-25 19:33N 23°04' E 115°17'991008.8
2015-Mar-25 19:27N 23°04' E 113°29'0 9.5
2015-Mar-25 19:25N 23°04' E 113°29'0 0.4
2015-Mar-25 18:27N 23°04' E 113°29'0 6.3
2015-Mar-25 18:24N 23°04' E 113°29'0 0.4
2015-Mar-25 18:13N 23°04' E 113°29'66840071.4
2015-Mar-25 18:12N 31°26' E 121°44'5 8.3
2015-Mar-25 17:33N 31°22' E 121°48'669481849.2
2015-Mar-25 17:33N 22°59' E 113°31'599.7
2015-Mar-25 17:30N 23°04' E 113°29'0 3.7
2015-Mar-25 17:25N 23°04' E 113°29'0 0.7
2015-Mar-25 17:21N 23°04' E 113°29'0 0.1
2015-Mar-25 16:33N 23°04' E 113°29'11249.8
2015-Mar-25 16:30N 22°53' E 113°31'11199.5
2015-Mar-25 16:27N 23°04' E 113°29'0 9.0
2015-Mar-25 16:25N 23°04' E 113°29'0 0.1
2015-Mar-25 15:33N 23°04' E 113°29'0 6.1
2015-Mar-25 15:30N 23°04' E 113°29'3116694.7
2015-Mar-25 15:27N 24°43' E 118°51'3107551.2
2015-Mar-25 15:25N 23°04' E 113°29'316368.2
2015-Mar-25 14:33N 24°47' E 118°56'3165773.1
2015-Mar-25 14:30N 23°04' E 113°29'0 3.1
2015-Mar-25 14:24N 23°04' E 113°29'0 0.4
2015-Mar-25 14:13N 23°04' E 113°29'0 0.1
2015-Mar-25 13:33N 23°04' E 113°29'32255148.5
2015-Mar-25 13:33N 24°52' E 119°01'3222453.4
2015-Mar-25 13:25N 23°04' E 113°29'0 1.2
2015-Mar-25 13:06N 23°04' E 113°29'0 0.0
2015-Mar-25 12:30N 23°04' E 113°29'0 2.8
2015-Mar-25 12:22N 23°04' E 113°29'0 6.8
2015-Mar-25 12:21N 23°04' E 113°29'65917445.8
2015-Mar-25 12:19N 32°00' E 120°41'659862.8
2015-Mar-25 11:33N 23°04' E 113°29'572914.4
2015-Mar-25 11:32N 22°19' E 114°08'581944.3
2015-Mar-25 11:30N 23°04' E 113°29'0 4.4
2015-Mar-25 11:25N 23°04' E 113°29'0 0.1
2015-Mar-25 10:33N 23°04' E 113°29'0 6.6
2015-Mar-25 10:30N 23°04' E 113°29'59980.7
2015-Mar-25 10:27N 22°19' E 114°09'582044.0
2015-Mar-25 10:25N 23°04' E 113°29'5865.1
2015-Mar-25 09:31N 22°19' E 114°09'59890.3
2015-Mar-25 09:27N 23°04' E 113°29'0 5.7
2015-Mar-25 09:24N 23°04' E 113°29'0 0.6
2015-Mar-25 09:13N 23°04' E 113°29'6654485.1
2015-Mar-25 09:04N 31°20' E 121°48'6651292.6
2015-Mar-25 08:33N 23°04' E 113°29'663298346.2
2015-Mar-25 08:33N 31°18' E 121°46'3333.3
2015-Mar-25 07:33N 31°38' E 121°15'393709.6
2015-Mar-25 07:33N 31°12' E 121°49'66113992.6
2015-Mar-25 07:30N 23°04' E 113°29'59349.0
2015-Mar-25 07:20N 22°19' E 114°09'67523152.0
2015-Mar-25 07:18N 31°35' E 121°19'6596399.1
2015-Mar-25 07:12N 23°04' E 113°29'6591029.0
2015-Mar-25 06:33N 31°32' E 121°22'40613.0
2015-Mar-25 06:30N 31°07' E 121°58'66215275.6
2015-Mar-25 06:27N 23°04' E 113°29'111087.4
2015-Mar-25 06:26N 22°57' E 113°37'10131.4
2015-Mar-25 06:22N 23°04' E 113°29'0 3.8
2015-Mar-25 06:21N 23°04' E 113°29'12882.6
2015-Mar-25 06:20N 23°04' E 113°16'678580.0
2015-Mar-25 06:20N 22°19' E 114°09'674853.4
2015-Mar-25 05:32N 31°27' E 121°29'67455176.3
2015-Mar-25 05:32N 22°19' E 114°09'58559.6
2015-Mar-25 05:25N 23°04' E 113°29'6601188474.3
2015-Mar-25 05:25N 32°00' E 120°43'6605413.6
2015-Mar-25 05:18N 23°04' E 113°29'0 0.4
2015-Mar-25 04:30N 23°04' E 113°29'0 0.6
2015-Mar-25 04:25N 23°04' E 113°29'66010147.0
2015-Mar-25 04:21N 31°39' E 121°13'6596687.5
2015-Mar-25 04:15N 23°04' E 113°29'3738038.8
2015-Mar-25 04:12N 25°44' E 119°39'5 7.5
2015-Mar-25 03:33N 25°48' E 119°41'3768017.0
2015-Mar-25 03:30N 23°04' E 113°29'0 7.9
2015-Mar-25 03:27N 23°04' E 113°29'14242.0
2015-Mar-25 03:24N 22°52' E 113°34'13398.7
2015-Mar-25 03:22N 23°04' E 113°29'8 9.1
2015-Mar-25 02:30N 23°03' E 113°21'81110.8
2015-Mar-25 02:30N 23°04' E 113°29'0123.6
2015-Mar-25 02:30N 23°04' E 113°29'0 1.3
2015-Mar-25 02:11N 23°04' E 113°29'1321.2
2015-Mar-25 01:33N 22°51' E 113°34'14289.7
2015-Mar-25 01:30N 23°04' E 113°29'0123.6
2015-Mar-25 01:30N 23°04' E 113°29'581672.7
2015-Mar-25 01:28N 22°18' E 114°07'48810.9
2015-Mar-25 01:24N 22°57' E 113°37'1052.4
2015-Mar-25 01:13N 23°04' E 113°29'5888.2
2015-Mar-25 00:34N 22°18' E 114°07'97441736.6
2015-Mar-25 00:32N 36°48' E 122°31'94826261.9
2015-Mar-25 00:30N 23°04' E 113°29'0111.2
2015-Mar-25 00:30N 23°04' E 113°29'6139558.0
2015-Mar-25 00:26N 29°48' E 122°04'14413336.1
2015-Mar-25 00:25N 31°58' E 120°51'66366274.3
2015-Mar-25 00:25N 23°04' E 113°29'9541113.5
2015-Mar-24 23:33N 36°55' E 122°29'43112621.1
2015-Mar-24 23:31N 29°45' E 121°60'60829187.7
2015-Mar-24 23:30N 23°04' E 113°29'5826068.4
2015-Mar-24 23:30N 22°18' E 114°07'58103722.8
2015-Mar-24 23:30N 23°04' E 113°29'0 0.6
2015-Mar-24 23:22N 23°04' E 113°29'0 0.4
2015-Mar-24 22:30N 23°04' E 113°29'581241.4
2015-Mar-24 22:27N 22°18' E 114°07'589878.4
2015-Mar-24 22:27N 23°04' E 113°29'6632978.6
2015-Mar-24 22:13N 31°58' E 120°51'663815.7
2015-Mar-24 21:25N 23°04' E 113°29'585607.6
2015-Mar-24 21:24N 22°18' E 114°07'58380.9
2015-Mar-24 21:15N 23°04' E 113°29'3797183.5
2015-Mar-24 21:12N 26°08' E 119°34'3793801.1
2015-Mar-24 21:06N 23°04' E 113°29'58105.6
2015-Mar-24 20:33N 22°18' E 114°07'68227915.7
2015-Mar-24 20:32N 31°58' E 120°51'67135517.2
2015-Mar-24 20:30N 22°51' E 113°34'14234.1
2015-Mar-24 20:27N 23°04' E 113°29'0 9.3
2015-Mar-24 20:25N 23°04' E 113°29'10200.1
2015-Mar-24 20:22N 22°57' E 113°37'3772295.5
2015-Mar-24 20:12N 26°08' E 119°34'376579.3
2015-Mar-24 19:33N 22°18' E 114°07'6829633.6
2015-Mar-24 19:29N 31°58' E 120°51'66541269.7
2015-Mar-24 19:28N 22°57' E 113°37'11905.4
2015-Mar-24 19:27N 23°04' E 113°29'0127.0
2015-Mar-24 19:27N 23°04' E 113°29'0 1.2
2015-Mar-24 19:25N 23°04' E 113°29'3793296.2
2015-Mar-24 19:18N 26°08' E 119°34'376499.5
2015-Mar-24 18:33N 22°18' E 114°07'581288.7
2015-Mar-24 18:30N 23°04' E 113°29'0114.3
2015-Mar-24 18:30N 23°04' E 113°29'103137104.8
2015-Mar-24 18:28N 38°46' E 121°36'103118100.6
2015-Mar-24 18:25N 23°04' E 113°29'5866.3
2015-Mar-24 17:33N 22°18' E 114°07'581258.5
2015-Mar-24 17:30N 23°04' E 113°29'0 6.9
2015-Mar-24 17:27N 23°04' E 113°29'11584.8
2015-Mar-24 17:26N 22°57' E 113°37'10483.7
2015-Mar-24 17:25N 23°04' E 113°29'663752.0
2015-Mar-24 16:32N 31°58' E 120°51'66321301.1
2015-Mar-24 16:30N 23°04' E 113°29'0128.7
2015-Mar-24 16:30N 23°04' E 113°29'581007.8
2015-Mar-24 16:26N 22°18' E 114°07'58207.3
2015-Mar-24 16:10N 23°04' E 113°29'0 0.1
2015-Mar-24 15:27N 23°04' E 113°29'586481.6
2015-Mar-24 15:26N 22°18' E 114°07'48446.8
2015-Mar-24 15:20N 22°57' E 113°37'6654184.9
2015-Mar-24 15:10N 31°58' E 120°51'66356808.8
2015-Mar-24 15:10N 23°04' E 113°29'5892.0
2015-Mar-24 14:32N 22°18' E 114°07'581492.3
2015-Mar-24 14:30N 23°04' E 113°29'0 6.4
2015-Mar-24 14:27N 23°04' E 113°29'66326508.2
2015-Mar-24 14:25N 31°58' E 120°51'66310604.2
2015-Mar-24 14:22N 23°04' E 113°29'6102251.3
2015-Mar-24 14:05N 29°46' E 122°01'6181111.3
2015-Mar-24 13:32N 22°19' E 114°07'67725132.3
2015-Mar-24 13:30N 32°01' E 120°36'65773864.9
2015-Mar-24 13:30N 23°04' E 113°29'61455279.6
2015-Mar-24 13:29N 29°49' E 122°05'61414739.9
2015-Mar-24 13:27N 23°04' E 113°29'0 0.6
2015-Mar-24 13:22N 23°04' E 113°29'1040.6
2015-Mar-24 13:07N 22°57' E 113°37'1016.4
2015-Mar-24 12:30N 23°04' E 113°29'62043740.5
2015-Mar-24 12:29N 29°54' E 122°08'62018747.5
2015-Mar-24 12:27N 23°04' E 113°29'0 4.5
2015-Mar-24 12:22N 23°04' E 113°29'66032563.6
2015-Mar-24 12:21N 31°08' E 121°54'6615065.9
2015-Mar-24 12:13N 22°57' E 113°37'6634513.1
2015-Mar-24 12:04N 32°01' E 120°44'140273.8
2015-Mar-24 11:33N 29°57' E 121°59'7931455.7
2015-Mar-24 11:33N 31°15' E 121°47'66112994.5
2015-Mar-24 11:30N 23°04' E 113°29'0 4.3
2015-Mar-24 11:25N 23°04' E 113°29'106042.3
2015-Mar-24 11:25N 22°57' E 113°37'6656094.7
2015-Mar-24 11:18N 32°00' E 120°49'663108505.5
2015-Mar-24 11:18N 23°04' E 113°29'66227727.0
2015-Mar-24 11:16N 31°59' E 120°49'66929001.9
2015-Mar-24 11:15N 23°03' E 113°19'1825.7
2015-Mar-24 10:33N 22°57' E 113°37'667299981.0
2015-Mar-24 10:33N 31°20' E 121°48'671268246.1
2015-Mar-24 10:33N 23°02' E 113°23'61612311.7
2015-Mar-24 10:30N 29°59' E 121°49'610219637.4
2015-Mar-24 10:30N 23°04' E 113°29'0 0.9
2015-Mar-24 10:25N 23°04' E 113°29'012.7
2015-Mar-24 10:23N 23°04' E 113°29'0 0.5
2015-Mar-24 09:33N 23°04' E 113°28'6757.9
2015-Mar-24 09:33N 22°60' E 113°32'5100.7
2015-Mar-24 09:30N 23°04' E 113°29'66718065.6
2015-Mar-24 09:28N 31°28' E 121°41'66920403.5
2015-Mar-24 09:26N 22°57' E 113°37'665265836.6
2015-Mar-24 09:25N 31°59' E 120°49'66210599.3
2015-Mar-24 09:22N 23°04' E 113°29'0 2.7
2015-Mar-24 09:14N 23°04' E 113°29'6093446.6
2015-Mar-24 09:03N 29°59' E 121°47'6121221.8
2015-Mar-24 08:33N 23°04' E 113°25'4905.3
2015-Mar-24 08:33N 23°04' E 113°30'10423.7
2015-Mar-24 08:32N 22°57' E 113°37'10128.2
2015-Mar-24 08:27N 23°04' E 113°29'9204.4
2015-Mar-24 08:24N 22°56' E 113°33'9205.9
2015-Mar-24 08:22N 23°04' E 113°29'6635327.9
2015-Mar-24 08:14N 32°00' E 120°49'66311933.2
2015-Mar-24 08:11N 23°04' E 113°29'1 1.2
2015-Mar-24 07:33N 23°04' E 113°30'60935913.7
2015-Mar-24 07:32N 29°59' E 121°47'6196454.4
2015-Mar-24 07:27N 22°18' E 114°07'585357.5
2015-Mar-24 07:26N 23°04' E 113°29'12697.8
2015-Mar-24 07:25N 23°03' E 113°16'98712830.7
2015-Mar-24 07:20N 37°38' E 122°06'98210740.0
2015-Mar-24 07:15N 23°04' E 113°29'6405006.0
2015-Mar-24 07:07N 31°17' E 121°08'491054.6
2015-Mar-24 07:04N 31°60' E 120°40'6581272.3
2015-Mar-24 06:33N 23°04' E 113°30'98148354.4
2015-Mar-24 06:32N 37°35' E 122°11'98111102.1
2015-Mar-24 06:27N 23°04' E 113°29'023.4
2015-Mar-24 06:26N 23°04' E 113°29'019.6
2015-Mar-24 06:25N 23°04' E 113°29'58774.6
2015-Mar-24 06:20N 22°18' E 114°07'2533930.0
2015-Mar-24 06:16N 24°19' E 118°10'2635359.1
2015-Mar-24 06:13N 22°57' E 113°37'6445329.3
2015-Mar-24 06:06N 31°05' E 121°28'6421171.5
2015-Mar-24 05:33N 23°04' E 113°30'5612666.9
2015-Mar-24 05:33N 22°19' E 114°06'25321199.6
2015-Mar-24 05:32N 24°22' E 118°07'82016483.6
2015-Mar-24 05:29N 37°33' E 122°20'98219113.2
2015-Mar-24 05:26N 23°04' E 113°29'0 1.3
2015-Mar-24 05:10N 23°04' E 113°29'0 0.8
2015-Mar-24 04:33N 23°04' E 113°30'2619400.9
2015-Mar-24 04:32N 24°25' E 118°01'2626589.0
2015-Mar-24 04:29N 23°04' E 113°29'0 3.5
2015-Mar-24 04:24N 23°04' E 113°29'110.2
2015-Mar-24 04:21N 23°04' E 113°29'61113246.3
2015-Mar-24 04:18N 29°58' E 121°51'1341671.4
2015-Mar-24 04:13N 32°01' E 120°49'5277.4
2015-Mar-24 03:33N 31°23' E 121°30'526921.2
2015-Mar-24 03:32N 32°01' E 120°49'664341410.2
2015-Mar-24 03:32N 23°04' E 113°30'115.0
2015-Mar-24 03:29N 23°04' E 113°29'25614387.5
2015-Mar-24 03:28N 24°24' E 117°54'2562009.0
2015-Mar-24 03:21N 23°04' E 113°29'61628451.9
2015-Mar-24 03:19N 29°56' E 122°02'1398907.9
2015-Mar-24 03:18N 31°59' E 120°49'5 6.9
2015-Mar-24 02:33N 32°00' E 120°43'066.5
2015-Mar-24 02:33N 32°00' E 120°43'660215952.7
2015-Mar-24 02:33N 23°04' E 113°30'102215.2
2015-Mar-24 02:33N 22°57' E 113°37'61889034.6
2015-Mar-24 02:32N 29°52' E 122°08'62511648.8
2015-Mar-24 02:29N 23°03' E 113°21'66029696.8
2015-Mar-24 02:28N 31°21' E 121°27'6545477.9
2015-Mar-24 02:21N 23°04' E 113°29'0 1.2
2015-Mar-24 02:05N 23°04' E 113°29'6541213.5
2015-Mar-24 01:33N 31°21' E 121°27'6541177215.0
2015-Mar-24 01:33N 23°04' E 113°30'61052272.7
2015-Mar-24 01:32N 29°46' E 122°02'61032304.9
2015-Mar-24 01:31N 22°57' E 113°37'659139610.6
2015-Mar-24 01:31N 32°02' E 120°35'65723885.2
2015-Mar-24 01:29N 23°04' E 113°29'0 2.2
2015-Mar-24 01:21N 23°04' E 113°29'9703579.7
2015-Mar-24 01:04N 37°08' E 122°43'9701874.3
2015-Mar-24 00:33N 23°04' E 113°29'89018.3
2015-Mar-24 00:33N 23°02' E 113°21'8850.5
2015-Mar-24 00:33N 23°04' E 113°29'965231645.4
2015-Mar-24 00:32N 37°03' E 122°41'44114317.4
2015-Mar-24 00:31N 29°43' E 121°55'60425563.7
2015-Mar-24 00:29N 23°04' E 113°29'65419628.2
2015-Mar-24 00:27N 31°21' E 121°27'654724.1
2015-Mar-23 23:33N 23°04' E 113°29'955245589.8
2015-Mar-23 23:33N 36°54' E 122°35'956104311.1
2015-Mar-23 23:32N 23°04' E 113°26'357.5
2015-Mar-23 23:29N 23°04' E 113°29'10152.2
2015-Mar-23 23:25N 22°57' E 113°37'103519820.1
2015-Mar-23 23:22N 38°47' E 121°36'4456735.5
2015-Mar-23 23:18N 31°21' E 121°27'654878.5
2015-Mar-23 22:33N 23°04' E 113°29'948121843.0
2015-Mar-23 22:33N 36°51' E 122°23'94881287.5
2015-Mar-23 22:32N 23°03' E 113°31'2692.1
2015-Mar-23 22:32N 23°04' E 113°29'591451.0
2015-Mar-23 22:30N 22°19' E 114°10'5911208.6
2015-Mar-23 22:29N 23°04' E 113°29'6543945.1
2015-Mar-23 22:19N 31°21' E 121°27'654854.3
2015-Mar-23 21:33N 23°04' E 113°29'0 3.1
2015-Mar-23 21:32N 23°04' E 113°29'65450113.8
2015-Mar-23 21:31N 31°21' E 121°27'6548011.0
2015-Mar-23 21:26N 23°04' E 113°29'59445.6
2015-Mar-23 21:18N 22°19' E 114°10'5977.3
2015-Mar-23 20:33N 23°04' E 113°29'591198.5
2015-Mar-23 20:30N 22°19' E 114°10'59362.5
2015-Mar-23 20:20N 23°04' E 113°29'65456083.7
2015-Mar-23 20:19N 31°21' E 121°27'65419149.4
2015-Mar-23 20:17N 23°04' E 113°29'379502.2
2015-Mar-23 19:32N 26°08' E 119°34'374448931.8
2015-Mar-23 19:32N 22°19' E 114°10'67773863.1
2015-Mar-23 19:31N 32°00' E 120°39'3036613.7
2015-Mar-23 19:29N 36°51' E 122°23'3043894.4
2015-Mar-23 19:24N 31°59' E 120°40'3401.4
2015-Mar-23 19:23N 32°01' E 120°37'676794.9
2015-Mar-23 18:32N 22°19' E 114°10'6821874.5
2015-Mar-23 18:11N 31°26' E 121°45'3263237.6
2015-Mar-23 18:04N 36°51' E 122°23'331632.0
2015-Mar-23 17:33N 31°21' E 121°48'3311201.5
2015-Mar-23 17:16N 36°51' E 122°23'335467.7
2015-Mar-23 16:33N 31°17' E 121°45'67520939.7
2015-Mar-23 16:32N 22°19' E 114°10'59171.9
2015-Mar-23 16:11N 23°04' E 113°29'654196291.0
2015-Mar-23 16:11N 31°21' E 121°27'658103061.5
2015-Mar-23 16:10N 22°56' E 113°33'9248.0
2015-Mar-23 16:08N 23°04' E 113°29'099.1
2015-Mar-23 16:08N 23°04' E 113°29'0 0.1
2015-Mar-23 15:33N 23°04' E 113°29'66154062.8
2015-Mar-23 15:33N 31°10' E 121°52'661103423.7
2015-Mar-23 15:32N 23°04' E 113°29'658197485.5
2015-Mar-23 15:32N 31°24' E 121°31'66065973.7
2015-Mar-23 15:31N 22°57' E 113°37'49447.2
2015-Mar-23 15:25N 22°19' E 114°10'44763.0
2015-Mar-23 15:21N 22°49' E 113°36'1671.0
2015-Mar-23 15:08N 23°04' E 113°29'0 0.1
2015-Mar-23 14:33N 23°04' E 113°29'658236979.3
2015-Mar-23 14:33N 31°24' E 121°31'65860763.4
2015-Mar-23 14:32N 23°04' E 113°29'086.7
2015-Mar-23 14:32N 23°04' E 113°29'66244975.4
2015-Mar-23 14:31N 31°05' E 122°00'33372.1
2015-Mar-23 14:26N 31°21' E 121°27'6692176.6
2015-Mar-23 14:07N 22°19' E 114°10'6731174.4
2015-Mar-23 13:33N 31°24' E 121°31'65839496.8
2015-Mar-23 13:32N 23°04' E 113°29'064.8
2015-Mar-23 13:32N 23°04' E 113°29'591086.4
2015-Mar-23 13:29N 22°19' E 114°10'59641.5
2015-Mar-23 13:23N 23°04' E 113°29'65413614.2
2015-Mar-23 13:20N 31°21' E 121°27'6565257.5
2015-Mar-23 13:13N 22°57' E 113°37'1015.4
2015-Mar-23 12:33N 23°04' E 113°29'65847396.2
2015-Mar-23 12:32N 31°24' E 121°31'658124725.6
2015-Mar-23 12:32N 23°04' E 113°29'0 2.3
2015-Mar-23 12:23N 23°04' E 113°29'1059.8
2015-Mar-23 12:13N 22°57' E 113°37'1015.4
2015-Mar-23 11:33N 23°04' E 113°29'65852662.4
2015-Mar-23 11:33N 31°24' E 121°31'658103034.2
2015-Mar-23 11:32N 23°04' E 113°29'097.1
2015-Mar-23 11:32N 23°04' E 113°29'1085.2
2015-Mar-23 11:25N 22°57' E 113°37'1011.8
2015-Mar-23 10:33N 23°04' E 113°29'020.9
2015-Mar-23 10:32N 23°04' E 113°29'522969.7
2015-Mar-23 10:31N 22°15' E 113°48'67223486.7
2015-Mar-23 10:29N 31°58' E 120°05'33709.8
2015-Mar-23 10:27N 32°01' E 120°44'6616053.4
2015-Mar-23 10:20N 23°04' E 113°29'65412204.8
2015-Mar-23 10:17N 31°21' E 121°27'654894.6
2015-Mar-23 09:33N 23°04' E 113°29'65434638.5
2015-Mar-23 09:32N 31°21' E 121°27'491926.4
2015-Mar-23 09:30N 31°59' E 120°51'321389.4
2015-Mar-23 09:29N 31°57' E 120°14'29301.1
2015-Mar-23 09:23N 31°60' E 120°48'66212678.7
2015-Mar-23 09:20N 23°04' E 113°29'0 2.1
2015-Mar-23 09:11N 23°04' E 113°29'7191.7
2015-Mar-23 09:09N 22°58' E 113°33'6651120.0
2015-Mar-23 08:33N 31°60' E 120°48'66270106.4
2015-Mar-23 08:33N 23°04' E 113°29'659124863.5
2015-Mar-23 08:32N 31°52' E 120°54'659237220.3
2015-Mar-23 08:32N 23°04' E 113°29'6481166205.1
2015-Mar-23 08:32N 31°60' E 120°21'64730669.7
2015-Mar-23 08:31N 23°03' E 113°32'218.4
2015-Mar-23 08:23N 23°04' E 113°29'654471104.4
2015-Mar-23 08:23N 31°21' E 121°27'65710749.0
2015-Mar-23 08:19N 22°56' E 113°36'25121005.9
2015-Mar-23 08:18N 24°25' E 117°52'2631245.4
2015-Mar-23 08:06N 23°03' E 113°19'17997.8
2015-Mar-23 08:05N 22°57' E 113°37'66147620.9
2015-Mar-23 08:04N 32°00' E 120°41'6601292.0
2015-Mar-23 07:33N 23°05' E 113°27'101021.8
2015-Mar-23 07:33N 22°55' E 113°28'101448.6
2015-Mar-23 07:32N 23°04' E 113°29'0288.3
2015-Mar-23 07:32N 23°04' E 113°29'048.9
2015-Mar-23 07:32N 23°04' E 113°29'82336.2
2015-Mar-23 07:32N 23°03' E 113°21'162207.9
2015-Mar-23 07:31N 22°57' E 113°37'6567175.3
2015-Mar-23 07:26N 31°21' E 121°27'51216.4
2015-Mar-23 07:12N 31°60' E 120°48'5179.0
2015-Mar-23 06:33N 31°21' E 121°27'6602374203.4
2015-Mar-23 06:33N 23°02' E 113°23'62585.6
2015-Mar-23 06:33N 23°04' E 113°29'0 1.4
2015-Mar-23 06:20N 23°04' E 113°29'0 2.0
2015-Mar-23 06:11N 23°04' E 113°29'66211345.7
2015-Mar-23 06:07N 31°56' E 120°53'6621163.3
2015-Mar-23 05:33N 23°04' E 113°29'92050.0
2015-Mar-23 05:33N 23°03' E 113°19'9629.4
2015-Mar-23 05:32N 23°04' E 113°29'6586529.0
2015-Mar-23 05:26N 31°24' E 121°31'51355.2
2015-Mar-23 05:17N 31°60' E 120°48'21581.0
2015-Mar-23 05:17N 31°58' E 120°50'6624197.0
2015-Mar-23 05:08N 23°04' E 113°29'10226.4
2015-Mar-23 05:05N 22°57' E 113°37'664477865.7
2015-Mar-23 05:05N 31°55' E 120°54'6621241.1
2015-Mar-23 04:33N 23°04' E 113°29'65969823.0
2015-Mar-23 04:33N 31°32' E 121°22'1171.1
2015-Mar-23 04:24N 31°24' E 121°30'65871825.0
2015-Mar-23 04:23N 23°04' E 113°29'0 1.3
2015-Mar-23 04:08N 23°04' E 113°29'9501638.9
2015-Mar-23 03:33N 36°51' E 122°29'95092449.2
2015-Mar-23 03:33N 23°04' E 113°29'0 3.1
2015-Mar-23 03:32N 23°04' E 113°29'2549417.3
2015-Mar-23 03:30N 24°25' E 117°52'254114259.2
2015-Mar-23 03:30N 23°04' E 113°29'6648887.3
2015-Mar-23 03:26N 32°01' E 120°49'328.3
2015-Mar-23 03:19N 31°58' E 120°50'682896.8
2015-Mar-23 02:33N 22°19' E 114°07'5711432.1
2015-Mar-23 02:33N 23°04' E 113°29'66215998.7
2015-Mar-23 02:31N 31°58' E 120°50'662125455.2
2015-Mar-23 02:30N 23°04' E 113°29'9578552.5
2015-Mar-23 02:23N 36°54' E 122°40'9617059.2
2015-Mar-23 02:15N 22°57' E 113°37'11147.7
2015-Mar-23 02:11N 23°04' E 113°29'0 0.6
2015-Mar-23 01:33N 23°04' E 113°29'6860996.0
2015-Mar-23 01:33N 22°12' E 114°17'681504.9
2015-Mar-23 01:30N 23°04' E 113°29'581356.5
2015-Mar-23 01:28N 22°18' E 114°07'67063510.5
2015-Mar-23 01:27N 31°22' E 121°28'6559699.3
2015-Mar-23 01:23N 23°04' E 113°29'6623765.5
2015-Mar-23 01:12N 31°58' E 120°50'4974.9
2015-Mar-23 00:33N 31°22' E 121°28'6552357054.7
2015-Mar-23 00:33N 23°04' E 113°29'686961.4
2015-Mar-23 00:33N 22°18' E 114°23'681590.8
2015-Mar-23 00:30N 23°04' E 113°29'581305.6
2015-Mar-23 00:28N 22°18' E 114°07'581295.0
2015-Mar-23 00:25N 23°04' E 113°29'6624701.4
2015-Mar-23 00:16N 31°58' E 120°50'3093445.8
2015-Mar-23 00:11N 36°53' E 122°43'337532.5
2015-Mar-22 23:33N 31°22' E 121°28'655124055.5
2015-Mar-22 23:33N 23°04' E 113°29'0 9.0
2015-Mar-22 23:30N 23°04' E 113°29'0 4.5
2015-Mar-22 23:28N 23°04' E 113°29'106243.2
2015-Mar-22 23:28N 22°57' E 113°37'483170.1
2015-Mar-22 23:27N 22°18' E 114°07'68220452.2
2015-Mar-22 23:25N 31°58' E 120°50'6646277.6
2015-Mar-22 23:19N 23°00' E 113°31'5167.4
2015-Mar-22 22:33N 22°20' E 114°05'5566573.7
2015-Mar-22 22:33N 23°04' E 113°29'65550150.4
2015-Mar-22 22:33N 31°22' E 121°28'32953891.6
2015-Mar-22 22:32N 26°08' E 119°34'37916422.4
2015-Mar-22 22:31N 23°04' E 113°30'178.7
2015-Mar-22 22:30N 23°04' E 113°29'58253.2
2015-Mar-22 22:16N 22°18' E 114°07'5880.2
2015-Mar-22 21:33N 23°04' E 113°29'5823067.0
2015-Mar-22 21:33N 22°18' E 114°07'37622543.5
2015-Mar-22 21:32N 26°08' E 119°34'32916021.3
2015-Mar-22 21:31N 31°22' E 121°28'655261808.3
2015-Mar-22 21:31N 23°04' E 113°30'113.2
2015-Mar-22 21:27N 23°04' E 113°29'9566351.5
2015-Mar-22 21:18N 36°51' E 122°43'3213222.9
2015-Mar-22 21:12N 31°57' E 120°09'35769.3
2015-Mar-22 21:09N 31°58' E 120°50'6621098.0
2015-Mar-22 20:33N 23°04' E 113°29'5814832.4
2015-Mar-22 20:33N 22°18' E 114°07'37625520.9
2015-Mar-22 20:32N 26°08' E 119°34'37713702.6
2015-Mar-22 20:31N 22°57' E 113°37'65617243.8
2015-Mar-22 20:28N 31°22' E 121°28'65584152.7
2015-Mar-22 20:28N 23°04' E 113°30'127.5
2015-Mar-22 20:26N 23°04' E 113°29'6589916.1
2015-Mar-22 20:22N 31°24' E 121°30'48801.8
2015-Mar-22 20:18N 31°58' E 120°50'311234.6
2015-Mar-22 20:18N 32°01' E 120°48'663881.6
2015-Mar-22 19:33N 23°04' E 113°29'588314.5
2015-Mar-22 19:33N 22°18' E 114°07'67075419.3
2015-Mar-22 19:32N 31°22' E 121°28'32998797.8
2015-Mar-22 19:32N 26°08' E 119°34'37916226.9
2015-Mar-22 19:31N 23°04' E 113°30'110.8
2015-Mar-22 19:26N 23°04' E 113°29'58349.7
2015-Mar-22 19:16N 22°19' E 114°07'98013409.0
2015-Mar-22 19:12N 36°50' E 122°41'9551489.6
2015-Mar-22 18:33N 23°04' E 113°29'3823.6
2015-Mar-22 18:33N 23°04' E 113°26'38226427.4
2015-Mar-22 18:32N 26°08' E 119°34'32914637.0
2015-Mar-22 18:31N 31°22' E 121°28'67037709.9
2015-Mar-22 18:30N 22°18' E 114°07'571734.8
2015-Mar-22 18:28N 23°04' E 113°30'95568734.4
2015-Mar-22 18:27N 36°51' E 122°41'9551061.2
2015-Mar-22 17:33N 23°04' E 113°29'588660.9
2015-Mar-22 17:33N 22°18' E 114°07'37658809.7
2015-Mar-22 17:32N 26°08' E 119°34'37916226.9
2015-Mar-22 17:31N 23°04' E 113°30'95566123.6
2015-Mar-22 17:30N 36°52' E 122°40'33517251.3
2015-Mar-22 17:29N 31°22' E 121°28'6595994.3
2015-Mar-22 17:22N 23°02' E 113°24'6627741.5
2015-Mar-22 17:17N 31°32' E 121°20'658898.6
2015-Mar-22 16:33N 23°04' E 113°29'65513546.4
2015-Mar-22 16:30N 31°22' E 121°28'33654973.4
2015-Mar-22 16:30N 36°52' E 122°40'96012296.3
2015-Mar-22 16:25N 23°02' E 113°24'652.5
2015-Mar-22 16:19N 23°04' E 113°30'662871.7
2015-Mar-22 15:33N 31°58' E 120°50'662297974.4
2015-Mar-22 15:33N 23°04' E 113°29'65535180.3
2015-Mar-22 15:32N 31°22' E 121°28'65563685.2
2015-Mar-22 15:31N 23°04' E 113°30'650.4
2015-Mar-22 15:25N 23°02' E 113°24'96058563.3
2015-Mar-22 15:24N 36°52' E 122°40'9597723.4
2015-Mar-22 15:16N 22°57' E 113°37'1014.3
2015-Mar-22 14:33N 23°04' E 113°29'95676505.0
2015-Mar-22 14:32N 36°51' E 122°43'3366260.8
2015-Mar-22 14:29N 31°22' E 121°28'65528736.0
2015-Mar-22 14:28N 23°04' E 113°30'6110.7
2015-Mar-22 14:25N 23°02' E 113°24'13130.5
2015-Mar-22 14:19N 22°57' E 113°37'1248.4
2015-Mar-22 14:03N 22°45' E 113°33'1938.0
2015-Mar-22 13:33N 23°04' E 113°29'65571426.4
2015-Mar-22 13:32N 31°22' E 121°28'67143126.1
2015-Mar-22 13:31N 22°44' E 113°29'19314.1
2015-Mar-22 13:28N 23°02' E 113°24'9599947.1
2015-Mar-22 13:22N 36°50' E 122°41'9559212.8
2015-Mar-22 13:16N 23°04' E 113°30'1 0.7
2015-Mar-22 12:33N 23°04' E 113°29'111.6
2015-Mar-22 12:31N 23°04' E 113°30'65515709.0
2015-Mar-22 12:28N 31°22' E 121°28'331198551.7
2015-Mar-22 12:28N 36°48' E 122°32'953201791.0
2015-Mar-22 12:28N 23°02' E 113°24'14299.4
2015-Mar-22 12:25N 22°48' E 113°21'1820.8
2015-Mar-22 11:33N 23°04' E 113°29'655102481.3
2015-Mar-22 11:33N 31°22' E 121°28'33127715.8
2015-Mar-22 11:32N 36°49' E 122°25'94759794.5
2015-Mar-22 11:31N 23°04' E 113°30'66055279.9
2015-Mar-22 11:31N 31°14' E 121°47'38392.2
2015-Mar-22 11:25N 31°39' E 121°13'664398424.2
2015-Mar-22 11:25N 23°02' E 113°24'66216092.3
2015-Mar-22 11:22N 32°02' E 120°35'7591.9
2015-Mar-22 10:33N 31°20' E 121°48'665108816.1
2015-Mar-22 10:33N 23°04' E 113°29'65538640.0
2015-Mar-22 10:32N 31°22' E 121°28'65525900.2
2015-Mar-22 10:30N 23°04' E 113°29'556.8
2015-Mar-22 10:25N 23°02' E 113°24'581691.8
2015-Mar-22 10:23N 22°19' E 114°07'5769.3
2015-Mar-22 09:33N 23°04' E 113°29'65134990.4
2015-Mar-22 09:32N 32°02' E 120°23'684994.6
2015-Mar-22 09:32N 31°22' E 121°28'65529834.6
2015-Mar-22 09:30N 23°04' E 113°29'582202.4
2015-Mar-22 09:29N 22°19' E 114°07'593922.6
2015-Mar-22 09:28N 23°02' E 113°24'591041.5
2015-Mar-22 09:24N 22°18' E 114°07'66149584.4
2015-Mar-22 09:24N 32°01' E 119°58'44552.6
2015-Mar-22 09:19N 31°58' E 120°50'2228.6
2015-Mar-22 08:34N 32°03' E 120°25'653587775.8
2015-Mar-22 08:33N 23°04' E 113°29'581958.0
2015-Mar-22 08:32N 22°18' E 114°07'67227171.7
2015-Mar-22 08:30N 31°22' E 121°29'66116290.5
2015-Mar-22 08:28N 23°02' E 113°24'5692.2
2015-Mar-22 08:27N 23°04' E 113°29'6302864.5
2015-Mar-22 08:14N 30°58' E 121°16'13224.3
2015-Mar-22 08:11N 31°07' E 121°28'2 4.0
2015-Mar-22 07:33N 31°09' E 121°27'5952771.5
2015-Mar-22 07:33N 31°58' E 120°50'6626442.2
2015-Mar-22 07:27N 23°04' E 113°29'581926.7
2015-Mar-22 07:25N 22°18' E 114°07'59366.6
2015-Mar-22 07:16N 23°02' E 113°24'661169959.9
2015-Mar-22 07:16N 31°47' E 120°57'4462.9
2015-Mar-22 06:33N 31°13' E 121°30'665125929.5
2015-Mar-22 06:33N 22°18' E 114°07'587699.8
2015-Mar-22 06:32N 23°04' E 113°29'1803920.2
2015-Mar-22 06:30N 23°07' E 116°44'573206432.7
2015-Mar-22 06:30N 32°01' E 120°42'66422345.8
2015-Mar-22 06:28N 23°02' E 113°24'5574.6
2015-Mar-22 06:27N 23°04' E 113°29'0 0.1
2015-Mar-22 05:33N 23°04' E 113°29'64049046.6
2015-Mar-22 05:33N 31°56' E 120°11'644463743.6
2015-Mar-22 05:33N 22°59' E 113°31'538596.5
2015-Mar-22 05:32N 22°18' E 114°07'621186409.0
2015-Mar-22 05:32N 29°58' E 121°53'48892485.8
2015-Mar-22 05:32N 23°12' E 116°50'1891631.0
2015-Mar-22 05:25N 23°02' E 113°24'667109079.1
2015-Mar-22 05:24N 31°58' E 120°50'56837.3
2015-Mar-22 05:20N 31°15' E 121°33'653834.9
2015-Mar-22 04:33N 23°04' E 113°29'616110918.4
2015-Mar-22 04:33N 29°56' E 122°01'15123674.0
2015-Mar-22 04:33N 31°56' E 120°14'54850592.9
2015-Mar-22 04:32N 23°17' E 116°54'1907499.3
2015-Mar-22 04:31N 22°54' E 113°29'67113272.2
2015-Mar-22 04:28N 31°59' E 120°50'41070.2
2015-Mar-22 04:27N 32°01' E 120°47'66716440.4
2015-Mar-22 04:25N 23°02' E 113°24'422.1
2015-Mar-22 04:13N 23°03' E 113°19'5 7.0
2015-Mar-22 03:33N 23°02' E 113°24'52511.5
2015-Mar-22 03:33N 23°04' E 113°29'61724682.9
2015-Mar-22 03:32N 29°51' E 122°07'1441581.6
2015-Mar-22 03:26N 31°58' E 120°50'10705.9
2015-Mar-22 03:26N 31°60' E 120°38'6613112.0
2015-Mar-22 03:13N 23°02' E 113°24'5 7.8
2015-Mar-22 02:33N 23°04' E 113°29'4183.4
2015-Mar-22 02:32N 23°01' E 113°31'6086178.8
2015-Mar-22 02:26N 29°44' E 121°58'1592077.1
2015-Mar-22 02:22N 31°56' E 120°14'6464379.4
2015-Mar-22 02:13N 23°02' E 113°24'063.4
2015-Mar-22 02:12N 23°02' E 113°24'6522.9
2015-Mar-22 02:12N 23°04' E 113°29'254304527.8
2015-Mar-22 02:12N 24°25' E 117°52'2432003.7
2015-Mar-22 02:04N 22°19' E 114°06'6631288.2
2015-Mar-22 01:33N 31°56' E 120°14'3127513.1
2015-Mar-22 01:33N 31°58' E 120°50'662170271.9
2015-Mar-22 01:33N 23°04' E 113°29'027.8
2015-Mar-22 01:33N 23°04' E 113°29'66359631.0
2015-Mar-22 01:32N 32°01' E 120°47'1494134.9
2015-Mar-22 01:30N 29°43' E 121°55'604434816.4
2015-Mar-22 01:30N 23°05' E 113°28'123847.2
2015-Mar-22 01:30N 22°55' E 113°36'471098.7
2015-Mar-22 01:27N 22°18' E 114°08'591603.9
2015-Mar-22 01:25N 23°02' E 113°24'9516891.7
2015-Mar-22 01:17N 36°51' E 122°23'9471302.2
2015-Mar-22 00:33N 23°04' E 113°29'581183.8
2015-Mar-22 00:30N 22°18' E 114°08'61250045.4
2015-Mar-22 00:29N 29°43' E 121°54'60828812.9
2015-Mar-22 00:28N 23°02' E 113°24'64668380.6
2015-Mar-22 00:27N 31°56' E 120°14'6425759.3
2015-Mar-22 00:21N 23°04' E 113°29'0 2.8
2015-Mar-22 00:13N 23°04' E 113°29'6629809.6
2015-Mar-22 00:09N 31°58' E 120°50'6621104.6
2015-Mar-21 23:33N 23°04' E 113°29'60438800.2
2015-Mar-21 23:33N 29°43' E 121°55'60432928.5
2015-Mar-21 23:31N 23°04' E 113°29'582138.1
2015-Mar-21 23:30N 22°18' E 114°08'58570.2
2015-Mar-21 23:24N 23°04' E 113°29'0 2.0
2015-Mar-21 23:13N 23°04' E 113°29'0 0.1
2015-Mar-21 22:33N 23°04' E 113°29'3798370.1
2015-Mar-21 22:30N 26°08' E 119°34'3766350.8
2015-Mar-21 22:27N 22°18' E 114°08'583250.8
2015-Mar-21 22:25N 23°04' E 113°29'011.2
2015-Mar-21 22:24N 23°04' E 113°29'0 2.4
2015-Mar-21 22:19N 23°04' E 113°29'947126316.8
2015-Mar-21 22:18N 36°51' E 122°23'3023289.9
2015-Mar-21 22:13N 31°58' E 120°51'6621015.4
2015-Mar-21 21:33N 23°04' E 113°29'66325387.1
2015-Mar-21 21:32N 32°01' E 120°48'68270156.3
2015-Mar-21 21:31N 22°19' E 114°07'68190830.5
2015-Mar-21 21:31N 31°60' E 120°48'662132421.4
2015-Mar-21 21:31N 23°04' E 113°29'22612526.4
2015-Mar-21 21:29N 23°40' E 117°32'1842043.3
2015-Mar-21 21:24N 26°08' E 119°34'3796656.0
2015-Mar-21 21:21N 23°04' E 113°29'0 2.0
2015-Mar-21 21:10N 23°04' E 113°29'6637621.4
2015-Mar-21 21:05N 32°01' E 120°47'6631250.9
2015-Mar-21 20:33N 23°04' E 113°29'23217435.8
2015-Mar-21 20:33N 23°45' E 117°39'2336696.7
2015-Mar-21 20:31N 23°04' E 113°29'37945481.4
2015-Mar-21 20:30N 26°08' E 119°34'35818139.9
2015-Mar-21 20:29N 31°60' E 120°48'931258.5
2015-Mar-21 20:24N 30°29' E 121°10'60648464.1
2015-Mar-21 20:24N 23°04' E 113°29'016.5
2015-Mar-21 20:22N 23°04' E 113°29'6637670.4
2015-Mar-21 20:17N 32°01' E 120°47'1049.1
2015-Mar-21 20:05N 31°53' E 120°54'6591249.4
2015-Mar-21 19:33N 23°04' E 113°29'238285173.4
2015-Mar-21 19:33N 23°52' E 117°43'51597495.3
2015-Mar-21 19:33N 31°60' E 120°48'66299301.4
2015-Mar-21 19:33N 23°04' E 113°29'3798691.0
2015-Mar-21 19:30N 26°08' E 119°34'3508925.5
2015-Mar-21 19:28N 31°56' E 120°14'64216984.2
2015-Mar-21 19:25N 23°04' E 113°29'0 0.6
2015-Mar-21 19:07N 23°04' E 113°29'65820774.4
2015-Mar-21 19:05N 31°47' E 120°59'3974.5
2015-Mar-21 18:33N 31°56' E 120°14'2917424.1
2015-Mar-21 18:33N 31°60' E 120°48'662148972.5
2015-Mar-21 18:33N 23°04' E 113°29'033.2
2015-Mar-21 18:33N 23°04' E 113°29'6634868.5
2015-Mar-21 18:24N 31°58' E 120°51'671201202.4
2015-Mar-21 18:24N 23°03' E 113°16'390108085.5
2015-Mar-21 18:24N 26°08' E 119°34'35932305.1
2015-Mar-21 18:23N 32°01' E 120°47'66321686.8
2015-Mar-21 18:22N 23°04' E 113°29'0 0.8
2015-Mar-21 18:10N 23°04' E 113°29'0 0.1
2015-Mar-21 17:33N 23°04' E 113°29'66368164.9
2015-Mar-21 17:33N 31°58' E 120°51'51931.1
2015-Mar-21 17:33N 32°00' E 120°45'5001800906.1
2015-Mar-21 17:33N 24°03' E 117°57'253455223.2
2015-Mar-21 17:33N 23°04' E 113°29'8905.7
2015-Mar-21 17:32N 23°03' E 113°21'8323.6
2015-Mar-21 17:31N 23°04' E 113°29'572554.8
2015-Mar-21 17:29N 22°19' E 114°07'67790290.3
2015-Mar-21 17:29N 31°40' E 121°13'66011533.4
2015-Mar-21 17:25N 23°04' E 113°29'6426599.8
2015-Mar-21 17:20N 31°56' E 120°14'3502784.3
2015-Mar-21 17:12N 26°08' E 119°34'35935894.9
2015-Mar-21 17:11N 32°01' E 120°47'4 6.8
2015-Mar-21 16:33N 31°58' E 120°51'66570373.7
2015-Mar-21 16:33N 23°04' E 113°25'32020.4
2015-Mar-21 16:33N 23°04' E 113°29'260187299.1
2015-Mar-21 16:33N 24°08' E 118°04'48213233.7
2015-Mar-21 16:31N 31°56' E 120°14'35043403.6
2015-Mar-21 16:30N 26°08' E 119°34'33928378.4
2015-Mar-21 16:29N 31°34' E 121°19'6597989.3
2015-Mar-21 16:24N 23°04' E 113°29'57257.1
2015-Mar-21 16:11N 22°19' E 114°07'572406.6
2015-Mar-21 16:10N 23°04' E 113°29'3784549.1
2015-Mar-21 16:05N 22°33' E 120°17'376723.3
2015-Mar-21 15:33N 23°02' E 113°31'37170388.9
2015-Mar-21 15:33N 22°33' E 120°13'1509454.9
2015-Mar-21 15:32N 24°13' E 118°11'47518810.2
2015-Mar-21 15:31N 31°56' E 120°14'6426111.0
2015-Mar-21 15:24N 23°04' E 113°29'37990950.5
2015-Mar-21 15:24N 26°08' E 119°34'37910106.8
2015-Mar-21 15:22N 23°04' E 113°29'660169607.7
2015-Mar-21 15:22N 31°29' E 121°27'66042396.6
2015-Mar-21 15:21N 23°04' E 113°29'658118498.7
2015-Mar-21 15:20N 31°24' E 121°30'48198.5
2015-Mar-21 15:06N 31°58' E 120°51'6631224.1
2015-Mar-21 14:33N 23°04' E 113°29'659593208.0
2015-Mar-21 14:33N 31°26' E 121°30'3299544.8
2015-Mar-21 14:31N 36°51' E 122°28'31530670.7
2015-Mar-21 14:31N 31°56' E 120°14'642288733.2
2015-Mar-21 14:31N 23°04' E 113°29'2749493.1
2015-Mar-21 14:29N 24°17' E 118°18'27322346.5
2015-Mar-21 14:28N 22°56' E 113°33'9685.5
2015-Mar-21 14:27N 23°04' E 113°29'64513815.8
2015-Mar-21 14:25N 31°57' E 120°18'64546413.1
2015-Mar-21 14:24N 23°04' E 113°29'60424691.4
2015-Mar-21 14:22N 29°43' E 121°55'431531.6
2015-Mar-21 13:34N 36°53' E 122°38'95644114.0
2015-Mar-21 13:32N 23°04' E 113°29'0 4.0
2015-Mar-21 13:31N 23°04' E 113°29'0 2.5
2015-Mar-21 13:27N 23°04' E 113°29'64213999.9
2015-Mar-21 13:25N 31°56' E 120°14'6429827.8
2015-Mar-21 13:21N 23°04' E 113°29'0 0.4
2015-Mar-21 12:34N 23°04' E 113°29'0 1.3
2015-Mar-21 12:31N 23°04' E 113°29'642177673.8
2015-Mar-21 12:30N 31°56' E 120°14'6423968.2
2015-Mar-21 12:21N 23°04' E 113°29'0 3.8
2015-Mar-21 12:15N 23°04' E 113°29'1399.4
2015-Mar-21 12:07N 22°51' E 113°33'1323.6
2015-Mar-21 11:34N 23°04' E 113°29'64212286.0
2015-Mar-21 11:30N 31°56' E 120°14'64212485.5
2015-Mar-21 11:27N 23°04' E 113°29'0 1.5
2015-Mar-21 11:22N 23°04' E 113°29'013.1
2015-Mar-21 11:21N 23°04' E 113°29'31924935.7
2015-Mar-21 11:20N 24°43' E 119°00'3281543.8
2015-Mar-21 11:07N 22°44' E 113°26'977159882.6
2015-Mar-21 11:07N 36°53' E 122°44'309101178.5
2015-Mar-21 11:07N 31°58' E 120°51'6631191.7
2015-Mar-21 10:33N 23°04' E 113°29'64214084.0
2015-Mar-21 10:30N 31°56' E 120°14'1584815.0
2015-Mar-21 10:29N 29°43' E 121°55'61724959.6
2015-Mar-21 10:27N 22°44' E 113°30'20354.4
2015-Mar-21 10:24N 23°04' E 113°29'95817072.4
2015-Mar-21 10:20N 36°52' E 122°45'95834489.5
2015-Mar-21 10:19N 23°04' E 113°29'0 0.1
2015-Mar-21 09:34N 23°04' E 113°29'64213274.5
2015-Mar-21 09:31N 31°56' E 120°14'64111545.5
2015-Mar-21 09:27N 23°04' E 113°30'110.9
2015-Mar-21 09:24N 23°04' E 113°29'3235117.6
2015-Mar-21 09:20N 24°46' E 119°04'31010530.3
2015-Mar-21 09:18N 22°19' E 114°06'67715532.3
2015-Mar-21 09:15N 32°00' E 120°37'128660.3
2015-Mar-21 09:15N 31°58' E 120°51'3088947.7
2015-Mar-21 09:13N 36°52' E 122°46'9581432.0
2015-Mar-21 08:33N 23°04' E 113°29'6612378841.7
2015-Mar-21 08:33N 32°01' E 120°44'66172078.9
2015-Mar-21 08:33N 23°04' E 113°29'64219245.7
2015-Mar-21 08:31N 31°56' E 120°14'32164198.4
2015-Mar-21 08:30N 36°52' E 122°44'75930711.2
2015-Mar-21 08:29N 24°40' E 118°48'54223.1
2015-Mar-21 08:14N 24°25' E 117°52'4327481.0
2015-Mar-21 08:11N 30°57' E 121°17'264457.5
2015-Mar-21 08:11N 31°22' E 121°28'665299363.3
2015-Mar-21 08:10N 22°43' E 113°40'22569.3
2015-Mar-21 08:08N 22°25' E 113°54'309525.6
2015-Mar-21 07:33N 24°45' E 118°54'31380588.0
2015-Mar-21 07:33N 23°04' E 113°29'076.1
2015-Mar-21 07:32N 23°04' E 113°29'66282192.3
2015-Mar-21 07:32N 31°58' E 120°51'2416.8
2015-Mar-21 07:32N 31°57' E 120°52'66234534.2
2015-Mar-21 07:31N 23°04' E 113°29'6431641.9
2015-Mar-21 07:07N 31°05' E 121°28'64210232.9
2015-Mar-21 07:03N 23°04' E 113°30'2 3.3
2015-Mar-21 06:33N 23°05' E 113°28'64589259.3
2015-Mar-21 06:33N 31°07' E 121°28'39879631.6
2015-Mar-21 06:33N 24°51' E 119°00'3211154775.7
2015-Mar-21 06:33N 23°04' E 113°29'0 2.2
2015-Mar-21 06:31N 23°04' E 113°29'9577027.6
2015-Mar-21 06:22N 36°51' E 122°43'345422.4
2015-Mar-21 05:33N 31°12' E 121°29'6482331987.3
2015-Mar-21 05:33N 23°04' E 113°29'61118.8
2015-Mar-21 05:33N 23°02' E 113°23'9618716.2
2015-Mar-21 05:26N 36°52' E 122°42'9567128.7
2015-Mar-21 05:18N 23°04' E 113°30'664878.6
2015-Mar-21 04:33N 32°01' E 120°49'66440519.3
2015-Mar-21 04:32N 23°04' E 113°29'660216015.6
2015-Mar-21 04:32N 31°38' E 121°15'32246405.5
2015-Mar-21 04:31N 36°53' E 122°42'7293755.5
2015-Mar-21 04:20N 25°05' E 119°14'3381990.1
2015-Mar-21 04:10N 23°04' E 113°29'111.5
2015-Mar-21 04:06N 23°04' E 113°30'1 0.9
2015-Mar-21 03:33N 23°04' E 113°29'659158207.1
2015-Mar-21 03:33N 31°33' E 121°21'2618911.3
2015-Mar-21 03:33N 31°18' E 121°47'66416595.5
2015-Mar-21 03:31N 23°04' E 113°29'1140.4
2015-Mar-21 03:30N 23°04' E 113°30'12389.0
2015-Mar-21 03:28N 23°04' E 113°16'96410675.1
2015-Mar-21 03:23N 36°54' E 122°42'3221189.5
2015-Mar-21 03:07N 31°56' E 120°14'65011872.3
2015-Mar-21 03:03N 23°03' E 113°15'6701340.9
2015-Mar-21 02:33N 31°15' E 121°47'164206.7
2015-Mar-21 02:33N 31°22' E 121°30'65667490.6
2015-Mar-21 02:33N 23°04' E 113°29'66255430.1
2015-Mar-21 02:32N 31°58' E 120°51'442973.9
2015-Mar-21 02:31N 31°28' E 121°28'688802.9
2015-Mar-21 02:31N 31°56' E 120°14'641144320.2
2015-Mar-21 02:30N 23°04' E 113°30'66288264.8
2015-Mar-21 02:30N 32°02' E 120°44'667171638.8
2015-Mar-21 02:30N 23°03' E 113°21'96275313.7
2015-Mar-21 02:29N 36°54' E 122°42'71810501.2
2015-Mar-21 02:25N 25°16' E 119°27'3526596.9
2015-Mar-21 02:22N 23°04' E 113°29'25412020.7
2015-Mar-21 02:20N 24°25' E 117°52'7065042.7
2015-Mar-21 02:12N 36°01' E 120°12'283434.3
2015-Mar-21 01:33N 31°25' E 121°31'659338795.6
2015-Mar-21 01:33N 23°04' E 113°29'65960810.6
2015-Mar-21 01:32N 31°24' E 121°32'379113839.7
2015-Mar-21 01:32N 25°19' E 119°35'39921412.6
2015-Mar-21 01:31N 31°56' E 120°14'6427649.2
2015-Mar-21 01:26N 23°04' E 113°29'662595419.9
2015-Mar-21 01:26N 31°08' E 121°56'67728338.4
2015-Mar-21 01:24N 22°26' E 113°53'67318785.4
2015-Mar-21 01:22N 31°21' E 121°31'656147634.4
2015-Mar-21 01:22N 23°04' E 113°29'958246401.1
2015-Mar-21 01:21N 36°52' E 122°46'3121875.8
2015-Mar-21 01:11N 31°54' E 120°55'6 9.3
2015-Mar-21 00:33N 31°58' E 120°51'4921992.7
2015-Mar-21 00:33N 31°22' E 121°30'65660597.9
2015-Mar-21 00:32N 23°04' E 113°29'64223569.2
2015-Mar-21 00:31N 31°56' E 120°14'642256642.0
2015-Mar-21 00:31N 23°04' E 113°29'65913033.8
2015-Mar-21 00:28N 31°50' E 120°56'65920104.3
2015-Mar-21 00:26N 23°04' E 113°29'6584906.5
2015-Mar-21 00:18N 31°29' E 121°24'326443.6
2015-Mar-20 23:34N 36°42' E 123°15'963157510.3
2015-Mar-20 23:33N 23°04' E 113°29'0 1.4
2015-Mar-20 23:31N 23°04' E 113°29'642144362.3
2015-Mar-20 23:30N 31°56' E 120°14'3712073.1
2015-Mar-20 23:20N 25°45' E 119°39'37868003.4
2015-Mar-20 23:19N 31°58' E 120°51'7361.6
2015-Mar-20 23:18N 32°02' E 120°44'0 0.0
2015-Mar-20 22:33N 32°02' E 120°44'662113516.3
2015-Mar-20 22:33N 23°04' E 113°29'604362132.5
2015-Mar-20 22:33N 29°43' E 121°55'14634924.6
2015-Mar-20 22:32N 31°58' E 120°51'66264419.7
2015-Mar-20 22:32N 23°04' E 113°29'64227828.9
2015-Mar-20 22:30N 31°56' E 120°14'32176983.2
2015-Mar-20 22:30N 36°44' E 123°04'30584575.2
2015-Mar-20 22:30N 32°01' E 120°45'3598020.8
2015-Mar-20 22:27N 26°08' E 119°34'3211974.2
2015-Mar-20 22:17N 30°55' E 122°16'873461.5
2015-Mar-20 22:16N 31°49' E 120°56'181548.6
2015-Mar-20 22:15N 31°39' E 121°13'2739.2
2015-Mar-20 21:33N 31°58' E 120°51'6621191743.1
2015-Mar-20 21:33N 23°04' E 113°29'379170540.7
2015-Mar-20 21:33N 26°08' E 119°34'360185091.6
2015-Mar-20 21:33N 32°02' E 120°44'5348.8
2015-Mar-20 21:32N 32°00' E 120°49'30991.0
2015-Mar-20 21:30N 31°56' E 120°14'36581.6
2015-Mar-20 21:27N 31°49' E 120°56'31410358.1
2015-Mar-20 21:25N 36°47' E 122°52'95711224.3
2015-Mar-20 21:20N 23°04' E 113°29'0 0.4
2015-Mar-20 21:11N 23°04' E 113°29'0 0.3
2015-Mar-20 20:33N 23°04' E 113°29'379151591.7
2015-Mar-20 20:33N 26°08' E 119°34'66115765.2
2015-Mar-20 20:31N 36°49' E 122°43'318104092.3
2015-Mar-20 20:31N 31°56' E 120°14'334888.9
2015-Mar-20 20:30N 31°55' E 120°53'10177.3
2015-Mar-20 20:27N 32°02' E 120°44'7329.0
2015-Mar-20 20:25N 31°58' E 120°51'10183.2
2015-Mar-20 20:22N 31°49' E 120°56'2974096.1
2015-Mar-20 20:18N 36°35' E 122°32'9381688226.2
2015-Mar-20 20:18N 23°04' E 113°29'0 0.7
2015-Mar-20 20:08N 23°04' E 113°29'379659.5
2015-Mar-20 19:33N 26°08' E 119°34'349114328.1
2015-Mar-20 19:33N 31°50' E 120°55'6581184079.6
2015-Mar-20 19:33N 23°04' E 113°29'6476.1
2015-Mar-20 19:32N 23°02' E 113°23'64723511.5
2015-Mar-20 19:31N 31°56' E 120°14'31397.5
2015-Mar-20 19:26N 31°58' E 120°51'780.4
2015-Mar-20 19:21N 32°02' E 120°44'17581.2
2015-Mar-20 19:19N 31°49' E 120°56'6584804.7
2015-Mar-20 19:11N 23°04' E 113°29'3575770.7
2015-Mar-20 19:07N 25°18' E 119°32'399709.3
2015-Mar-20 18:33N 31°56' E 120°14'642177682.3
2015-Mar-20 18:33N 23°04' E 113°29'604434611.5
2015-Mar-20 18:33N 29°43' E 121°55'60430182.1
2015-Mar-20 18:32N 23°04' E 113°29'131719.3
2015-Mar-20 18:31N 22°51' E 113°34'3825660.7
2015-Mar-20 18:27N 26°08' E 119°34'3601170.4
2015-Mar-20 18:09N 32°02' E 120°44'287488.0
2015-Mar-20 17:33N 36°36' E 122°32'302135943.5
2015-Mar-20 17:33N 31°56' E 120°14'64260783.6
2015-Mar-20 17:33N 23°04' E 113°29'37930343.0
2015-Mar-20 17:32N 26°08' E 119°34'3791073.7
2015-Mar-20 17:11N 23°04' E 113°29'6421030.7
2015-Mar-20 16:33N 31°56' E 120°14'64686178.0
2015-Mar-20 16:33N 22°56' E 113°34'1034318.5
2015-Mar-20 16:33N 23°04' E 113°29'372148765.9
2015-Mar-20 16:33N 26°00' E 119°29'37221256.6
2015-Mar-20 16:32N 23°04' E 113°29'3792166.2
2015-Mar-20 16:21N 26°08' E 119°34'3601746.1
2015-Mar-20 16:09N 32°02' E 120°44'401346.0
2015-Mar-20 16:07N 31°35' E 121°19'59104.6
2015-Mar-20 15:33N 31°56' E 120°14'642177672.5
2015-Mar-20 15:33N 23°04' E 113°29'3681991.3
2015-Mar-20 15:22N 25°58' E 119°26'37112485.3
2015-Mar-20 15:20N 32°02' E 120°44'7244.8
2015-Mar-20 15:19N 31°58' E 120°51'3572280.7
2015-Mar-20 15:09N 26°08' E 119°34'37914830.6
2015-Mar-20 15:08N 23°04' E 113°29'0 0.2
2015-Mar-20 14:33N 23°04' E 113°29'65910682.9
2015-Mar-20 14:30N 31°25' E 121°31'34510174.5
2015-Mar-20 14:28N 25°58' E 119°26'3603396.6
2015-Mar-20 14:21N 31°56' E 120°14'6423689.8
2015-Mar-20 14:11N 23°04' E 113°29'368593.8
2015-Mar-20 13:34N 25°58' E 119°26'36811736.3
2015-Mar-20 13:32N 23°04' E 113°29'32223173.5
2015-Mar-20 13:31N 24°52' E 119°01'4303813.7
2015-Mar-20 13:24N 31°50' E 120°54'34753.5
2015-Mar-20 13:21N 31°56' E 120°14'6423678.0
2015-Mar-20 13:11N 23°04' E 113°29'315503.1
2015-Mar-20 12:33N 24°46' E 118°55'435522401.9
2015-Mar-20 12:33N 31°56' E 120°14'10594061.3
2015-Mar-20 12:33N 31°05' E 122°02'663183642.4
2015-Mar-20 12:33N 23°04' E 113°29'43904.2
2015-Mar-20 12:30N 22°28' E 113°53'3698469.8
2015-Mar-20 12:27N 25°58' E 119°26'36860223.5
2015-Mar-20 12:27N 23°04' E 113°30'661198291.7
2015-Mar-20 12:27N 31°56' E 120°52'5 5.5
2015-Mar-20 11:32N 32°00' E 120°48'662264977.1
2015-Mar-20 11:31N 23°04' E 113°29'3188308.2
2015-Mar-20 11:29N 24°53' E 118°57'42916238.6
2015-Mar-20 11:28N 31°56' E 120°14'360185369.2
2015-Mar-20 11:27N 25°58' E 119°26'3686559.0
2015-Mar-20 11:24N 23°04' E 113°30'65671551.4
2015-Mar-20 11:24N 31°21' E 121°30'100631.9
2015-Mar-20 11:14N 29°43' E 121°54'782047.1
2015-Mar-20 11:12N 31°00' E 122°11'336526.2
2015-Mar-20 10:33N 25°58' E 119°26'368120542.9
2015-Mar-20 10:33N 23°04' E 113°29'64285533.7
2015-Mar-20 10:33N 31°56' E 120°14'731738.2
2015-Mar-20 10:30N 31°21' E 121°30'55199541.6
2015-Mar-20 10:30N 32°02' E 120°46'4408117.5
2015-Mar-20 10:27N 24°53' E 118°57'3186544.6
2015-Mar-20 10:24N 23°04' E 113°30'6593684.5
2015-Mar-20 10:13N 32°01' E 120°42'8137.7
2015-Mar-20 10:10N 31°58' E 120°51'1458183.7
2015-Mar-20 10:09N 29°43' E 121°54'332561.8
2015-Mar-20 09:33N 24°51' E 118°56'4091472699.5
2015-Mar-20 09:33N 31°11' E 121°50'663596564.2
2015-Mar-20 09:33N 23°04' E 113°25'37253553.7
2015-Mar-20 09:33N 25°58' E 119°26'36833109.0
2015-Mar-20 09:32N 31°58' E 120°51'50923.8
2015-Mar-20 09:29N 31°21' E 121°30'55927.5
2015-Mar-20 09:25N 32°01' E 120°46'44312088.0
2015-Mar-20 09:23N 24°48' E 118°56'3162344.0
2015-Mar-20 09:15N 23°04' E 113°30'316453.9
2015-Mar-20 08:33N 24°49' E 118°56'4181504684.7
2015-Mar-20 08:33N 31°18' E 121°47'14162.2
2015-Mar-20 08:28N 31°21' E 121°30'65642930.6
2015-Mar-20 08:27N 23°04' E 113°30'8198.5
2015-Mar-20 08:25N 22°57' E 113°33'6676219.7
2015-Mar-20 08:18N 31°59' E 120°51'181.0
2015-Mar-20 08:18N 31°58' E 120°51'67416745.9
2015-Mar-20 08:15N 22°42' E 113°41'182909.5
2015-Mar-20 08:15N 22°55' E 113°27'37584324.9
2015-Mar-20 08:15N 25°58' E 119°26'369534.3
2015-Mar-20 07:33N 23°04' E 113°29'670401909.3
2015-Mar-20 07:33N 31°26' E 121°48'35140789.0
2015-Mar-20 07:33N 25°58' E 119°26'7529890.6
2015-Mar-20 07:33N 24°48' E 118°55'416115272.2
2015-Mar-20 07:32N 31°21' E 121°30'69295854.9
2015-Mar-20 07:32N 22°14' E 113°35'33321038.6
2015-Mar-20 07:31N 24°49' E 118°57'3178146.2
2015-Mar-20 07:29N 22°48' E 113°37'10127.6
2015-Mar-20 07:24N 22°56' E 113°30'3171535.6
2015-Mar-20 07:12N 24°48' E 118°55'3152200.5
2015-Mar-20 07:03N 23°04' E 113°30'816.4
2015-Mar-20 06:33N 23°02' E 113°21'32313852.1
2015-Mar-20 06:32N 24°48' E 118°55'5130382.4
2015-Mar-20 06:32N 24°13' E 118°14'26918283.7
2015-Mar-20 06:31N 22°56' E 113°33'9153.2
2015-Mar-20 06:27N 23°04' E 113°29'36878016.3
2015-Mar-20 06:27N 25°58' E 119°26'74485.2
2015-Mar-20 06:18N 24°49' E 118°57'142.9
2015-Mar-20 06:16N 24°48' E 118°55'31543635.7
2015-Mar-20 06:15N 23°04' E 113°30'65687453.5
2015-Mar-20 06:15N 31°21' E 121°30'657953.8
2015-Mar-20 05:33N 23°02' E 113°31'2649038.1
2015-Mar-20 05:32N 24°10' E 118°09'583789.1
2015-Mar-20 05:31N 24°48' E 118°56'41699811.5
2015-Mar-20 05:31N 31°21' E 121°30'65611689.2
2015-Mar-20 05:27N 23°04' E 113°30'3159205.8
2015-Mar-20 05:25N 24°47' E 118°55'3153657.8
2015-Mar-20 05:20N 23°04' E 113°29'3164369.7
2015-Mar-20 05:16N 24°48' E 118°55'317441.7
2015-Mar-20 04:33N 23°06' E 113°27'31713426.9
2015-Mar-20 04:31N 24°48' E 118°55'0 6.1
2015-Mar-20 04:28N 24°48' E 118°55'3155454.5
2015-Mar-20 04:24N 23°04' E 113°30'3163517.6
2015-Mar-20 04:19N 24°48' E 118°55'4146418.9
2015-Mar-20 04:15N 31°20' E 121°25'6525630.7
2015-Mar-20 04:08N 23°04' E 113°29'662970.2
2015-Mar-20 03:27N 31°60' E 120°49'11290.5
2015-Mar-20 03:25N 31°50' E 120°55'3601313.4
2015-Mar-20 03:08N 25°58' E 119°26'715420.1
2015-Mar-20 03:07N 24°53' E 118°55'4129688.2
2015-Mar-20 03:05N 31°22' E 121°28'5094.9
2015-Mar-20 02:33N 31°60' E 120°49'443106387.6
2015-Mar-20 02:33N 24°48' E 118°55'4291.3
2015-Mar-20 02:32N 24°52' E 118°55'42866926.4
2015-Mar-20 02:31N 31°46' E 120°56'49619640.3
2015-Mar-20 02:30N 23°56' E 117°54'48710069.0
2015-Mar-20 02:27N 31°24' E 121°31'658215241.4
2015-Mar-20 02:27N 23°04' E 113°30'36831545.9
2015-Mar-20 02:26N 25°58' E 119°26'75602.9
2015-Mar-20 02:19N 24°48' E 118°55'41662458.8
2015-Mar-20 02:18N 31°21' E 121°30'6568781.2
2015-Mar-20 02:14N 23°04' E 113°29'64012198.8
2015-Mar-20 02:11N 31°56' E 120°11'6416862.5
2015-Mar-20 02:05N 23°06' E 113°26'318597.5
2015-Mar-20 01:33N 24°48' E 118°55'064.0
2015-Mar-20 01:33N 24°48' E 118°55'43167533.9
2015-Mar-20 01:32N 31°46' E 120°56'50462508.7
2015-Mar-20 01:32N 23°50' E 117°49'15527862.3
2015-Mar-20 01:32N 25°58' E 119°26'37011005.3
2015-Mar-20 01:30N 23°06' E 113°26'63813840.7
2015-Mar-20 01:27N 31°57' E 120°05'379592.3
2015-Mar-20 01:27N 31°60' E 120°49'66211092.9
2015-Mar-20 01:23N 23°04' E 113°29'60470095.7
2015-Mar-20 01:22N 29°43' E 121°55'1001323.8
2015-Mar-20 01:18N 31°21' E 121°30'65612903.4
2015-Mar-20 01:15N 23°04' E 113°30'25314710.0
2015-Mar-20 01:14N 24°25' E 117°52'470676.5
2015-Mar-20 00:32N 31°46' E 120°56'1552382.3
2015-Mar-20 00:32N 31°60' E 120°49'44219637.0
2015-Mar-20 00:31N 24°49' E 118°57'2752.9
2015-Mar-20 00:31N 24°48' E 118°55'41760022.9
2015-Mar-20 00:30N 31°21' E 121°30'50111405.6
2015-Mar-20 00:28N 23°44' E 117°42'943069.1
2015-Mar-20 00:26N 24°49' E 118°56'31845802.7
2015-Mar-20 00:25N 23°06' E 113°27'63774030.1
2015-Mar-20 00:25N 32°01' E 119°58'3644173.1
2015-Mar-20 00:20N 25°58' E 119°26'3688342.3
2015-Mar-20 00:17N 23°04' E 113°29'0 2.5
2015-Mar-20 00:11N 23°04' E 113°29'6561050.3
2015-Mar-19 23:33N 31°46' E 120°56'15744.3
2015-Mar-19 23:32N 31°60' E 120°49'52975.0
2015-Mar-19 23:29N 31°21' E 121°30'4286.2
2015-Mar-19 23:28N 31°19' E 121°34'4169537.4
2015-Mar-19 23:26N 24°48' E 118°55'7545242.5
2015-Mar-19 23:26N 25°58' E 119°26'7413377.6
2015-Mar-19 23:25N 24°48' E 118°56'3178636.3
2015-Mar-19 23:23N 23°04' E 113°29'3196347.5
2015-Mar-19 23:20N 24°48' E 118°59'74613435.7
2015-Mar-19 23:17N 36°53' E 122°26'95017185.2
2015-Mar-19 23:13N 23°06' E 113°27'2111.2
2015-Mar-19 23:12N 23°04' E 113°29'2252170.5
2015-Mar-19 23:06N 23°37' E 117°32'225412.9
2015-Mar-19 22:33N 23°04' E 113°29'656196897.2
2015-Mar-19 22:33N 31°22' E 121°30'42083916.7
2015-Mar-19 22:33N 24°45' E 118°57'44684448.4
2015-Mar-19 22:32N 31°60' E 120°49'555099.2
2015-Mar-19 22:32N 31°19' E 121°34'657157585.1
2015-Mar-19 22:31N 23°06' E 113°27'3807685.4
2015-Mar-19 22:28N 26°08' E 119°34'1283.1
2015-Mar-19 22:20N 25°58' E 119°26'357464.2
2015-Mar-19 21:33N 31°46' E 120°56'4230083.2
2015-Mar-19 21:33N 31°19' E 121°34'656181786.0
2015-Mar-19 21:33N 23°04' E 113°29'66251837.6
2015-Mar-19 21:32N 31°60' E 120°49'44022320.2
2015-Mar-19 21:31N 24°51' E 118°57'7225975.4
2015-Mar-19 21:31N 25°58' E 119°26'7412679.1
2015-Mar-19 21:31N 24°49' E 118°56'145.7
2015-Mar-19 21:30N 24°50' E 118°56'854260.6
2015-Mar-19 21:28N 26°08' E 119°34'37935912.8
2015-Mar-19 21:28N 23°04' E 113°29'250.4
2015-Mar-19 21:25N 23°05' E 113°27'65998921.2
2015-Mar-19 21:24N 31°36' E 121°16'2023.4
2015-Mar-19 20:33N 31°46' E 120°56'65598314.8
2015-Mar-19 20:33N 23°04' E 113°29'66258159.2
2015-Mar-19 20:32N 31°60' E 120°49'5725540.3
2015-Mar-19 20:32N 31°14' E 121°29'33515445.1
2015-Mar-19 20:31N 25°58' E 119°26'3683565.2
2015-Mar-19 20:25N 23°04' E 113°29'3799543.3
2015-Mar-19 20:22N 26°08' E 119°34'3806455.7
2015-Mar-19 20:19N 23°05' E 113°27'657865.1
2015-Mar-19 19:33N 31°19' E 121°34'1012538.9
2015-Mar-19 19:33N 31°10' E 121°28'646232663.4
2015-Mar-19 19:33N 23°04' E 113°29'65518432.6
2015-Mar-19 19:31N 31°46' E 120°56'391630.6
2015-Mar-19 19:30N 31°21' E 121°31'5262964.3
2015-Mar-19 19:29N 31°60' E 120°49'15843.1
2015-Mar-19 19:28N 32°01' E 120°31'3686367.6
2015-Mar-19 19:25N 25°58' E 119°26'370332576.6
2015-Mar-19 19:25N 23°05' E 113°27'212.1
2015-Mar-19 19:13N 23°04' E 113°29'3799610.5
2015-Mar-19 19:10N 26°08' E 119°34'357183818.7
2015-Mar-19 19:10N 32°00' E 120°42'6591063.2
2015-Mar-19 18:33N 23°04' E 113°29'36810124.0
2015-Mar-19 18:31N 25°58' E 119°26'3687054.5
2015-Mar-19 18:28N 23°04' E 113°29'65513640.1
2015-Mar-19 18:25N 31°46' E 120°56'6561180042.7
2015-Mar-19 18:25N 23°05' E 113°27'657168886.7
2015-Mar-19 18:25N 31°19' E 121°34'553017.0
2015-Mar-19 18:24N 31°60' E 120°49'3583009.7
2015-Mar-19 18:16N 26°08' E 119°34'339467.1
2015-Mar-19 17:33N 31°26' E 121°48'14922.7
2015-Mar-19 17:32N 31°19' E 121°34'65735824.4
2015-Mar-19 17:31N 23°05' E 113°27'3809310.2
2015-Mar-19 17:28N 26°08' E 119°34'37934993.9
2015-Mar-19 17:28N 23°04' E 113°29'0 3.1
2015-Mar-19 17:24N 23°04' E 113°29'3683889.7
2015-Mar-19 17:18N 25°58' E 119°26'32514110.5
2015-Mar-19 17:17N 31°05' E 121°28'65141103.1
2015-Mar-19 17:16N 23°04' E 113°16'672943.6
2015-Mar-19 16:33N 31°18' E 121°48'664170759.6
2015-Mar-19 16:33N 23°04' E 113°29'645232118.2
2015-Mar-19 16:33N 31°08' E 121°27'12377.4
2015-Mar-19 16:31N 31°19' E 121°34'657337793.8
2015-Mar-19 16:31N 23°05' E 113°27'66217276.2
2015-Mar-19 16:29N 32°01' E 120°46'314.6
2015-Mar-19 16:18N 31°60' E 120°49'6628310.0
2015-Mar-19 16:13N 23°04' E 113°29'36842785.9
2015-Mar-19 16:12N 25°58' E 119°26'12404.3
2015-Mar-19 16:10N 26°08' E 119°34'22710204.5
2015-Mar-19 16:09N 23°14' E 116°54'5566249.5
2015-Mar-19 16:04N 31°46' E 120°56'4486.5
2015-Mar-19 15:33N 31°13' E 121°30'1526732.0
2015-Mar-19 15:33N 31°14' E 121°48'135835.4
2015-Mar-19 15:33N 31°19' E 121°34'656590806.6
2015-Mar-19 15:33N 23°04' E 113°29'0 2.6
2015-Mar-19 15:28N 23°04' E 113°29'65524580.3
2015-Mar-19 15:26N 31°46' E 120°56'35711082.7
2015-Mar-19 15:24N 25°58' E 119°26'37078403.6
2015-Mar-19 15:24N 32°01' E 120°47'2419.8
2015-Mar-19 15:24N 31°60' E 120°49'6638398.8
2015-Mar-19 15:19N 23°05' E 113°27'6598350.0
2015-Mar-19 15:14N 31°45' E 121°03'46681.9
2015-Mar-19 15:10N 31°04' E 121°28'5396620.1
2015-Mar-19 15:05N 23°07' E 116°47'23617685.2
2015-Mar-19 15:04N 26°08' E 119°34'346649.1
2015-Mar-19 14:32N 31°46' E 120°56'65625940.1
2015-Mar-19 14:31N 23°05' E 113°27'65737532.6
2015-Mar-19 14:30N 31°19' E 121°34'743785.5
2015-Mar-19 14:29N 31°59' E 120°20'6478438.7
2015-Mar-19 14:24N 23°04' E 113°29'6425895.1
2015-Mar-19 14:18N 31°04' E 121°28'651355.1
2015-Mar-19 14:15N 31°60' E 120°49'3698977.6
2015-Mar-19 14:12N 25°58' E 119°26'3682621.2
2015-Mar-19 14:04N 23°04' E 113°29'368658.2
2015-Mar-19 13:30N 25°58' E 119°26'3214655.6
2015-Mar-19 13:26N 31°00' E 121°26'63932390.1
2015-Mar-19 13:25N 23°05' E 113°27'66343373.9
2015-Mar-19 13:24N 32°01' E 120°47'5549124.4
2015-Mar-19 13:24N 31°21' E 121°31'37305.0
2015-Mar-19 13:17N 31°01' E 122°08'66451950.0
2015-Mar-19 13:16N 23°04' E 113°29'65715347.5
2015-Mar-19 13:13N 31°19' E 121°34'65635806.5
2015-Mar-19 13:12N 23°04' E 113°29'368553.7
2015-Mar-19 12:32N 25°58' E 119°26'31728559.8
2015-Mar-19 12:31N 30°59' E 121°20'63414348.9
2015-Mar-19 12:29N 23°06' E 113°27'2134.6
2015-Mar-19 12:28N 23°04' E 113°29'657157567.3
2015-Mar-19 12:27N 31°19' E 121°34'534592.8
2015-Mar-19 11:33N 22°31' E 120°09'371102687.9
2015-Mar-19 11:33N 23°04' E 113°29'65652515.8
2015-Mar-19 11:32N 31°19' E 121°34'34115135.3
2015-Mar-19 11:31N 25°58' E 119°26'3662564.6
2015-Mar-19 11:23N 31°56' E 120°52'11336.2
2015-Mar-19 11:21N 31°46' E 120°56'65628105.7
2015-Mar-19 11:19N 23°03' E 113°31'62830150.2
2015-Mar-19 11:18N 30°57' E 121°13'6287154.4
2015-Mar-19 11:13N 23°04' E 113°29'378558.3
2015-Mar-19 10:32N 22°33' E 120°17'21011813.4
2015-Mar-19 10:31N 25°58' E 119°26'34181726.6
2015-Mar-19 10:31N 31°19' E 121°34'57462.9
2015-Mar-19 10:23N 32°00' E 120°47'162043.7
2015-Mar-19 10:23N 31°46' E 120°56'155286.1
2015-Mar-19 10:23N 31°60' E 120°49'66222286.4
2015-Mar-19 10:21N 23°04' E 113°29'0 2.2
2015-Mar-19 10:14N 23°04' E 113°29'6634907.9
2015-Mar-19 10:06N 32°01' E 120°47'58106.0
2015-Mar-19 09:33N 31°19' E 121°34'3419581.9
2015-Mar-19 09:31N 25°58' E 119°25'3673828.4
2015-Mar-19 09:25N 23°03' E 113°31'360622302.5
2015-Mar-19 09:16S 23°47' E 151°10'360820356.6
2015-Mar-19 09:05N 23°04' E 113°29'65642954.7
2015-Mar-19 09:04N 31°21' E 121°31'0 0.0
2015-Mar-19 08:32N 31°21' E 121°31'5231364.3
2015-Mar-19 08:32N 31°60' E 120°49'1126.6
2015-Mar-19 08:32N 32°00' E 120°49'61601.5
2015-Mar-19 08:31N 31°55' E 120°52'661216324.8
2015-Mar-19 08:31N 23°03' E 113°31'65740067.7
2015-Mar-19 08:30N 31°19' E 121°34'45711583.7
2015-Mar-19 08:28N 24°24' E 117°58'2594053.0
2015-Mar-19 08:24N 23°04' E 113°29'6266936.2
2015-Mar-19 08:19N 31°05' E 120°60'429563.4
2015-Mar-19 07:33N 24°25' E 118°04'4549135.3
2015-Mar-19 07:30N 31°19' E 121°34'375.1
2015-Mar-19 07:28N 31°21' E 121°31'6562763.8
2015-Mar-19 07:13N 23°03' E 113°31'2115.2
2015-Mar-19 07:12N 23°04' E 113°29'2 3.4
2015-Mar-19 06:31N 23°03' E 113°31'26617434.7
2015-Mar-19 06:30N 24°21' E 118°09'45618858.7
2015-Mar-19 06:29N 31°19' E 121°34'6568149.3
2015-Mar-19 06:24N 23°04' E 113°29'6572366455.9
2015-Mar-19 06:24N 31°49' E 120°55'174001.7
2015-Mar-19 06:24N 31°60' E 120°40'65840.3
2015-Mar-19 06:19N 30°59' E 121°08'29311.3
2015-Mar-19 06:14N 31°21' E 121°31'3 4.4
2015-Mar-19 05:32N 31°19' E 121°34'29702.8
2015-Mar-19 05:29N 30°57' E 121°12'640177139.8
2015-Mar-19 05:29N 22°54' E 113°22'61516533.5
2015-Mar-19 05:27N 29°43' E 121°55'60431493.8
2015-Mar-19 05:26N 23°04' E 113°29'12178.7
2015-Mar-19 05:22N 23°04' E 113°16'1275.6
2015-Mar-19 05:12N 23°04' E 113°29'229.2
2015-Mar-19 05:07N 23°03' E 113°31'66318786.7
2015-Mar-19 05:05N 31°60' E 120°49'55104.5
2015-Mar-19 04:33N 31°19' E 121°34'2647217.5
2015-Mar-19 04:33N 30°57' E 121°17'63123421.8
2015-Mar-19 04:32N 23°05' E 113°28'11124.7
2015-Mar-19 04:26N 22°53' E 113°30'11193.5
2015-Mar-19 04:23N 23°02' E 113°22'2685104.0
2015-Mar-19 04:20N 24°12' E 118°04'2612089.6
2015-Mar-19 04:12N 23°04' E 113°29'229.2
2015-Mar-19 04:07N 23°03' E 113°31'6351125.3
2015-Mar-19 03:33N 30°59' E 121°21'642210159.3
2015-Mar-19 03:33N 22°53' E 113°30'37212635.0
2015-Mar-19 03:32N 22°37' E 120°13'372111608.8
2015-Mar-19 03:31N 23°03' E 113°31'65710648.6
2015-Mar-19 03:28N 31°19' E 121°34'6562532.9
2015-Mar-19 03:12N 23°04' E 113°29'6571021.8
2015-Mar-19 02:34N 31°22' E 121°30'66472484.9
2015-Mar-19 02:33N 22°53' E 113°30'66414854.8
2015-Mar-19 02:30N 31°19' E 121°34'561156.6
2015-Mar-19 02:27N 31°60' E 120°48'4374271.2
2015-Mar-19 02:21N 24°53' E 119°03'32310031.9
2015-Mar-19 02:19N 23°03' E 113°31'6100.0
2015-Mar-19 02:16N 23°02' E 113°24'1114.1
2015-Mar-19 01:31N 22°53' E 113°30'1049.9
2015-Mar-19 01:19N 23°03' E 113°31'6526.0
2015-Mar-19 01:19N 23°02' E 113°24'6617414.9
2015-Mar-19 01:13N 31°19' E 121°34'6569340.9
2015-Mar-19 01:09N 23°04' E 113°29'58597.7
2015-Mar-19 01:03N 22°18' E 114°07'4995.2
2015-Mar-19 00:33N 22°53' E 113°30'10473.0
2015-Mar-19 00:31N 23°03' E 113°31'6583227.2
2015-Mar-19 00:19N 31°60' E 120°40'67819527.5
2015-Mar-19 00:17N 22°18' E 114°08'58700.3
2015-Mar-19 00:12N 23°04' E 113°29'0 0.0
2015-Mar-18 23:33N 23°04' E 113°29'5282.4
2015-Mar-18 23:32N 23°02' E 113°24'115487.2
2015-Mar-18 23:32N 22°53' E 113°30'491005.3
2015-Mar-18 23:29N 22°18' E 114°08'67214746.1
2015-Mar-18 23:26N 31°19' E 121°34'65741470.9
2015-Mar-18 23:25N 23°03' E 113°31'619.1
2015-Mar-18 23:07N 23°02' E 113°24'23510441.9
2015-Mar-18 23:05N 23°40' E 117°37'505943.6
2015-Mar-18 22:33N 31°19' E 121°34'6582367734.3
2015-Mar-18 22:33N 23°05' E 113°26'121123.7
2015-Mar-18 22:33N 22°53' E 113°30'111030.9
2015-Mar-18 22:32N 22°53' E 113°18'151469.2
2015-Mar-18 22:31N 23°03' E 113°31'561401.6
2015-Mar-18 22:29N 22°18' E 114°08'3761720.9
2015-Mar-18 22:16N 26°08' E 119°34'360162004.8
2015-Mar-18 22:16N 32°04' E 120°30'6577958.2
2015-Mar-18 22:11N 23°04' E 113°29'0 8.3
2015-Mar-18 22:09N 23°04' E 113°29'0 0.1
2015-Mar-18 21:33N 23°04' E 113°29'65687530.6
2015-Mar-18 21:32N 31°19' E 121°34'674738.5
2015-Mar-18 21:32N 32°03' E 120°34'658236721.8
2015-Mar-18 21:31N 23°03' E 113°31'3796489.1
2015-Mar-18 21:28N 26°08' E 119°34'3843947.1
2015-Mar-18 21:22N 22°53' E 113°30'49635.1
2015-Mar-18 21:17N 22°18' E 114°08'58951.5
2015-Mar-18 21:14N 23°04' E 113°29'15521.3
2015-Mar-18 21:12N 22°53' E 113°17'1623.8
2015-Mar-18 20:33N 23°04' E 113°29'65669509.1
2015-Mar-18 20:32N 31°19' E 121°34'3753207882.7
2015-Mar-18 20:31S 23°48' E 151°12'3815156069.4
2015-Mar-18 20:30N 31°60' E 120°38'678106072.4
2015-Mar-18 20:29N 22°18' E 114°08'131958.4
2015-Mar-18 20:29N 22°13' E 114°20'708635.3
2015-Mar-18 20:28N 23°04' E 113°29'37938991.5
2015-Mar-18 20:28N 26°08' E 119°34'37911468.1
2015-Mar-18 20:26N 23°04' E 113°29'217.0
2015-Mar-18 20:19N 23°03' E 113°31'661853.3
2015-Mar-18 19:33N 32°01' E 120°45'596405.8
2015-Mar-18 19:32N 31°19' E 121°34'65647264.4
2015-Mar-18 19:31N 23°04' E 113°29'21243.5
2015-Mar-18 19:31N 23°03' E 113°31'10220.1
2015-Mar-18 19:29N 22°53' E 113°30'49482.0
2015-Mar-18 19:23N 22°18' E 114°08'37628785.0
2015-Mar-18 19:22N 26°08' E 119°34'3792077.4
2015-Mar-18 19:11N 23°04' E 113°29'6561047.6
2015-Mar-18 18:33N 31°19' E 121°34'223991.9
2015-Mar-18 18:33N 30°59' E 121°23'6510608.7
2015-Mar-18 18:33N 31°58' E 120°51'66332244.8
2015-Mar-18 18:31N 23°03' E 113°31'3796551.4
2015-Mar-18 18:28N 26°08' E 119°34'3841288.7
2015-Mar-18 18:10N 22°53' E 113°30'11262.7
2015-Mar-18 18:07N 23°04' E 113°29'6391126.4
2015-Mar-18 17:33N 31°01' E 121°27'6471164118.4
2015-Mar-18 17:33N 22°53' E 113°30'664341661.9
2015-Mar-18 17:33N 31°19' E 121°34'4728017.8
2015-Mar-18 17:33N 31°52' E 120°54'3513933.9
2015-Mar-18 17:28N 26°08' E 119°34'3794611.0
2015-Mar-18 17:23N 23°04' E 113°29'0135.1
2015-Mar-18 17:23N 23°04' E 113°29'12304.9
2015-Mar-18 17:20N 23°04' E 113°16'12832.9
2015-Mar-18 17:19N 23°04' E 113°29'21869.0
2015-Mar-18 17:19N 23°03' E 113°31'6033378.4
2015-Mar-18 17:09N 29°43' E 121°55'84143.8
2015-Mar-18 16:33N 31°05' E 121°28'166202.7
2015-Mar-18 16:33N 31°19' E 121°34'66432319.4
2015-Mar-18 16:32N 22°53' E 113°30'111156.5
2015-Mar-18 16:31N 23°04' E 113°29'65558985.0
2015-Mar-18 16:31N 31°47' E 120°54'3467167.4
2015-Mar-18 16:28N 26°08' E 119°34'249127932.7
2015-Mar-18 16:28N 29°43' E 121°55'60419577.1
2015-Mar-18 16:26N 23°04' E 113°29'0 6.0
2015-Mar-18 16:23N 23°04' E 113°29'233.2
2015-Mar-18 16:19N 23°03' E 113°31'55209.4
2015-Mar-18 16:04N 22°11' E 113°51'6761342.1
2015-Mar-18 15:33N 31°09' E 121°28'1110040.0
2015-Mar-18 15:33N 31°19' E 121°34'689247914.4
2015-Mar-18 15:33N 22°11' E 113°47'451003.1
2015-Mar-18 15:30N 22°53' E 113°30'66418664.6
2015-Mar-18 15:28N 31°47' E 120°54'65516157.0
2015-Mar-18 15:26N 23°04' E 113°29'2270.8
2015-Mar-18 15:25N 23°03' E 113°31'2 8.3
2015-Mar-18 15:12N 23°04' E 113°29'11392.1
2015-Mar-18 15:10N 22°54' E 113°30'3843806.1
2015-Mar-18 15:04N 26°08' E 119°34'322636.6
2015-Mar-18 14:33N 31°14' E 121°30'6582368643.1
2015-Mar-18 14:33N 22°53' E 113°30'10284.6
2015-Mar-18 14:31N 23°03' E 113°31'5348123.1
2015-Mar-18 14:31N 22°10' E 113°38'551154.5
2015-Mar-18 14:28N 23°04' E 113°29'65636925.4
2015-Mar-18 14:27N 31°19' E 121°34'65626259.5
2015-Mar-18 14:26N 23°04' E 113°29'3792271.0
2015-Mar-18 14:16N 26°08' E 119°34'3461914.9
2015-Mar-18 14:05N 31°47' E 120°54'4382.3
2015-Mar-18 13:33N 31°19' E 121°34'65620730.1
2015-Mar-18 13:31N 23°04' E 113°29'22569.7
2015-Mar-18 13:31N 23°03' E 113°31'1081.7
2015-Mar-18 13:24N 22°55' E 113°25'10740.7
2015-Mar-18 13:24N 23°04' E 113°29'021.2
2015-Mar-18 13:23N 23°04' E 113°29'929.4
2015-Mar-18 13:05N 23°03' E 113°19'3 5.8
2015-Mar-18 12:33N 23°02' E 113°22'66214351.4
2015-Mar-18 12:30N 31°21' E 121°31'65626845.0
2015-Mar-18 12:28N 23°04' E 113°29'242.1
2015-Mar-18 12:25N 23°03' E 113°31'251.7
2015-Mar-18 12:23N 23°04' E 113°29'0 6.5
2015-Mar-18 12:21N 23°04' E 113°29'65718321.9
2015-Mar-18 12:18N 31°19' E 121°34'43265.6
2015-Mar-18 12:09N 31°47' E 120°54'6561103.3
2015-Mar-18 11:33N 23°05' E 113°27'659103076.1
2015-Mar-18 11:32N 31°24' E 121°31'66195119.0
2015-Mar-18 11:32N 22°59' E 113°31'65923041.1
2015-Mar-18 11:30N 31°19' E 121°34'43581.5
2015-Mar-18 11:26N 31°47' E 120°54'65516611.7
2015-Mar-18 11:24N 23°04' E 113°29'0 4.2
2015-Mar-18 11:19N 23°04' E 113°29'756.4
2015-Mar-18 11:12N 23°02' E 113°21'1624.4
2015-Mar-18 10:33N 22°52' E 113°34'66391801.8
2015-Mar-18 10:33N 31°19' E 121°34'660263914.1
2015-Mar-18 10:33N 23°03' E 113°25'6625180.2
2015-Mar-18 10:25N 31°24' E 121°31'1031752.1
2015-Mar-18 10:21N 29°43' E 121°54'60419751.2
2015-Mar-18 10:20N 23°04' E 113°29'6593625.3
2015-Mar-18 10:09N 31°29' E 121°26'6671139.5
2015-Mar-18 09:33N 22°47' E 113°38'246233.8
2015-Mar-18 09:33N 22°28' E 113°54'613157518.8
2015-Mar-18 09:33N 29°43' E 121°54'60365828.0
2015-Mar-18 09:32N 23°03' E 113°30'65750288.4
2015-Mar-18 09:32N 31°19' E 121°34'656168798.4
2015-Mar-18 09:31N 23°04' E 113°29'65881689.9
2015-Mar-18 09:31N 31°31' E 121°22'67512269.1
2015-Mar-18 09:28N 22°18' E 114°07'67517228.9
2015-Mar-18 09:25N 31°30' E 121°23'65816120.8
2015-Mar-18 09:23N 23°04' E 113°29'6558900.7
2015-Mar-18 09:18N 31°47' E 120°54'6554802.5
2015-Mar-18 09:10N 23°04' E 113°30'6615750.2
2015-Mar-18 09:03N 31°55' E 120°54'6791334.2
2015-Mar-18 08:33N 22°28' E 113°54'412524.6
2015-Mar-18 08:32N 23°06' E 113°36'651212925.5
2015-Mar-18 08:32N 31°19' E 121°34'65612181.2
2015-Mar-18 08:28N 23°04' E 113°29'662119201.3
2015-Mar-18 08:28N 31°58' E 120°51'121070.1
2015-Mar-18 08:27N 31°47' E 120°54'65532740.7
2015-Mar-18 08:26N 23°03' E 113°31'65911400.4
2015-Mar-18 08:23N 31°36' E 121°16'17388.2
2015-Mar-18 08:20N 31°21' E 121°27'6545634.3
2015-Mar-18 08:13N 23°04' E 113°30'603361953.7
2015-Mar-18 08:13N 29°43' E 121°54'122181.5
2015-Mar-18 07:33N 31°40' E 121°12'65932076.8
2015-Mar-18 07:31N 23°04' E 113°29'65557523.4
2015-Mar-18 07:31N 31°47' E 120°54'67218190.3
2015-Mar-18 07:29N 22°28' E 113°54'67121368.1
2015-Mar-18 07:27N 31°19' E 121°34'60845.0
2015-Mar-18 07:22N 32°00' E 120°42'54421.2
2015-Mar-18 07:15N 31°21' E 121°27'0 0.0
2015-Mar-18 06:34N 31°21' E 121°27'37311105.1
2015-Mar-18 06:32N 37°33' E 122°11'100280138.9
2015-Mar-18 06:31N 22°28' E 113°54'431108.5
2015-Mar-18 06:28N 23°04' E 113°29'583127.3
2015-Mar-18 06:27N 22°18' E 114°07'674220653.5
2015-Mar-18 06:27N 31°47' E 120°54'44916.7
2015-Mar-18 06:24N 31°19' E 121°34'6643209.5
2015-Mar-18 06:12N 22°53' E 113°31'66428805.8
2015-Mar-18 06:10N 32°00' E 120°35'763509.5
2015-Mar-18 06:09N 31°15' E 121°46'41032113.3
2015-Mar-18 06:08N 24°53' E 118°57'31849835.7
2015-Mar-18 06:08N 23°04' E 113°29'4273.8
2015-Mar-18 05:34N 22°28' E 113°54'1001189583.2
2015-Mar-18 05:33N 37°30' E 122°16'77635358.8
2015-Mar-18 05:32N 24°53' E 118°57'31836904.2
2015-Mar-18 05:31N 23°00' E 113°32'66511454.5
2015-Mar-18 05:28N 31°18' E 121°47'11147.5
2015-Mar-18 05:23N 31°19' E 121°34'0 0.0
2015-Mar-18 04:33N 31°19' E 121°34'41246381.7
2015-Mar-18 04:32N 24°50' E 118°59'3248208.9
2015-Mar-18 04:30N 23°03' E 113°25'3247623.5
2015-Mar-18 04:27N 24°50' E 118°60'3132587.9
2015-Mar-18 04:20N 22°28' E 113°54'42259.2
2015-Mar-18 04:10N 23°04' E 113°30'65565509.4
2015-Mar-18 04:10N 31°47' E 120°54'49704.5
2015-Mar-18 04:05N 31°28' E 121°47'42272427.9
2015-Mar-18 04:05N 24°53' E 118°57'394662.0
2015-Mar-18 03:29N 31°08' E 121°12'65028546.4
2015-Mar-18 03:28N 22°28' E 113°54'67124897.2
2015-Mar-18 03:26N 31°20' E 121°34'6286.3
2015-Mar-18 03:25N 31°21' E 121°27'38174.7
2015-Mar-18 03:12N 31°47' E 120°54'42723655.2
2015-Mar-18 03:11N 24°53' E 118°57'3153614.4
2015-Mar-18 03:06N 23°05' E 113°33'3167739.7
2015-Mar-18 03:03N 24°50' E 118°59'397794.2
2015-Mar-18 02:33N 31°10' E 121°09'231249.8
2015-Mar-18 02:32N 31°24' E 121°31'41718767.4
2015-Mar-18 02:31N 24°49' E 118°59'41453192.0
2015-Mar-18 02:30N 31°20' E 121°34'41234515.5
2015-Mar-18 02:30N 24°50' E 118°59'429140315.2
2015-Mar-18 02:29N 31°45' E 121°05'9498.3
2015-Mar-18 02:28N 31°47' E 120°54'42719467.3
2015-Mar-18 02:27N 24°52' E 118°57'3136181.7
2015-Mar-18 02:24N 22°28' E 113°54'411351.3
2015-Mar-18 02:22N 23°03' E 113°30'989.8
2015-Mar-18 02:16N 22°57' E 113°37'10197.8
2015-Mar-18 02:13N 23°04' E 113°30'710.5
2015-Mar-18 01:33N 23°02' E 113°22'660169769.5
2015-Mar-18 01:33N 31°47' E 120°54'672120923.2
2015-Mar-18 01:33N 22°28' E 113°54'448851.8
2015-Mar-18 01:33N 23°05' E 113°27'66021784.3
2015-Mar-18 01:31N 31°27' E 121°28'9695.7
2015-Mar-18 01:30N 31°20' E 121°34'221493.7
2015-Mar-18 01:29N 31°14' E 121°09'4017153.4
2015-Mar-18 01:26N 24°50' E 118°58'31512726.6
2015-Mar-18 01:24N 22°57' E 113°37'105253.3
2015-Mar-18 01:24N 23°04' E 113°29'3208531.7
2015-Mar-18 01:22N 24°50' E 118°59'1 8.2
2015-Mar-18 01:15N 24°50' E 118°60'403573.6
2015-Mar-18 00:33N 31°17' E 121°08'40326401.5
2015-Mar-18 00:32N 24°50' E 118°60'32614292.9
2015-Mar-18 00:30N 23°02' E 113°24'444258.5
2015-Mar-18 00:30N 22°27' E 113°53'41884.3
2015-Mar-18 00:27N 23°03' E 113°30'65817958.0
2015-Mar-18 00:25N 31°30' E 121°23'67423552.3
2015-Mar-18 00:23N 22°19' E 114°09'58316.7
2015-Mar-18 00:12N 23°04' E 113°29'6591015.9
2015-Mar-17 23:33N 31°34' E 121°18'66451936.9
2015-Mar-17 23:32N 22°55' E 113°33'64252547.8
2015-Mar-17 23:32N 31°16' E 121°05'64775158.7
2015-Mar-17 23:31N 22°55' E 113°25'6138168.7
2015-Mar-17 23:27N 29°43' E 121°54'6119904.4
2015-Mar-17 23:23N 22°19' E 114°09'58446.4
2015-Mar-17 23:15N 23°04' E 113°29'3213385.7
2015-Mar-17 23:09N 24°50' E 119°00'4286615.2
2015-Mar-17 23:06N 31°47' E 120°54'6631215.2
2015-Mar-17 22:33N 22°52' E 113°32'32255131.2
2015-Mar-17 22:32N 24°50' E 118°60'31941057.0
2015-Mar-17 22:32N 23°03' E 113°30'65535206.9
2015-Mar-17 22:31N 31°47' E 120°54'4520.3
2015-Mar-17 22:30N 31°47' E 120°59'42930279.3
2015-Mar-17 22:30N 24°51' E 118°59'33122505.0
2015-Mar-17 22:29N 29°43' E 121°54'61112783.5
2015-Mar-17 22:26N 22°19' E 114°09'676143236.3
2015-Mar-17 22:26N 31°41' E 121°10'4262959.2
2015-Mar-17 22:17N 24°51' E 119°00'3222284.2
2015-Mar-17 22:08N 22°51' E 113°34'321534.5
2015-Mar-17 21:32N 24°50' E 118°60'324116642.0
2015-Mar-17 21:32N 23°03' E 113°25'32368372.6
2015-Mar-17 21:32N 24°50' E 118°58'306220067.6
2015-Mar-17 21:32N 22°19' E 114°09'61119808.7
2015-Mar-17 21:30N 29°43' E 121°54'33217578.2
2015-Mar-17 21:29N 24°50' E 118°59'3212379.0
2015-Mar-17 21:21N 22°51' E 113°34'3822790.3
2015-Mar-17 21:13N 26°08' E 119°34'387593.5
2015-Mar-17 20:33N 23°03' E 113°19'661264445.0
2015-Mar-17 20:33N 31°47' E 120°54'42911694.8
2015-Mar-17 20:31N 24°50' E 118°59'151.0
2015-Mar-17 20:30N 24°51' E 118°58'31911725.4
2015-Mar-17 20:29N 22°53' E 113°34'60811337.2
2015-Mar-17 20:25N 29°43' E 121°54'61113656.9
2015-Mar-17 20:23N 22°19' E 114°09'582121.8
2015-Mar-17 20:21N 23°04' E 113°29'3799346.7
2015-Mar-17 20:19N 26°08' E 119°34'32337563.9
2015-Mar-17 20:18N 31°15' E 121°30'4074374.3
2015-Mar-17 20:12N 24°50' E 118°59'319479.8
2015-Mar-17 19:33N 23°01' E 113°31'64968682.5
2015-Mar-17 19:32N 31°11' E 121°28'40327388.8
2015-Mar-17 19:31N 24°50' E 118°59'33211283.8
2015-Mar-17 19:29N 29°43' E 121°54'6119859.9
2015-Mar-17 19:26N 22°19' E 114°09'30612964.5
2015-Mar-17 19:24N 24°51' E 118°58'31971841.8
2015-Mar-17 19:24N 23°04' E 113°29'6559394.0
2015-Mar-17 19:20N 31°47' E 120°54'34617542.9
2015-Mar-17 19:19N 26°08' E 119°34'8450250.6
2015-Mar-17 19:18N 24°50' E 118°59'3235870.9
2015-Mar-17 19:15N 22°54' E 113°30'6674289.8
2015-Mar-17 19:06N 31°45' E 121°04'6621195.1
2015-Mar-17 18:33N 23°04' E 113°25'613069.0
2015-Mar-17 18:31N 22°19' E 114°09'30647899.4
2015-Mar-17 18:31N 24°50' E 118°59'39729799.8
2015-Mar-17 18:30N 31°05' E 121°28'3971428418.1
2015-Mar-17 18:30N 24°51' E 118°58'3328848.1
2015-Mar-17 18:28N 29°43' E 121°55'6045136.9
2015-Mar-17 18:21N 23°04' E 113°29'3207774.1
2015-Mar-17 18:18N 24°50' E 118°59'329422.1
2015-Mar-17 17:32N 23°03' E 113°18'32932901.5
2015-Mar-17 17:31N 24°50' E 118°59'027.6
2015-Mar-17 17:30N 24°50' E 118°59'1162.1
2015-Mar-17 17:30N 24°51' E 118°58'3069260.5
2015-Mar-17 17:28N 22°19' E 114°09'67312620.7
2015-Mar-17 17:25N 31°47' E 120°54'0 0.0
2015-Mar-17 16:33N 31°47' E 120°54'34625420.7
2015-Mar-17 16:32N 26°08' E 119°34'34622269.4
2015-Mar-17 16:31N 31°47' E 120°56'6743292.6
2015-Mar-17 16:19N 22°19' E 114°09'30628271.9
2015-Mar-17 16:18N 24°50' E 118°59'1176.1
2015-Mar-17 16:18N 24°51' E 118°58'1 4.2
2015-Mar-17 16:07N 24°50' E 118°59'3097569.5
2015-Mar-17 16:05N 22°17' E 114°06'6761297.3
2015-Mar-17 15:33N 31°47' E 120°54'247.1
2015-Mar-17 15:31N 31°47' E 120°56'674134813.7
2015-Mar-17 15:31N 22°19' E 114°09'67710453.9
2015-Mar-17 15:27N 31°45' E 121°04'4298672.5
2015-Mar-17 15:24N 24°51' E 118°58'1 9.2
2015-Mar-17 15:19N 24°50' E 118°59'3204947.8
2015-Mar-17 15:15N 22°51' E 113°34'13128.9
2015-Mar-17 15:09N 23°04' E 113°29'3795269.3
2015-Mar-17 15:05N 26°08' E 119°34'84150.5
2015-Mar-17 14:31N 24°50' E 118°59'027.9
2015-Mar-17 14:30N 24°50' E 118°59'1203.2
2015-Mar-17 14:30N 24°51' E 118°58'3193090.4
2015-Mar-17 14:24N 23°04' E 113°29'13722.8
2015-Mar-17 14:23N 22°51' E 113°34'462514.5
2015-Mar-17 14:22N 22°19' E 114°09'6734580.4
2015-Mar-17 14:13N 31°47' E 120°54'234.4
2015-Mar-17 14:10N 31°47' E 120°56'67520950.8
2015-Mar-17 14:08N 22°26' E 113°53'355528.1
2015-Mar-17 13:28N 22°37' E 120°17'341102283.9
2015-Mar-17 13:28N 22°19' E 114°09'67326629.0
2015-Mar-17 13:26N 31°47' E 120°54'2243.0
2015-Mar-17 13:26N 31°49' E 120°55'43173940.7
2015-Mar-17 13:25N 24°50' E 118°59'0 9.5
2015-Mar-17 13:24N 24°50' E 118°59'3191562.1
2015-Mar-17 13:12N 23°04' E 113°29'0 0.0
2015-Mar-17 12:33N 23°04' E 113°29'66123805.0
2015-Mar-17 12:31N 31°56' E 120°52'10153.1
2015-Mar-17 12:28N 31°47' E 120°54'4275775.9
2015-Mar-17 12:23N 24°52' E 119°01'217.9
2015-Mar-17 12:15N 24°50' E 118°59'151842.5
2015-Mar-17 12:05N 22°37' E 120°17'151265.9
2015-Mar-17 11:30N 24°50' E 118°59'2 9.4
2015-Mar-17 11:16N 24°51' E 119°01'4283630.7
2015-Mar-17 11:09N 31°47' E 120°57'657118187.2
2015-Mar-17 11:09N 23°04' E 113°29'58643.2
2015-Mar-17 11:04N 22°19' E 114°09'58114.4
2015-Mar-17 10:33N 23°04' E 113°29'31913834.8
2015-Mar-17 10:32N 24°50' E 118°58'334.8
2015-Mar-17 10:27N 24°51' E 119°01'42710250.6
2015-Mar-17 10:24N 31°47' E 120°54'6732698.5
2015-Mar-17 10:09N 22°19' E 114°09'0 0.0
2015-Mar-17 09:33N 22°19' E 114°09'3077073.5
2015-Mar-17 09:31N 24°50' E 118°59'2108.3
2015-Mar-17 09:30N 24°52' E 119°01'3222240.4
2015-Mar-17 09:21N 23°04' E 113°29'0 0.1
2015-Mar-17 08:33N 23°04' E 113°29'32012798.5
2015-Mar-17 08:31N 24°51' E 118°59'156.1
2015-Mar-17 08:31N 24°51' E 119°00'3205934.6
2015-Mar-17 08:27N 22°59' E 113°33'8134.1
2015-Mar-17 08:24N 22°51' E 113°34'6705945.2
2015-Mar-17 08:17N 32°00' E 120°47'43971836.5
2015-Mar-17 08:17N 24°51' E 119°01'4272308.4
2015-Mar-17 08:06N 31°47' E 120°54'1527375.8
2015-Mar-17 08:06N 32°00' E 120°46'440803.9
2015-Mar-17 07:33N 24°50' E 119°01'38426553.4
2015-Mar-17 07:32N 30°56' E 121°13'64120430.5
2015-Mar-17 07:30N 22°19' E 114°09'3071767.1
2015-Mar-17 07:20N 24°51' E 118°59'116.6
2015-Mar-17 07:16N 24°51' E 119°00'2 2.3
2015-Mar-17 06:22N 24°50' E 118°59'339.4
2015-Mar-17 06:17N 24°52' E 119°01'43544766.1
2015-Mar-17 06:16N 31°57' E 120°47'4375674.7
2015-Mar-17 06:12N 24°51' E 119°00'320496.5
2015-Mar-17 05:33N 22°59' E 113°33'8153.9
2015-Mar-17 05:30N 22°51' E 113°34'466915.5
2015-Mar-17 05:30N 22°19' E 114°09'30811203.8
2015-Mar-17 05:28N 24°51' E 119°01'2 8.9
2015-Mar-17 05:16N 24°50' E 118°59'319442.3
2015-Mar-17 04:33N 22°59' E 113°33'61867385.3
2015-Mar-17 04:33N 29°50' E 122°07'13225017.3
2015-Mar-17 04:32N 31°47' E 120°54'4271826.5
2015-Mar-17 04:18N 24°51' E 119°01'313.9
2015-Mar-17 04:06N 24°50' E 118°58'346611.0
2015-Mar-17 03:32N 29°55' E 122°02'12675817.6
2015-Mar-17 03:32N 31°47' E 120°54'66312495.4
2015-Mar-17 03:29N 22°53' E 113°31'32327080.0
2015-Mar-17 03:28N 24°51' E 119°01'331596092.6
2015-Mar-17 03:28N 23°03' E 113°18'1035.0
2015-Mar-17 03:11N 23°04' E 113°29'3212922.4
2015-Mar-17 03:04N 24°50' E 119°00'1 2.2
2015-Mar-17 02:33N 24°51' E 118°59'3207785.2
2015-Mar-17 02:31N 22°60' E 113°31'71098.7
2015-Mar-17 02:30N 23°02' E 113°24'6167197.2
2015-Mar-17 02:25N 29°58' E 121°52'34417425.9
2015-Mar-17 02:24N 24°50' E 119°00'3204224.6
2015-Mar-17 02:19N 23°04' E 113°29'0 0.4
2015-Mar-17 01:34N 23°04' E 113°29'659.9
2015-Mar-17 01:27N 22°59' E 113°33'31940996.2
2015-Mar-17 01:27N 24°50' E 118°60'3281179638.2
2015-Mar-17 01:27N 23°03' E 113°21'3276297.0
2015-Mar-17 01:23N 24°50' E 118°59'4414787.1
2015-Mar-17 01:18N 32°01' E 120°47'15202.0
2015-Mar-17 01:13N 31°47' E 120°54'9617914.3
2015-Mar-17 01:06N 19°44' E 109°11'308565.9
2015-Mar-17 00:33N 22°42' E 113°40'31982006.7
2015-Mar-17 00:33N 24°50' E 119°00'32015381.4
2015-Mar-17 00:32N 23°04' E 113°29'046.0
2015-Mar-17 00:31N 23°04' E 113°29'3199197.9
2015-Mar-17 00:29N 24°50' E 118°59'6241830.4
2015-Mar-17 00:09N 19°44' E 109°11'96154900.1
2015-Mar-17 00:08N 31°47' E 120°54'428736.5
2015-Mar-16 23:33N 24°51' E 118°59'44337944.3
2015-Mar-16 23:32N 32°02' E 120°50'165778.7
2015-Mar-16 23:32N 31°47' E 120°54'65542108.3
2015-Mar-16 23:31N 23°04' E 113°29'65523827.4
2015-Mar-16 23:30N 32°00' E 120°34'43818144.8
2015-Mar-16 23:28N 24°50' E 118°60'6255241.9
2015-Mar-16 23:21N 19°44' E 109°11'312392.5
2015-Mar-16 22:33N 23°04' E 113°29'31270310.1
2015-Mar-16 22:33N 19°44' E 109°11'62330325.9
2015-Mar-16 22:32N 24°50' E 118°58'2102.5
2015-Mar-16 22:30N 24°51' E 119°01'42814394.8
2015-Mar-16 22:29N 31°47' E 120°54'161101.9
2015-Mar-16 22:28N 32°01' E 120°47'6637526.3
2015-Mar-16 22:22N 23°04' E 113°29'67018706.0
2015-Mar-16 22:20N 31°28' E 121°47'4962.2
2015-Mar-16 21:33N 31°47' E 120°54'  

Dump ship's entire track history